Provisional Data: Mill Creek near Lancaster, PA


Please select a monitoring station.
Please select start date.
Please select start date.

Toggle Unit: C/F Toggle Unit: C/F
Sample Time Temperature (C) Temperature (F) Specific Conductivity (mS/cm) pH   Turbidity (NTU+) DO (mg/L)
12/23/2022 12:00:00 AM 4.92 40.856 0.575 7.95 192.3 12.1
12/23/2022 12:15:00 AM 5.21 41.378 0.479 7.93 266.5 12.04
12/23/2022 12:30:00 AM 5.42 41.756 0.47 7.92 164.6 11.91
12/23/2022 12:45:00 AM 5.5 41.9 0.567 7.86 124.7 11.8
12/23/2022 1:00:00 AM 5.54 41.972 0.645 7.84 135.2 11.74
12/23/2022 1:15:00 AM 5.58 42.044 0.624 7.84 188.3 11.73
12/23/2022 1:30:00 AM 5.77 42.386 0.568 7.81 305.6 11.64
12/23/2022 1:45:00 AM 6.05 42.89 0.482 7.79 685.1 11.41
12/23/2022 2:00:00 AM 6.29 43.322 0.413 7.78 1063 11.13
12/23/2022 2:15:00 AM 6.42 43.556 0.384 7.69 1169 11.01
12/23/2022 2:30:00 AM 6.44 43.592 0.394 7.65 1002 11.05
12/23/2022 2:45:00 AM 6.37 43.466 0.424 7.67 807.2 11.19
12/23/2022 3:00:00 AM 6.32 43.376 0.444 7.6 636.8 11.28
12/23/2022 3:15:00 AM 6.32 43.376 0.448 7.72 532.9 11.33
12/23/2022 3:30:00 AM 6.32 43.376 0.46 7.69 496.2 11.36
12/23/2022 3:45:00 AM 6.29 43.322 0.476 7.72 416.6 11.39
12/23/2022 4:00:00 AM 6.29 43.322 0.483 7.72 377 11.39
12/23/2022 4:15:00 AM 6.31 43.358 0.483 7.72 340.9 11.39
12/23/2022 4:30:00 AM 6.34 43.412 0.488 7.74 300.8 11.4
12/23/2022 4:45:00 AM 6.37 43.466 0.49 7.74 284.9 11.4
12/23/2022 5:00:00 AM 6.43 43.574 0.484 7.76 249.5 11.38
12/23/2022 5:15:00 AM 6.5 43.7 0.471 7.77 243.3 11.32
12/23/2022 5:30:00 AM 6.59 43.862 0.445 7.76 252.3 11.27
12/23/2022 5:45:00 AM 6.68 44.024 0.428 7.75 278.1 11.2
12/23/2022 6:00:00 AM 6.74 44.132 0.417 7.72 305.3 11.15
12/23/2022 6:15:00 AM 6.79 44.222 0.419 7.74 308.8 11.11
12/23/2022 6:30:00 AM 6.8 44.24 0.427 7.7 302.2 11.11
12/23/2022 6:45:00 AM 6.81 44.258 0.44 7.7 282.3 11.11
12/23/2022 7:00:00 AM 6.8 44.24 0.456 7.72 264.1 11.11
12/23/2022 7:15:00 AM 6.79 44.222 0.473 7.65 247.6 11.12
12/23/2022 7:30:00 AM 6.77 44.186 0.494 7.71 215.4 11.13
12/23/2022 7:45:00 AM 6.74 44.132 0.52 7.73 214.2 11.15
12/23/2022 8:00:00 AM 6.71 44.078 0.546 7.75 195.7 11.16
12/23/2022 8:15:00 AM 6.69 44.042 0.572 7.76 182 11.18
12/23/2022 8:30:00 AM 6.68 44.024 0.59 7.77 171.6 11.17
12/23/2022 8:45:00 AM 6.67 44.006 0.604 7.78 176.6 11.18
12/23/2022 9:00:00 AM 6.67 44.006 0.611 7.78 163.9 11.18
12/23/2022 9:15:00 AM 6.69 44.042 0.611 7.73 177.7 11.17
12/23/2022 9:30:00 AM 6.72 44.096 0.603 7.75 161.4 11.15
12/23/2022 9:45:00 AM 6.75 44.15 0.59 7.78 166.3 11.14
12/23/2022 10:00:00 AM 6.8 44.24 0.579 7.74 159.8 11.12
12/23/2022 10:15:00 AM 6.82 44.276 0.572 7.76 150.3 11.11
12/23/2022 10:30:00 AM 6.82 44.276 0.57 7.77 162.3 11.11
12/23/2022 10:45:00 AM 6.82 44.276 0.581 7.79 155 11.09
12/23/2022 11:00:00 AM 6.8 44.24 0.598 7.77 133.4 11.1
12/23/2022 11:15:00 AM 6.76 44.168 0.62 7.79 129.2 11.11
12/23/2022 11:30:00 AM 6.72 44.096 0.641 7.78 122.4 11.12
12/23/2022 11:45:00 AM 6.67 44.006 0.665 7.78 123 11.13
12/23/2022 12:00:00 PM 6.66 43.988 0.686 7.75 102.9 11.16
12/23/2022 12:15:00 PM 6.62 43.916 0.702 7.76 104 11.17
12/23/2022 12:30:00 PM 6.64 43.952 0.713 7.78 100 11.18
12/23/2022 12:45:00 PM 6.61 43.898 0.719 7.81 97.83 11.17
12/23/2022 1:00:00 PM 6.62 43.916 0.719 7.8 87.81 11.17
12/23/2022 1:15:00 PM 6.59 43.862 0.715 7.79 92.68 11.16
12/23/2022 1:30:00 PM 6.59 43.862 0.712 7.78 93.94 11.13
12/23/2022 1:45:00 PM 6.55 43.79 0.708 7.75 89.01 11.12
12/23/2022 2:00:00 PM 6.56 43.808 0.702 7.79 91.72 11.08
12/23/2022 2:15:00 PM 6.51 43.718 0.691 7.8 99.08 11.07
12/23/2022 2:30:00 PM 6.47 43.646 0.677 7.81 94.04 11.04
12/23/2022 2:45:00 PM 6.42 43.556 0.658 7.81 106.4 11.03
12/23/2022 3:00:00 PM 6.36 43.448 0.639 7.8 101.4 11.02
12/23/2022 3:15:00 PM 6.29 43.322 0.621 7.8 100.1 11.02
12/23/2022 3:30:00 PM 6.22 43.196 0.604 7.81 109.8 11.01
12/23/2022 3:45:00 PM 6.16 43.088 0.589 7.79 103.7 11
12/23/2022 4:00:00 PM 6.09 42.962 0.578 7.76 105 11
12/23/2022 4:15:00 PM 6.02 42.836 0.567 7.77 97.49 11.01
12/23/2022 4:30:00 PM 5.96 42.728 0.56 7.77 100.8 11.01
12/23/2022 4:45:00 PM 5.84 42.512 0.554 7.76 94.86 11.04
12/23/2022 5:00:00 PM 5.77 42.386 0.551 7.77 98.87 11.05
12/23/2022 5:15:00 PM 5.67 42.206 0.549 7.76 92.8 11.07
12/23/2022 5:30:00 PM 5.58 42.044 0.548 7.78 92.8 11.07
12/23/2022 5:45:00 PM 5.49 41.882 0.548 7.76 96.6 11.11
12/23/2022 6:00:00 PM 5.39 41.702 0.549 7.76 98.89 11.13
12/23/2022 6:15:00 PM 5.29 41.522 0.549 7.74 92 11.14
12/23/2022 6:30:00 PM 5.2 41.36 0.551 7.73 86 11.18
12/23/2022 6:45:00 PM 5.08 41.144 0.552 7.73 90.18 11.21
12/23/2022 7:00:00 PM 4.98 40.964 0.552 7.7 83.83 11.23
12/23/2022 7:15:00 PM 4.89 40.802 0.553 7.71 88.48 11.26
12/23/2022 7:30:00 PM 4.79 40.622 0.554 7.7 86.67 11.26
12/23/2022 7:45:00 PM 4.69 40.442 0.554 7.67 89.42 11.29
12/23/2022 8:00:00 PM 4.61 40.298 0.554 7.66 82.19 11.32
12/23/2022 8:15:00 PM 4.51 40.118 0.554 7.65 79.84 11.37
12/23/2022 8:30:00 PM 4.41 39.938 0.553 7.67 87.52 11.4
12/23/2022 8:45:00 PM 4.31 39.758 0.553 7.67 84.47 11.41
12/23/2022 9:00:00 PM 4.22 39.596 0.553 7.68 91.33 11.46
12/23/2022 9:15:00 PM 4.11 39.398 0.552 7.62 82.86 11.49
12/23/2022 9:30:00 PM 4.02 39.236 0.551 7.64 80.99 11.52
12/23/2022 9:45:00 PM 3.93 39.074 0.551 7.62 81.69 11.54
12/23/2022 10:00:00 PM 3.82 38.876 0.55 7.64 80.69 11.58
12/23/2022 10:15:00 PM 3.74 38.732 0.55 7.65 80.32 11.63
12/23/2022 10:30:00 PM 3.64 38.552 0.549 7.65 83.08 11.65
12/23/2022 10:45:00 PM 3.53 38.354 0.549 7.65 84.37 11.68
12/23/2022 11:00:00 PM 3.46 38.228 0.549 7.65 69.44 11.72
12/23/2022 11:15:00 PM 3.37 38.066 0.548 7.65 80.5 11.76
12/23/2022 11:30:00 PM 3.3 37.94 0.548 7.66 89.35 11.78
12/23/2022 11:45:00 PM 3.22 37.796 0.548 7.67 70.44 11.83
12/24/2022 12:00:00 AM 3.14 37.652 0.547 7.67 80.68 11.86
12/24/2022 12:15:00 AM 3.06 37.508 0.546 7.67 88.16 11.89
12/24/2022 12:30:00 AM 2.97 37.346 0.546 7.66 93.91 11.94
12/24/2022 12:45:00 AM 2.88 37.184 0.545 7.66 82.92 11.98
12/24/2022 1:00:00 AM 2.79 37.022 0.544 7.66 79.3 12.01
12/24/2022 1:15:00 AM 2.72 36.896 0.54 7.66 80.28 12.06
12/24/2022 1:30:00 AM 2.64 36.752 0.542 7.65 79.07 12.1
12/24/2022 1:45:00 AM 2.56 36.608 0.541 7.65 79.68 12.14
12/24/2022 2:00:00 AM 2.48 36.464 0.541 7.64 76.81 12.16
12/24/2022 2:15:00 AM 2.41 36.338 0.54 7.65 76.79 12.21
12/24/2022 2:30:00 AM 2.32 36.176 0.539 7.65 78.12 12.26
12/24/2022 2:45:00 AM 2.25 36.05 0.539 7.65 76.97 12.29
12/24/2022 3:00:00 AM 2.17 35.906 0.538 7.64 67.59 12.34
12/24/2022 3:15:00 AM 2.09 35.762 0.538 7.61 75.36 12.37
12/24/2022 3:30:00 AM 2 35.6 0.538 7.55 75.69 12.41
12/24/2022 3:45:00 AM 1.91 35.438 0.538 7.62 76.48 12.43
12/24/2022 4:00:00 AM 1.83 35.294 0.538 7.59 72.87 12.5
12/24/2022 4:15:00 AM 1.76 35.168 0.538 7.58 70.76 12.53
12/24/2022 4:30:00 AM 1.69 35.042 0.539 7.59 68.47 12.57
12/24/2022 4:45:00 AM 1.6 34.88 0.538 7.59 68.94 12.61
12/24/2022 5:00:00 AM 1.54 34.772 0.538 7.6 65.11 12.64
12/24/2022 5:15:00 AM 1.48 34.664 0.538 7.6 65.13 12.69
12/24/2022 5:30:00 AM 1.4 34.52 0.539 7.6 60.78 12.7
12/24/2022 5:45:00 AM 1.31 34.358 0.539 7.61 68.53 12.75
12/24/2022 6:00:00 AM 1.25 34.25 0.539 7.62 63.25 12.78
12/24/2022 6:15:00 AM 1.19 34.142 0.539 7.6 53.56 12.81
12/24/2022 6:30:00 AM 1.12 34.016 0.539 7.62 55.1 12.83
12/24/2022 6:45:00 AM 1.06 33.908 0.539 7.62 54.29 12.85
12/24/2022 7:00:00 AM 0.96 33.728 0.539 7.6 57.91 12.92
12/24/2022 7:15:00 AM 0.92 33.656 0.54 7.6 58.72 12.94
12/24/2022 7:30:00 AM 0.87 33.566 0.539 7.6 58.12 12.96
12/24/2022 7:45:00 AM 0.79 33.422 0.539 7.59 61.84 13.01
12/24/2022 8:00:00 AM 0.78 33.404 0.538 7.58 57.82 13.03
12/24/2022 8:15:00 AM 0.68 33.224 0.539 7.56 75.73 13.05
12/24/2022 8:30:00 AM 0.62 33.116 0.538 7.55 53.92 13.11
12/24/2022 8:45:00 AM 0.56 33.008 0.538 7.55 54.99 13.14
12/24/2022 9:00:00 AM 0.5 32.9 0.538 7.56 59.83 13.18
12/24/2022 9:15:00 AM 0.44 32.792 0.537 7.56 50.25 13.27
12/24/2022 9:30:00 AM 0.42 32.756 0.536 7.56 50.94 13.28
12/24/2022 9:45:00 AM 0.37 32.666 0.535 7.58 52.91 13.34
12/24/2022 10:00:00 AM 0.37 32.666 0.535 7.59 51.26 13.38
12/24/2022 10:15:00 AM 0.39 32.702 0.535 7.62 46.24 13.41
12/24/2022 10:30:00 AM 0.41 32.738 0.534 7.65 50.65 13.44
12/24/2022 10:45:00 AM 0.45 32.81 0.532 7.67 59.82 13.5
12/24/2022 11:00:00 AM 0.45 32.81 0.531 7.68 42.96 13.57
12/24/2022 11:15:00 AM 0.47 32.846 0.531 7.69 45.84 13.61
12/24/2022 11:30:00 AM 0.45 32.81 0.53 7.72 41.04 13.66
12/24/2022 11:45:00 AM 0.42 32.756 0.53 7.74 45.87 13.67
12/24/2022 12:00:00 PM 0.39 32.702 0.529 7.77 43.4 13.71
12/24/2022 12:15:00 PM 0.39 32.702 0.529 7.83 44.4 13.76
12/24/2022 12:30:00 PM 0.4 32.72 0.528 7.86 44.18 13.77
12/24/2022 12:45:00 PM 0.43 32.774 0.528 7.92 44.76 13.81
12/24/2022 1:00:00 PM 0.49 32.882 0.528 7.95 40.9 13.85
12/24/2022 1:15:00 PM 0.5 32.9 0.528 8 40.14 13.85
12/24/2022 1:30:00 PM 0.5 32.9 0.528 8.02 45.01 13.89
12/24/2022 1:45:00 PM 0.49 32.882 0.527 8.05 43.25 13.93
12/24/2022 2:00:00 PM 0.52 32.936 0.528 8.1 39.98 13.94
12/24/2022 2:15:00 PM 0.55 32.99 0.528 8.14 44.92 13.93
12/24/2022 2:30:00 PM 0.49 32.882 0.528 8.17 122.7 13.92
12/24/2022 2:45:00 PM 0.47 32.846 0.528 8.21 47.45 13.94
12/24/2022 3:00:00 PM 0.48 32.864 0.528 8.26 48.12 13.98
12/24/2022 3:15:00 PM 0.49 32.882 0.528 8.32 38.13 13.99
12/24/2022 3:30:00 PM 0.47 32.846 0.53 8.35 87.02 13.94
12/24/2022 3:45:00 PM 0.47 32.846 0.529 8.39 45.54 13.98
12/24/2022 4:00:00 PM 0.49 32.882 0.529 8.44 72.83 13.97
12/24/2022 4:15:00 PM 0.43 32.774 0.53 8.49 43.38 14.01
12/24/2022 4:30:00 PM 0.44 32.792 0.53 8.53 44.24 13.98
12/24/2022 4:45:00 PM 0.35 32.63 0.531 8.58 42.16 13.99
12/24/2022 5:00:00 PM 0.34 32.612 0.532 8.62 49.67 13.96
12/24/2022 5:15:00 PM 0.3 32.54 0.532 8.64 40.56 13.98
12/24/2022 5:30:00 PM 0.26 32.468 0.533 8.66 43.53 13.99
12/24/2022 5:45:00 PM 0.17 32.306 0.534 8.67 43.4 14
12/24/2022 6:00:00 PM 0.15 32.27 0.534 8.69 36.35 13.99
12/24/2022 6:15:00 PM 0.1 32.18 0.533 8.71 36.96 14
12/24/2022 6:30:00 PM 0.05 32.09 0.535 8.73 37.2 14.01
12/24/2022 6:45:00 PM 0 32 0.536 8.74 42.15 14
12/24/2022 7:00:00 PM 0 32 0.538 8.74 34.26 14
12/24/2022 7:15:00 PM -0.04 31.928 0.535 8.73 34.83 13.99
12/24/2022 7:30:00 PM 0 32 0.538 8.74 36.19 13.99
12/24/2022 7:45:00 PM -0.06 31.892 0.54 8.74 36.09 14.06
12/24/2022 8:00:00 PM -0.05 31.91 0.541 8.73 34.38 14.03
12/24/2022 8:15:00 PM 0 32 0.542 8.72 32.78 13.98
12/24/2022 8:30:00 PM -0.01 31.982 0.543 8.7 33.8 14.01
12/24/2022 8:45:00 PM 0.01 32.018 0.544 8.68 35.16 14
12/24/2022 9:00:00 PM 0.01 32.018 0.545 8.66 32.21 14
12/24/2022 9:15:00 PM -0.02 31.964 0.547 8.65 32.79 14.01
12/24/2022 9:30:00 PM -0.01 31.982 0.548 8.65 30.85 14.04
12/24/2022 9:45:00 PM 0 32 0.549 8.65 34.56 13.99
12/24/2022 10:00:00 PM 0.02 32.036 0.55 8.65 33.54 13.99
12/24/2022 10:15:00 PM 0.01 32.018 0.551 8.66 32.5 13.95
12/24/2022 10:30:00 PM 0.02 32.036 0.552 8.65 32.99 13.98
12/24/2022 10:45:00 PM 0 32 0.554 8.64 34.66 13.99
12/24/2022 11:00:00 PM 0.02 32.036 0.555 8.6 32.19 14.01
12/24/2022 11:15:00 PM 0.03 32.054 0.551 8.58 29.88 14.01
12/24/2022 11:30:00 PM 0.03 32.054 0.559 8.56 29.97 14
12/24/2022 11:45:00 PM 0.02 32.036 0.56 8.54 34.64 14.01
12/25/2022 12:00:00 AM 0.02 32.036 0.562 8.51 30.47 14.02
12/25/2022 12:15:00 AM 0 32 0.565 8.49 31.1 14.02
12/25/2022 12:30:00 AM 0 32 0.566 8.48 29.9 14.03
12/25/2022 12:45:00 AM 0.03 32.054 0.567 8.47 32.88 14.02
12/25/2022 1:00:00 AM 0 32 0.57 8.45 30.83 14.01
12/25/2022 1:15:00 AM 0.01 32.018 0.571 8.44 32.9 14.02
12/25/2022 1:30:00 AM 0.08 32.144 0.572 8.43 28.04 13.99
12/25/2022 1:45:00 AM 0.02 32.036 0.575 8.44 28.43 13.98
12/25/2022 2:00:00 AM 0.02 32.036 0.576 8.43 208.6 14
12/25/2022 2:15:00 AM 0.04 32.072 0.576 8.45 28.99 14.01
12/25/2022 2:30:00 AM 0 32 0.579 8.45 24.55 14.01
12/25/2022 2:45:00 AM -0.02 31.964 0.582 8.45 24.28 14.03
12/25/2022 3:00:00 AM 0 32 0.583 8.46 26.17 14.01
12/25/2022 3:15:00 AM -0.01 31.982 0.585 8.47 27.84 14.02
12/25/2022 3:30:00 AM 0.01 32.018 0.586 8.48 28.52 14.01
12/25/2022 3:45:00 AM -0.02 31.964 0.589 8.5 26.34 14.05
12/25/2022 4:00:00 AM -0.02 31.964 0.591 8.5 28.46 14.06
12/25/2022 4:15:00 AM 0.01 32.018 0.593 8.51 26.42 14.03
12/25/2022 4:30:00 AM 0.01 32.018 0.595 8.5 23.01 14.02
12/25/2022 4:45:00 AM 0.01 32.018 0.596 8.54 22.81 14.01
12/25/2022 5:00:00 AM 0 32 0.589 8.55 24.93 14.04
12/25/2022 5:15:00 AM 0 32 0.601 8.56 21.92 14.05
12/25/2022 5:30:00 AM 0.01 32.018 0.601 8.58 20.88 14.06
12/25/2022 5:45:00 AM 0.01 32.018 0.603 8.59 23.03 14.04
12/25/2022 6:00:00 AM 0 32 0.606 8.6 22.38 14.07
12/25/2022 6:15:00 AM 0.04 32.072 0.606 8.61 21.81 14.05
12/25/2022 6:30:00 AM 0.02 32.036 0.608 8.61 20.05 14.06
12/25/2022 6:45:00 AM 0.01 32.018 0.61 8.62 21.53 14.05
12/25/2022 7:00:00 AM 0.01 32.018 0.612 8.63 20.82 14.08
12/25/2022 7:15:00 AM 0 32 0.613 8.63 21.68 14.1
12/25/2022 7:30:00 AM 0.03 32.054 0.614 8.63 20.6 14.08
12/25/2022 7:45:00 AM -0.03 31.946 0.618 8.64 21.41 14.1
12/25/2022 8:00:00 AM -0.01 31.982 0.619 8.64 21.86 14.11
12/25/2022 8:15:00 AM -0.01 31.982 0.62 8.64 19.93 14.12
12/25/2022 8:30:00 AM -0.01 31.982 0.622 8.63 19.19 14.13
12/25/2022 8:45:00 AM 0 32 0.623 8.63 21.84 14.14
12/25/2022 9:00:00 AM 0 32 0.625 8.61 18.49 14.17
12/25/2022 9:15:00 AM 0.01 32.018 0.626 8.6 20.2 14.16
12/25/2022 9:30:00 AM -0.01 31.982 0.627 8.58 17.63 14.24
12/25/2022 9:45:00 AM 0.02 32.036 0.627 8.58 20.18 14.21
12/25/2022 10:00:00 AM 0 32 0.629 8.58 22.66 14.25
12/25/2022 10:15:00 AM 0.03 32.054 0.63 8.57 19.25 14.26
12/25/2022 10:30:00 AM 0.02 32.036 0.631 8.56 18.76 14.26
12/25/2022 10:45:00 AM 0.01 32.018 0.632 8.52 18.32 14.28
12/25/2022 11:00:00 AM 0.05 32.09 0.633 8.48 18.24 14.31
12/25/2022 11:15:00 AM 0.06 32.108 0.634 8.43 31.51 14.34
12/25/2022 11:30:00 AM 0.08 32.144 0.635 8.41 17.88 14.32
12/25/2022 11:45:00 AM 0.07 32.126 0.636 8.37 31.71 14.4
12/25/2022 12:00:00 PM 0.09 32.162 0.637 8.4 19.03 14.41
12/25/2022 12:15:00 PM 0.1 32.18 0.638 8.38 18.11 14.44
12/25/2022 12:30:00 PM 0.09 32.162 0.64 8.36 21.68 14.51
12/25/2022 12:45:00 PM 0.08 32.144 0.641 8.31 21.21 14.51
12/25/2022 1:00:00 PM 0.09 32.162 0.642 8.3 18.92 14.52
12/25/2022 1:15:00 PM 0.08 32.144 0.643 8.28 19.41 14.52
12/25/2022 1:30:00 PM 0.12 32.216 0.644 8.27 16.63 14.55
12/25/2022 1:45:00 PM 0.12 32.216 0.644 8.25 17.72 14.53
12/25/2022 2:00:00 PM 0.12 32.216 0.645 8.23 17.93 14.54
12/25/2022 2:15:00 PM 0.12 32.216 0.646 8.23 20.61 14.52
12/25/2022 2:30:00 PM 0.15 32.27 0.647 8.22 18.82 14.53
12/25/2022 2:45:00 PM 0.16 32.288 0.648 8.22 19.03 14.53
12/25/2022 3:00:00 PM 0.17 32.306 0.649 8.2 19.08 14.51
12/25/2022 3:15:00 PM 0.15 32.27 0.651 8.18 16.14 14.48
12/25/2022 3:30:00 PM 0.16 32.288 0.652 8.17 15.45 14.49
12/25/2022 3:45:00 PM 0.21 32.378 0.652 8.17 15.38 14.47
12/25/2022 4:00:00 PM 0.17 32.306 0.655 8.16 15.59 14.28
12/25/2022 4:15:00 PM 0.19 32.342 0.656 8.16 15.46 14.42
12/25/2022 4:30:00 PM 0.15 32.27 0.658 8.19 20.63 14.43
12/25/2022 4:45:00 PM 0.17 32.306 0.659 8.18 14.19 14.4
12/25/2022 5:00:00 PM 0.12 32.216 0.661 8.19 17.46 14.42
12/25/2022 5:15:00 PM 0.15 32.27 0.662 8.2 23.16 14.4
12/25/2022 5:30:00 PM 0.13 32.234 0.665 8.21 14.7 14.37
12/25/2022 5:45:00 PM 0.13 32.234 0.666 8.23 15.08 14.37
12/25/2022 6:00:00 PM 0.15 32.27 0.668 8.24 13.21 14.33
12/25/2022 6:15:00 PM 0.1 32.18 0.669 8.26 13.07 14.34
12/25/2022 6:30:00 PM 0.09 32.162 0.671 8.28 14.1 14.32
12/25/2022 6:45:00 PM 0.08 32.144 0.673 8.3 16.68 14.32
12/25/2022 7:00:00 PM 0.06 32.108 0.675 8.31 13.49 14.3
12/25/2022 7:15:00 PM 0.06 32.108 0.677 8.34 14.49 14.27
12/25/2022 7:30:00 PM 0.02 32.036 0.679 8.37 14.38 14.28
12/25/2022 7:45:00 PM 0.06 32.108 0.68 8.41 15.12 14.25
12/25/2022 8:00:00 PM 0 32 0.683 8.43 11.94 14.27
12/25/2022 8:15:00 PM 0 32 0.685 8.46 13.23 14.22
12/25/2022 8:30:00 PM 0.03 32.054 0.686 8.49 10.45 14.24
12/25/2022 8:45:00 PM -0.04 31.928 0.69 8.53 62.42 14.23
12/25/2022 9:00:00 PM -0.03 31.946 0.693 8.56 13.16 14.2
12/25/2022 9:15:00 PM -0.05 31.91 0.696 8.6 88.56 14.25
12/25/2022 9:30:00 PM -0.02 31.964 0.697 8.63 11.39 14.23
12/25/2022 9:45:00 PM -0.03 31.946 0.699 8.65 29.92 14.22
12/25/2022 10:00:00 PM -0.02 31.964 0.701 8.67 12.51 14.19
12/25/2022 10:15:00 PM -0.01 31.982 0.703 8.68 13.44 14.19
12/25/2022 10:30:00 PM -0.02 31.964 0.705 8.68 11.73 14.17
12/25/2022 10:45:00 PM 0 32 0.707 8.68 9.98 14.15
12/25/2022 11:00:00 PM 0 32 0.708 8.68 9.79 14.14
12/25/2022 11:15:00 PM 0.01 32.018 0.71 8.68 9 14.14
12/25/2022 11:30:00 PM 0 32 0.712 8.67 8.81 14.12
12/25/2022 11:45:00 PM 0.01 32.018 0.713 8.68 9.25 14.12
12/26/2022 12:00:00 AM 0.01 32.018 0.715 8.68 8.76 14.15
12/26/2022 12:15:00 AM 0 32 0.717 8.68 8.9 14.15
12/26/2022 12:30:00 AM 0 32 0.719 8.69 8.12 14.17
12/26/2022 12:45:00 AM -0.01 31.982 0.721 8.7 7.91 14.16
12/26/2022 1:00:00 AM -0.01 31.982 0.723 8.71 7.66 14.14
12/26/2022 1:15:00 AM 0 32 0.724 8.71 8.7 14.15
12/26/2022 1:30:00 AM -0.01 31.982 0.726 8.72 7.8 14.16
12/26/2022 1:45:00 AM 0 32 0.728 8.73 7.82 14.15
12/26/2022 2:00:00 AM 0 32 0.73 8.73 7.4 14.17
12/26/2022 2:15:00 AM 0.02 32.036 0.731 8.74 8.04 14.15
12/26/2022 2:30:00 AM 0.02 32.036 0.733 8.74 7.69 14.12
12/26/2022 2:45:00 AM 0.01 32.018 0.734 8.75 8.15 14.17
12/26/2022 3:00:00 AM 0 32 0.736 8.76 8.84 14.18
12/26/2022 3:15:00 AM 0 32 0.738 8.76 6.88 14.19
12/26/2022 3:30:00 AM 0 32 0.739 8.77 8.09 14.18
12/26/2022 3:45:00 AM -0.01 31.982 0.741 8.77 7.35 14.2
12/26/2022 4:00:00 AM 0 32 0.742 8.78 6.97 14.21
12/26/2022 4:15:00 AM 0 32 0.743 8.79 6.86 14.2
12/26/2022 4:30:00 AM 0 32 0.745 8.79 7.5 14.22
12/26/2022 4:45:00 AM 0 32 0.747 8.8 8.07 14.22
12/26/2022 5:00:00 AM 0.02 32.036 0.748 8.8 7.75 14.2
12/26/2022 5:15:00 AM 0.09 32.162 0.749 8.81 6.93 14.18
12/26/2022 5:30:00 AM 0.03 32.054 0.751 8.81 6.98 14.21
12/26/2022 5:45:00 AM 0.05 32.09 0.751 8.81 9.03 14.23
12/26/2022 6:00:00 AM 0 32 0.754 8.82 6.14 14.26
12/26/2022 6:15:00 AM 0.01 32.018 0.755 8.82 6.79 14.25
12/26/2022 6:30:00 AM 0.01 32.018 0.756 8.82 6.2 14.23
12/26/2022 6:45:00 AM 0.03 32.054 0.756 8.82 6.76 14.21
12/26/2022 7:00:00 AM 0.07 32.126 0.756 8.83 6.5 14.23
12/26/2022 7:15:00 AM 0 32 0.759 8.83 6.23 14.27
12/26/2022 7:30:00 AM 0 32 0.759 8.83 6.58 14.23
12/26/2022 7:45:00 AM 0.01 32.018 0.76 8.79 6.75 14.25
12/26/2022 8:00:00 AM -0.03 31.946 0.762 8.74 6.41 14.27
12/26/2022 8:15:00 AM 0 32 0.763 8.7 7.06 14.26
12/26/2022 8:30:00 AM -0.02 31.964 0.763 8.66 6.22 14.32
12/26/2022 8:45:00 AM -0.01 31.982 0.764 8.63 8.07 14.31
12/26/2022 9:00:00 AM 0.01 32.018 0.764 8.6 6.22 14.35
12/26/2022 9:15:00 AM 0.03 32.054 0.765 8.57 6.14 14.32
12/26/2022 9:30:00 AM 0 32 0.766 8.54 6.15 14.42
12/26/2022 9:45:00 AM 0 32 0.766 8.52 6.09 14.43
12/26/2022 10:00:00 AM 0 32 0.766 8.49 6.53 14.46
12/26/2022 10:15:00 AM -0.02 31.964 0.767 8.47 7.01 14.52
12/26/2022 10:30:00 AM 0 32 0.767 8.45 7.84 14.56
12/26/2022 10:45:00 AM 0.02 32.036 0.767 8.43 8.7 14.59
12/26/2022 11:00:00 AM 0.03 32.054 0.768 8.41 5.94 14.61
12/26/2022 11:15:00 AM 0.05 32.09 0.768 8.39 6.7 14.6
12/26/2022 11:30:00 AM 0.05 32.09 0.768 8.38 8.39 14.64
12/26/2022 11:45:00 AM 0.04 32.072 0.768 8.36 7.35 14.65
12/26/2022 12:00:00 PM 0.02 32.036 0.768 8.36 10.59 14.69
12/26/2022 12:15:00 PM 0.03 32.054 0.768 8.34 8.79 14.7
12/26/2022 12:30:00 PM 0.02 32.036 0.768 8.33 6.79 14.71
12/26/2022 12:45:00 PM 0.02 32.036 0.768 8.32 9.75 14.74
12/26/2022 1:00:00 PM 0.03 32.054 0.768 8.31 11.52 14.76
12/26/2022 1:15:00 PM 0.03 32.054 0.769 8.3 16.21 14.75
12/26/2022 1:30:00 PM 0.03 32.054 0.769 8.29 8.59 14.76
12/26/2022 1:45:00 PM 0.01 32.018 0.769 8.29 14.17 14.78
12/26/2022 2:00:00 PM 0 32 0.77 8.29 7.59 14.76
12/26/2022 2:15:00 PM 0 32 0.769 8.29 9.23 14.8
12/26/2022 2:30:00 PM 0 32 0.769 8.28 8.8 14.8
12/26/2022 2:45:00 PM 0.02 32.036 0.769 8.27 6.58 14.78
12/26/2022 3:00:00 PM 0.04 32.072 0.77 8.27 8.46 14.75
12/26/2022 3:15:00 PM 0.04 32.072 0.769 8.26 5.83 14.76
12/26/2022 3:30:00 PM 0.04 32.072 0.77 8.25 7.93 14.71
12/26/2022 3:45:00 PM 0.03 32.054 0.77 8.25 6.9 14.72
12/26/2022 4:00:00 PM 0.07 32.126 0.768 8.24 4.58 14.7
12/26/2022 4:15:00 PM 0.05 32.09 0.769 8.23 4.85 14.68
12/26/2022 4:30:00 PM 0.04 32.072 0.769 8.22 6.33 14.66
12/26/2022 4:45:00 PM 0.03 32.054 0.77 8.22 5.9 14.63
12/26/2022 5:00:00 PM 0.02 32.036 0.769 8.21 9.71 14.62
12/26/2022 5:15:00 PM 0.03 32.054 0.769 8.2 4.6 14.6
12/26/2022 5:30:00 PM 0.04 32.072 0.769 8.2 5.65 14.59
12/26/2022 5:45:00 PM 0.06 32.108 0.769 8.19 3.49 14.53
12/26/2022 6:00:00 PM 0.05 32.09 0.769 8.18 5.48 14.53
12/26/2022 6:15:00 PM 0.06 32.108 0.769 8.18 4.01 14.5
12/26/2022 6:30:00 PM 0.07 32.126 0.77 8.17 5.54 14.46
12/26/2022 6:45:00 PM 0.09 32.162 0.77 8.16 5.4 14.44
12/26/2022 7:00:00 PM 0.06 32.108 0.77 8.16 4.18 14.44
12/26/2022 7:15:00 PM 0.09 32.162 0.77 8.17 5.07 14.35
12/26/2022 7:30:00 PM 0.1 32.18 0.77 8.17 4.46 14.33
12/26/2022 7:45:00 PM 0.1 32.18 0.771 8.16 4.59 14.34
12/26/2022 8:00:00 PM 0.1 32.18 0.771 8.15 4.5 14.33
12/26/2022 8:15:00 PM 0.1 32.18 0.772 8.16 3.85 14.3
12/26/2022 8:30:00 PM 0.15 32.27 0.772 8.16 5.24 14.29
12/26/2022 8:45:00 PM 0.16 32.288 0.771 8.18 3.99 14.28
12/26/2022 9:00:00 PM 0.16 32.288 0.772 8.17 3.59 14.22
12/26/2022 9:15:00 PM 0.14 32.252 0.773 8.17 2.91 14.26
12/26/2022 9:30:00 PM 0.14 32.252 0.774 8.18 5.07 14.25
12/26/2022 9:45:00 PM 0.16 32.288 0.775 8.18 4.47 14.2
12/26/2022 10:00:00 PM 0.18 32.324 0.775 8.19 4.37 14.21
12/26/2022 10:15:00 PM 0.16 32.288 0.776 8.32 4.05 14.22
12/26/2022 10:30:00 PM 0.17 32.306 0.777 8.39 3.47 14.2
12/26/2022 10:45:00 PM 0.18 32.324 0.777 8.44 5.7 14.17
12/26/2022 11:00:00 PM 0.19 32.342 0.778 8.44 3.29 14.17
12/26/2022 11:15:00 PM 0.18 32.324 0.779 8.44 3.6 14.16
12/26/2022 11:30:00 PM 0.19 32.342 0.78 8.39 3.82 14.15
12/26/2022 11:45:00 PM 0.22 32.396 0.78 8.39 3.29 14.13
12/27/2022 12:00:00 AM 0.22 32.396 0.781 8.34 2.93 14.13
12/27/2022 12:15:00 AM 0.23 32.414 0.781 8.33 2.83 14.13
12/27/2022 12:30:00 AM 0.25 32.45 0.782 8.32 2.93 14.11
12/27/2022 12:45:00 AM 0.25 32.45 0.783 8.32 2.5 14.1
12/27/2022 1:00:00 AM 0.26 32.468 0.785 8.29 4.8 14.13
12/27/2022 1:15:00 AM 0.26 32.468 0.784 8.28 4.29 14.11
12/27/2022 1:30:00 AM 0.25 32.45 0.786 8.27 2.84 14.12
12/27/2022 1:45:00 AM 0.27 32.486 0.785 8.27 2.32 14.1
12/27/2022 2:00:00 AM 0.27 32.486 0.787 8.27 2.36 14.1
12/27/2022 2:15:00 AM 0.29 32.522 0.787 8.27 3.19 14.09
12/27/2022 2:30:00 AM 0.27 32.486 0.789 8.27 2.88 14.11
12/27/2022 2:45:00 AM 0.25 32.45 0.789 8.26 3.04 14.11
12/27/2022 3:00:00 AM 0.27 32.486 0.79 8.31 3.46 14.09
12/27/2022 3:15:00 AM 0.27 32.486 0.791 8.36 2.66 14.09
12/27/2022 3:30:00 AM 0.29 32.522 0.79 8.39 2.95 14.12
12/27/2022 3:45:00 AM 0.28 32.504 0.791 8.42 2.8 14.11
12/27/2022 4:00:00 AM 0.28 32.504 0.791 8.43 2.5 14.12
12/27/2022 4:15:00 AM 0.32 32.576 0.791 8.43 2.46 14.11
12/27/2022 4:30:00 AM 0.27 32.486 0.793 8.43 2.34 14.12
12/27/2022 4:45:00 AM 0.33 32.594 0.793 8.43 3.68 14.1
12/27/2022 5:00:00 AM 0.32 32.576 0.793 8.45 3.47 14.13
12/27/2022 5:15:00 AM 0.3 32.54 0.793 8.45 2.17 14.14
12/27/2022 5:30:00 AM 0.33 32.594 0.794 8.45 2.33 14.1
12/27/2022 5:45:00 AM 0.3 32.54 0.794 8.46 2.54 14.14
12/27/2022 6:00:00 AM 0.32 32.576 0.795 8.46 3.3 14.12
12/27/2022 6:15:00 AM 0.32 32.576 0.795 8.45 3.32 14.12
12/27/2022 6:30:00 AM 0.33 32.594 0.795 8.47 2.35 14.15
12/27/2022 6:45:00 AM 0.32 32.576 0.795 8.46 2.33 14.14
12/27/2022 7:00:00 AM 0.35 32.63 0.795 8.46 2.55 14.13
12/27/2022 7:15:00 AM 0.34 32.612 0.796 8.46 2.47 14.13
12/27/2022 7:30:00 AM 0.34 32.612 0.796 8.46 2.12 14.13
12/27/2022 7:45:00 AM 0.35 32.63 0.796 8.47 3.23 14.13
12/27/2022 8:00:00 AM 0.35 32.63 0.796 8.48 2.56 14.15
12/27/2022 8:15:00 AM 0.38 32.684 0.796 8.48 3.16 14.14
12/27/2022 8:30:00 AM 0.38 32.684 0.796 8.46 2.37 14.19
12/27/2022 8:45:00 AM 0.39 32.702 0.796 8.46 2.57 14.22
12/27/2022 9:00:00 AM 0.42 32.756 0.796 8.45 2.6 14.23
12/27/2022 9:15:00 AM 0.46 32.828 0.796 8.45 3.1 14.24
12/27/2022 9:30:00 AM 0.49 32.882 0.795 8.47 2.99 14.25
12/27/2022 9:45:00 AM 0.53 32.954 0.795 8.47 3.15 14.28
12/27/2022 10:00:00 AM 0.54 32.972 0.795 8.51 2.79 14.3
12/27/2022 10:15:00 AM 0.56 33.008 0.795 8.52 2.84 14.33
12/27/2022 10:30:00 AM 0.6 33.08 0.795 8.51 2.22 14.37
12/27/2022 10:45:00 AM 0.64 33.152 0.794 8.5 3.12 14.41
12/27/2022 11:00:00 AM 0.69 33.242 0.794 8.5 2.75 14.4
12/27/2022 11:15:00 AM 0.75 33.35 0.794 8.51 4.02 14.4
12/27/2022 11:30:00 AM 0.8 33.44 0.793 8.51 3.48 14.42
12/27/2022 11:45:00 AM 0.84 33.512 0.793 8.52 4.11 14.44
12/27/2022 12:00:00 PM 0.87 33.566 0.792 8.54 3.65 14.47
12/27/2022 12:15:00 PM 0.91 33.638 0.793 8.56 3.59 14.43
12/27/2022 12:30:00 PM 0.96 33.728 0.792 8.55 3.93 14.47
12/27/2022 12:45:00 PM 1.01 33.818 0.791 8.54 4.63 14.47
12/27/2022 1:00:00 PM 1.06 33.908 0.791 8.52 6.12 14.51
12/27/2022 1:15:00 PM 1.11 33.998 0.79 8.51 6.09 14.52
12/27/2022 1:30:00 PM 1.17 34.106 0.79 8.5 4.21 14.49
12/27/2022 1:45:00 PM 1.21 34.178 0.79 8.49 5.36 14.49
12/27/2022 2:00:00 PM 1.25 34.25 0.79 8.5 7.32 14.49
12/27/2022 2:15:00 PM 1.3 34.34 0.789 8.55 4.6 14.48
12/27/2022 2:30:00 PM 1.33 34.394 0.789 8.58 4.95 14.47
12/27/2022 2:45:00 PM 1.34 34.412 0.789 8.59 5.76 14.46
12/27/2022 3:00:00 PM 1.34 34.412 0.789 8.57 3.48 14.46
12/27/2022 3:15:00 PM 1.38 34.484 0.788 8.62 3.47 14.42
12/27/2022 3:30:00 PM 1.39 34.502 0.788 8.62 7.29 14.42
12/27/2022 3:45:00 PM 1.39 34.502 0.787 8.64 4.09 14.38
12/27/2022 4:00:00 PM 1.42 34.556 0.787 8.64 6.77 14.36
12/27/2022 4:15:00 PM 1.43 34.574 0.787 8.65 4.24 14.32
12/27/2022 4:30:00 PM 1.45 34.61 0.787 8.65 4.68 14.29
12/27/2022 4:45:00 PM 1.47 34.646 0.786 8.64 3.11 14.25
12/27/2022 5:00:00 PM 1.46 34.628 0.787 8.64 9.05 14.21
12/27/2022 5:15:00 PM 1.45 34.61 0.786 8.64 4.09 14.22
12/27/2022 5:30:00 PM 1.47 34.646 0.786 8.64 3.92 14.17
12/27/2022 5:45:00 PM 1.49 34.682 0.785 8.65 3.97 14.13
12/27/2022 6:00:00 PM 1.49 34.682 0.785 8.66 5.17 14.08
12/27/2022 6:15:00 PM 1.51 34.718 0.785 8.69 6.07 14.07
12/27/2022 6:30:00 PM 1.51 34.718 0.767 8.68 3.59 14.06
12/27/2022 6:45:00 PM 1.52 34.736 0.784 8.68 3.73 14
12/27/2022 7:00:00 PM 1.53 34.754 0.785 8.69 3.48 13.99
12/27/2022 7:15:00 PM 1.54 34.772 0.785 8.69 4.28 13.94
12/27/2022 7:30:00 PM 1.53 34.754 0.785 8.7 3.38 13.9
12/27/2022 7:45:00 PM 1.56 34.808 0.785 8.67 4 13.87
12/27/2022 8:00:00 PM 1.55 34.79 0.785 8.67 3.59 13.85
12/27/2022 8:15:00 PM 1.56 34.808 0.784 8.67 4.03 13.84
12/27/2022 8:30:00 PM 1.57 34.826 0.784 8.65 3.41 13.81
12/27/2022 8:45:00 PM 1.58 34.844 0.784 8.65 7.46 13.8
12/27/2022 9:00:00 PM 1.58 34.844 0.783 8.63 3.25 13.77
12/27/2022 9:15:00 PM 1.61 34.898 0.783 8.63 2.77 13.74
12/27/2022 9:30:00 PM 1.61 34.898 0.783 8.66 2.72 13.72
12/27/2022 9:45:00 PM 1.63 34.934 0.782 8.65 3.94 13.7
12/27/2022 10:00:00 PM 1.62 34.916 0.782 8.65 4.15 13.69
12/27/2022 10:15:00 PM 1.63 34.934 0.782 8.64 3.06 13.67
12/27/2022 10:30:00 PM 1.64 34.952 0.782 8.64 3.38 13.67
12/27/2022 10:45:00 PM 1.63 34.934 0.781 8.63 2.92 13.66
12/27/2022 11:00:00 PM 1.62 34.916 0.782 8.64 3.62 13.65
12/27/2022 11:15:00 PM 1.62 34.916 0.781 8.63 13.23 13.64
12/27/2022 11:30:00 PM 1.59 34.862 0.781 8.63 2.95 13.62
12/27/2022 11:45:00 PM 1.56 34.808 0.781 8.62 2.65 13.63
12/28/2022 12:00:00 AM 1.51 34.718 0.78 8.63 2.98 13.62
12/28/2022 12:15:00 AM 1.46 34.628 0.78 8.66 3.24 13.62
12/28/2022 12:30:00 AM 1.43 34.574 0.779 8.66 3.22 13.66
12/28/2022 12:45:00 AM 1.37 34.466 0.78 8.62 2.58 13.64
12/28/2022 1:00:00 AM 1.35 34.43 0.779 8.6 4.23 13.63
12/28/2022 1:15:00 AM 1.29 34.322 0.779 8.6 2.35 13.65
12/28/2022 1:30:00 AM 1.25 34.25 0.779 8.59 3.42 13.67
12/28/2022 1:45:00 AM 1.23 34.214 0.778 8.58 3.74 13.67
12/28/2022 2:00:00 AM 1.17 34.106 0.779 8.55 5.49 13.71
12/28/2022 2:15:00 AM 1.1 33.98 0.78 8.55 4.33 13.73
12/28/2022 2:30:00 AM 1.08 33.944 0.78 8.53 3.86 13.75
12/28/2022 2:45:00 AM 1.05 33.89 0.782 8.53 3.86 13.77
12/28/2022 3:00:00 AM 1.02 33.836 0.783 8.51 3.79 13.76
12/28/2022 3:15:00 AM 1.01 33.818 0.784 8.5 4.1 13.78
12/28/2022 3:30:00 AM 0.99 33.782 0.785 8.49 3.96 13.79
12/28/2022 3:45:00 AM 0.98 33.764 0.786 8.49 11.79 13.8
12/28/2022 4:00:00 AM 0.98 33.764 0.788 8.47 3.4 13.82
12/28/2022 4:15:00 AM 0.98 33.764 0.789 8.49 3.23 13.77
12/28/2022 4:30:00 AM 0.96 33.728 0.791 8.49 3.76 13.79
12/28/2022 4:45:00 AM 0.93 33.674 0.792 8.52 4.36 13.82
12/28/2022 5:00:00 AM 0.92 33.656 0.793 8.54 4.85 13.83
12/28/2022 5:15:00 AM 0.9 33.62 0.795 8.59 2.2 13.8
12/28/2022 5:30:00 AM 0.9 33.62 0.796 8.63 2.99 13.78
12/28/2022 5:45:00 AM 0.89 33.602 0.797 8.7 4.26 13.8
12/28/2022 6:00:00 AM 0.87 33.566 0.798 8.75 2.67 13.78
12/28/2022 6:15:00 AM 0.91 33.638 0.798 8.81 3.09 13.78
12/28/2022 6:30:00 AM 0.9 33.62 0.798 8.86 4.37 13.77
12/28/2022 6:45:00 AM 0.88 33.584 0.8 8.9 3.23 13.78
12/28/2022 7:00:00 AM 0.81 33.458 0.802 8.95 2.32 13.82
12/28/2022 7:15:00 AM 0.82 33.476 0.803 8.99 3.34 13.8
12/28/2022 7:30:00 AM 0.81 33.458 0.803 9 3.71 13.81
12/28/2022 7:45:00 AM 0.78 33.404 0.805 9.01 3.11 13.82
12/28/2022 8:00:00 AM 0.8 33.44 0.806 9.02 2.72 13.81
12/28/2022 8:15:00 AM 0.77 33.386 0.806 9.03 3.28 13.85
12/28/2022 8:30:00 AM 0.77 33.386 0.807 9.03 3.99 13.85
12/28/2022 8:45:00 AM 0.81 33.458 0.806 9.05 2.78 13.86
12/28/2022 9:00:00 AM 0.78 33.404 0.807 9.05 4.38 13.88
12/28/2022 9:15:00 AM 0.82 33.476 0.807 9.04 2.13 13.87
12/28/2022 9:30:00 AM 0.8 33.44 0.808 9.04 3.17 13.95
12/28/2022 9:45:00 AM 0.84 33.512 0.808 9 2.74 13.96
12/28/2022 10:00:00 AM 0.89 33.602 0.808 9 3.5 14.01
12/28/2022 10:15:00 AM 1 33.8 0.807 8.99 6.09 14.02
12/28/2022 10:30:00 AM 1.14 34.052 0.807 8.94 3.25 14.05
12/28/2022 10:45:00 AM 1.25 34.25 0.807 8.87 3.01 14.06
12/28/2022 11:00:00 AM 1.34 34.412 0.807 8.8 3.47 14.09
12/28/2022 11:15:00 AM 1.41 34.538 0.808 8.74 3.57 14.12
12/28/2022 11:30:00 AM 1.51 34.718 0.807 8.69 6.44 14.13
12/28/2022 11:45:00 AM 1.62 34.916 0.807 8.64 4.65 14.12
12/28/2022 12:00:00 PM 1.72 35.096 0.808 8.55 3.24 14.15
12/28/2022 12:15:00 PM 1.79 35.222 0.808 8.6 3.36 14.13
12/28/2022 12:30:00 PM 1.91 35.438 0.808 8.58 5.31 14.14
12/28/2022 12:45:00 PM 2 35.6 0.808 8.56 3.98 14.16
12/28/2022 1:00:00 PM 2.06 35.708 0.808 8.54 4.41 14.15
12/28/2022 1:15:00 PM 2.14 35.852 0.808 8.52 4.33 14.15
12/28/2022 1:30:00 PM 2.2 35.96 0.808 8.51 5.81 14.15
12/28/2022 1:45:00 PM 2.27 36.086 0.808 8.52 5.74 14.14
12/28/2022 2:00:00 PM 2.34 36.212 0.808 8.49 6.33 14.1
12/28/2022 2:15:00 PM 2.4 36.32 0.808 8.51 5.15 14.06
12/28/2022 2:30:00 PM 2.47 36.446 0.808 8.51 4.1 14.06
12/28/2022 2:45:00 PM 2.52 36.536 0.808 8.52 3.77 13.99
12/28/2022 3:00:00 PM 2.55 36.59 0.808 8.53 4.98 13.98
12/28/2022 3:15:00 PM 2.6 36.68 0.808 8.55 4.62 13.92
12/28/2022 3:30:00 PM 2.64 36.752 0.807 8.55 5.12 13.88
12/28/2022 3:45:00 PM 2.69 36.842 0.807 8.55 5.44 13.86
12/28/2022 4:00:00 PM 2.74 36.932 0.806 8.56 7.23 13.84
12/28/2022 4:15:00 PM 2.79 37.022 0.806 8.57 8.34 13.78
12/28/2022 4:30:00 PM 2.83 37.094 0.806 8.6 6.2 13.73
12/28/2022 4:45:00 PM 2.86 37.148 0.806 8.61 5.78 13.7
12/28/2022 5:00:00 PM 2.89 37.202 0.805 8.63 6.62 13.62
12/28/2022 5:15:00 PM 2.91 37.238 0.804 8.64 5.8 13.58
12/28/2022 5:30:00 PM 2.93 37.274 0.804 8.66 5.07 13.56
12/28/2022 5:45:00 PM 2.94 37.292 0.804 8.67 5.1 13.5
12/28/2022 6:00:00 PM 2.95 37.31 0.803 8.68 3.83 13.48
12/28/2022 6:15:00 PM 2.95 37.31 0.803 8.69 4.23 13.45
12/28/2022 6:30:00 PM 2.94 37.292 0.803 8.69 4.3 13.43
12/28/2022 6:45:00 PM 2.91 37.238 0.802 8.67 5 13.4
12/28/2022 7:00:00 PM 2.88 37.184 0.802 8.67 6.51 13.37
12/28/2022 7:15:00 PM 2.82 37.076 0.801 8.66 5.36 13.33
12/28/2022 7:30:00 PM 2.81 37.058 0.802 8.66 4.58 13.3
12/28/2022 7:45:00 PM 2.8 37.04 0.802 8.66 5.27 13.28
12/28/2022 8:00:00 PM 2.79 37.022 0.801 8.66 6.14 13.26
12/28/2022 8:15:00 PM 2.79 37.022 0.801 8.63 5.77 13.23
12/28/2022 8:30:00 PM 2.77 36.986 0.802 8.64 5.12 13.25
12/28/2022 8:45:00 PM 2.74 36.932 0.802 8.63 7.16 13.26
12/28/2022 9:00:00 PM 2.71 36.878 0.803 8.61 7.53 13.24
12/28/2022 9:15:00 PM 2.68 36.824 0.803 8.6 7.08 13.23
12/28/2022 9:30:00 PM 2.65 36.77 0.804 8.57 4.16 13.25
12/28/2022 9:45:00 PM 2.62 36.716 0.804 8.55 6.41 13.21
12/28/2022 10:00:00 PM 2.57 36.626 0.803 8.51 5.43 13.22
12/28/2022 10:15:00 PM 2.52 36.536 0.805 8.51 4.08 13.25
12/28/2022 10:30:00 PM 2.51 36.518 0.804 8.51 5.18 13.23
12/28/2022 10:45:00 PM 2.45 36.41 0.805 8.51 3.63 13.24
12/28/2022 11:00:00 PM 2.42 36.356 0.806 8.52 4.89 13.23
12/28/2022 11:15:00 PM 2.4 36.32 0.799 8.53 4.22 13.22
12/28/2022 11:30:00 PM 2.34 36.212 0.807 8.54 4.23 13.27
12/28/2022 11:45:00 PM 2.3 36.14 0.807 8.55 7.43 13.24
12/29/2022 12:00:00 AM 2.27 36.086 0.807 8.56 4.5 13.26
12/29/2022 12:15:00 AM 2.25 36.05 0.808 8.59 5.43 13.28
12/29/2022 12:30:00 AM 2.21 35.978 0.809 8.61 5.14 13.29
12/29/2022 12:45:00 AM 2.18 35.924 0.809 8.63 3.33 13.25
12/29/2022 1:00:00 AM 2.16 35.888 0.81 8.66 4.35 13.26
12/29/2022 1:15:00 AM 2.12 35.816 0.81 8.69 3.56 13.27
12/29/2022 1:30:00 AM 2.13 35.834 0.811 8.71 3.21 13.25
12/29/2022 1:45:00 AM 2.08 35.744 0.812 8.72 2.91 13.27
12/29/2022 2:00:00 AM 2.09 35.762 0.813 8.74 3.86 13.26
12/29/2022 2:15:00 AM 2.04 35.672 0.813 8.75 10.65 13.28
12/29/2022 2:30:00 AM 2.07 35.726 0.813 8.76 3.11 13.27
12/29/2022 2:45:00 AM 2.03 35.654 0.813 8.77 3.99 13.26
12/29/2022 3:00:00 AM 1.97 35.546 0.815 8.79 4.29 13.29
12/29/2022 3:15:00 AM 1.98 35.564 0.816 8.79 2.44 13.27
12/29/2022 3:30:00 AM 1.94 35.492 0.816 8.81 2.35 13.3
12/29/2022 3:45:00 AM 1.93 35.474 0.817 8.82 3 13.27
12/29/2022 4:00:00 AM 1.9 35.42 0.818 8.83 4.45 13.32
12/29/2022 4:15:00 AM 1.88 35.384 0.818 8.84 3.13 13.3
12/29/2022 4:30:00 AM 1.87 35.366 0.819 8.85 4.22 13.29
12/29/2022 4:45:00 AM 1.85 35.33 0.82 8.87 3.22 13.33
12/29/2022 5:00:00 AM 1.84 35.312 0.82 8.87 2.64 13.3
12/29/2022 5:15:00 AM 1.79 35.222 0.821 8.89 2.44 13.33
12/29/2022 5:30:00 AM 1.78 35.204 0.822 8.9 3.16 13.34
12/29/2022 5:45:00 AM 1.76 35.168 0.823 8.91 2.55 13.35
12/29/2022 6:00:00 AM 1.73 35.114 0.824 8.92 2.92 13.36
12/29/2022 6:15:00 AM 1.74 35.132 0.824 8.92 3.34 13.33
12/29/2022 6:30:00 AM 1.68 35.024 0.825 8.93 2.51 13.36
12/29/2022 6:45:00 AM 1.72 35.096 0.824 8.94 2.92 13.36
12/29/2022 7:00:00 AM 1.65 34.97 0.826 8.94 8.93 13.37
12/29/2022 7:15:00 AM 1.62 34.916 0.826 8.95 2.43 13.42
12/29/2022 7:30:00 AM 1.62 34.916 0.826 8.95 4.77 13.4
12/29/2022 7:45:00 AM 1.59 34.862 0.827 8.95 2.84 13.4
12/29/2022 8:00:00 AM 1.58 34.844 0.827 8.95 11.75 13.45
12/29/2022 8:15:00 AM 1.57 34.826 0.827 8.95 84.24 13.47
12/29/2022 8:30:00 AM 1.57 34.826 0.827 8.94 26.63 13.47
12/29/2022 8:45:00 AM 1.58 34.844 0.828 8.94 19.56 13.51
12/29/2022 9:00:00 AM 1.59 34.862 0.827 8.93 17.96 13.53
12/29/2022 9:15:00 AM 1.61 34.898 0.827 8.92 16.95 13.57
12/29/2022 9:30:00 AM 1.65 34.97 0.827 8.91 15.09 13.58
12/29/2022 9:45:00 AM 1.67 35.006 0.827 8.9 16.88 13.61
12/29/2022 10:00:00 AM 1.74 35.132 0.827 8.89 14.19 13.64
12/29/2022 10:15:00 AM 1.86 35.348 0.826 8.87 11.88 13.66
12/29/2022 10:30:00 AM 2 35.6 0.825 8.83 27.55 13.7
12/29/2022 10:45:00 AM 2.12 35.816 0.825 8.74 16.15 13.72
12/29/2022 11:00:00 AM 2.26 36.068 0.824 8.65 14.41 13.74
12/29/2022 11:15:00 AM 2.38 36.284 0.823 8.54 16.28 13.75
12/29/2022 11:30:00 AM 2.5 36.5 0.822 8.45 12.12 13.72
12/29/2022 11:45:00 AM 2.62 36.716 0.821 8.38 14.1 13.77
12/29/2022 12:00:00 PM 2.69 36.842 0.82 8.31 15.95 13.78
12/29/2022 12:15:00 PM 2.78 37.004 0.819 8.26 15.6 13.76
12/29/2022 12:30:00 PM 2.87 37.166 0.818 8.22 18.65 13.77
12/29/2022 12:45:00 PM 2.98 37.364 0.817 8.19 17.98 13.76
12/29/2022 1:00:00 PM 3.04 37.472 0.816 8.17 10.37 13.74
12/29/2022 1:15:00 PM 3.15 37.67 0.815 8.03 31.46 13.74
12/29/2022 1:30:00 PM 3.22 37.796 0.813 7.94 18.57 13.73
12/29/2022 1:45:00 PM 3.31 37.958 0.811 7.99 11.31 13.7
12/29/2022 2:00:00 PM 3.37 38.066 0.81 8.03 5.73 13.67
12/29/2022 2:15:00 PM 3.46 38.228 0.809 8.05 6.36 13.62
12/29/2022 2:30:00 PM 3.52 38.336 0.807 8.07 14.78 13.58
12/29/2022 2:45:00 PM 3.6 38.48 0.806 8.06 20.52 13.59
12/29/2022 3:00:00 PM 3.65 38.57 0.804 8.06 6.76 13.53
12/29/2022 3:15:00 PM 3.69 38.642 0.804 8.05 5.06 13.47
12/29/2022 3:30:00 PM 3.74 38.732 0.802 8.05 3.8 13.42
12/29/2022 3:45:00 PM 3.79 38.822 0.801 8.06 5.27 13.39
12/29/2022 4:00:00 PM 3.86 38.948 0.799 8.05 80.15 13.35
12/29/2022 4:15:00 PM 3.92 39.056 0.798 8.05 8.13 13.32
12/29/2022 4:30:00 PM 3.97 39.146 0.796 8.05 10.6 13.25
12/29/2022 4:45:00 PM 3.98 39.164 0.796 8.06 4.05 13.19
12/29/2022 5:00:00 PM 4.01 39.218 0.795 8.06 5.38 13.15
12/29/2022 5:15:00 PM 4.05 39.29 0.794 8.13 4.67 13.11
12/29/2022 5:30:00 PM 4.05 39.29 0.794 8.25 4.82 13.06
12/29/2022 5:45:00 PM 4.07 39.326 0.792 8.34 4.75 13.01
12/29/2022 6:00:00 PM 4.07 39.326 0.792 8.43 4.66 12.99
12/29/2022 6:15:00 PM 4.07 39.326 0.792 8.5 3.91 12.93
12/29/2022 6:30:00 PM 4.07 39.326 0.792 8.57 7.57 12.89
12/29/2022 6:45:00 PM 4.06 39.308 0.792 8.62 130.9 12.86
12/29/2022 7:00:00 PM 4.05 39.29 0.792 8.66 41.86 12.83
12/29/2022 7:15:00 PM 4.03 39.254 0.792 8.7 4123 12.79
12/29/2022 7:30:00 PM 4.02 39.236 0.793 8.73 32.49 12.76
12/29/2022 7:45:00 PM 4 39.2 0.793 8.76 1379 12.73
12/29/2022 8:00:00 PM 3.98 39.164 0.794 8.77 16.99 12.69
12/29/2022 8:15:00 PM 3.96 39.128 0.795 8.79 623.6 12.66
12/29/2022 8:30:00 PM 3.94 39.092 0.795 8.82 1281 12.65
12/29/2022 8:45:00 PM 3.92 39.056 0.796 8.83 396.2 12.6
12/29/2022 9:00:00 PM 3.91 39.038 0.797 8.84 92.5 12.59
12/29/2022 9:15:00 PM 3.88 38.984 0.798 8.85 45.62 12.59
12/29/2022 9:30:00 PM 3.86 38.948 0.799 8.87 28.42 12.6
12/29/2022 9:45:00 PM 3.84 38.912 0.8 8.88 8.41 12.56
12/29/2022 10:00:00 PM 3.81 38.858 0.802 8.89 12.48 12.57
12/29/2022 10:15:00 PM 3.79 38.822 0.803 8.9 14.37 12.57
12/29/2022 10:30:00 PM 3.76 38.768 0.805 8.89 14.07 12.56
12/29/2022 10:45:00 PM 3.75 38.75 0.806 8.89 27.7 12.55
12/29/2022 11:00:00 PM 3.76 38.768 0.807 8.88 12.53 12.55
12/29/2022 11:15:00 PM 3.74 38.732 0.808 8.86 20.61 12.55
12/29/2022 11:30:00 PM 3.68 38.624 0.81 8.85 33.23 12.55
12/29/2022 11:45:00 PM 3.64 38.552 0.812 8.86 17.41 12.55
12/30/2022 12:00:00 AM 3.6 38.48 0.814 8.86 23.3 12.56
12/30/2022 12:15:00 AM 3.58 38.444 0.815 8.86 43.86 12.58
12/30/2022 12:30:00 AM 3.55 38.39 0.817 8.85 53.54 12.6
12/30/2022 12:45:00 AM 3.54 38.372 0.818 8.85 9.57 12.59
12/30/2022 1:00:00 AM 3.53 38.354 0.82 8.83 8.68 12.59
12/30/2022 1:15:00 AM 3.51 38.318 0.821 8.82 14.07 12.58
12/30/2022 1:30:00 AM 3.49 38.282 0.823 8.81 11.21 12.59
12/30/2022 1:45:00 AM 3.44 38.192 0.825 8.81 7.74 12.61
12/30/2022 2:00:00 AM 3.4 38.12 0.827 8.81 10.63 12.63
12/30/2022 2:15:00 AM 3.37 38.066 0.828 8.82 8.38 12.65
12/30/2022 2:30:00 AM 3.37 38.066 0.829 8.82 6.63 12.64
12/30/2022 2:45:00 AM 3.33 37.994 0.831 8.82 5.62 12.66
12/30/2022 3:00:00 AM 3.34 38.012 0.832 8.82 7.59 12.68
12/30/2022 3:15:00 AM 3.34 38.012 0.834 8.8 5.56 12.64
12/30/2022 3:30:00 AM 3.32 37.976 0.835 8.8 5.64 12.69
12/30/2022 3:45:00 AM 3.3 37.94 0.837 8.78 7.3 12.69
12/30/2022 4:00:00 AM 3.3 37.94 0.838 8.77 6.22 12.69
12/30/2022 4:15:00 AM 3.27 37.886 0.84 8.75 9.35 12.7
12/30/2022 4:30:00 AM 3.26 37.868 0.842 8.74 7.52 12.69
12/30/2022 4:45:00 AM 3.25 37.85 0.843 8.75 5.49 12.7
12/30/2022 5:00:00 AM 3.23 37.814 0.844 8.75 6.34 12.68
12/30/2022 5:15:00 AM 3.22 37.796 0.845 8.76 5.75 12.69
12/30/2022 5:30:00 AM 3.22 37.796 0.847 8.77 13.14 12.71
12/30/2022 5:45:00 AM 3.22 37.796 0.847 8.77 8.58 12.71
12/30/2022 6:00:00 AM 3.24 37.832 0.849 8.76 6.47 12.68
12/30/2022 6:15:00 AM 3.23 37.814 0.85 8.76 6.82 12.72
12/30/2022 6:30:00 AM 3.24 37.832 0.851 8.75 15.7 12.71
12/30/2022 6:45:00 AM 3.26 37.868 0.852 8.75 5.92 12.69
12/30/2022 7:00:00 AM 3.26 37.868 0.853 8.74 4.97 12.69
12/30/2022 7:15:00 AM 3.27 37.886 0.854 8.73 5.99 12.69
12/30/2022 7:30:00 AM 3.27 37.886 0.855 8.73 5.67 12.67
12/30/2022 7:45:00 AM 3.28 37.904 0.856 8.73 5.12 12.67
12/30/2022 8:00:00 AM 3.27 37.886 0.857 8.73 4.96 12.7
12/30/2022 8:15:00 AM 3.27 37.886 0.857 8.74 5.12 12.71
12/30/2022 8:30:00 AM 3.29 37.922 0.858 8.74 5.94 12.72
12/30/2022 8:45:00 AM 3.29 37.922 0.858 8.74 5.82 12.76
12/30/2022 9:00:00 AM 3.31 37.958 0.859 8.72 6.96 12.76
12/30/2022 9:15:00 AM 3.34 38.012 0.858 8.71 5.77 12.78
12/30/2022 9:30:00 AM 3.36 38.048 0.859 8.7 5.47 12.8
12/30/2022 9:45:00 AM 3.4 38.12 0.86 8.69 5.8 12.85
12/30/2022 10:00:00 AM 3.47 38.246 0.859 8.68 6.34 12.9
12/30/2022 10:15:00 AM 3.57 38.426 0.859 8.65 5.38 12.9
12/30/2022 10:30:00 AM 3.74 38.732 0.859 8.55 5.41 12.91
12/30/2022 10:45:00 AM 3.85 38.93 0.86 8.44 4.97 12.99
12/30/2022 11:00:00 AM 3.98 39.164 0.86 8.38 5.14 13.03
12/30/2022 11:15:00 AM 4.11 39.398 0.859 8.33 5.51 13.05
12/30/2022 11:30:00 AM 4.22 39.596 0.859 8.34 7.92 13.08
12/30/2022 11:45:00 AM 4.31 39.758 0.859 8.34 6.17 13.07
12/30/2022 12:00:00 PM 4.38 39.884 0.859 8.34 10.04 13.08
12/30/2022 12:15:00 PM 4.49 40.082 0.858 8.31 5.62 13.09
12/30/2022 12:30:00 PM 4.56 40.208 0.859 8.28 6.58 13.11
12/30/2022 12:45:00 PM 4.66 40.388 0.857 8.27 6.91 13.1
12/30/2022 1:00:00 PM 4.72 40.496 0.857 8.29 6.48 13.12
12/30/2022 1:15:00 PM 4.84 40.712 0.856 8.3 7.18 13.09
12/30/2022 1:30:00 PM 4.89 40.802 0.857 8.29 7.19 13.08
12/30/2022 1:45:00 PM 4.94 40.892 0.857 8.3 18.85 12.75
12/30/2022 2:00:00 PM 5.05 41.09 0.856 8.27 7.97 13.03
12/30/2022 2:15:00 PM 5.1 41.18 0.855 8.25 8.19 13.03
12/30/2022 2:30:00 PM 5.18 41.324 0.854 8.25 267.1 13.01
12/30/2022 2:45:00 PM 5.2 41.36 0.852 8.22 31.77 12.91
12/30/2022 3:00:00 PM 5.27 41.486 0.851 8.21 10.17 12.91
12/30/2022 3:15:00 PM 5.3 41.54 0.851 8.19 9.52 12.87
12/30/2022 3:30:00 PM 5.33 41.594 0.85 8.19 10.6 12.82
12/30/2022 3:45:00 PM 5.38 41.684 0.852 8.18 10.43 12.77
12/30/2022 4:00:00 PM 5.44 41.792 0.851 8.16 21.55 12.73
12/30/2022 4:15:00 PM 5.46 41.828 0.851 8.15 14.49 12.66
12/30/2022 4:30:00 PM 5.5 41.9 0.85 8.15 12.5 12.63
12/30/2022 4:45:00 PM 5.55 41.99 0.848 8.12 8.2 12.6
12/30/2022 5:00:00 PM 5.56 42.008 0.848 8.03 8.99 12.55
12/30/2022 5:15:00 PM 5.59 42.062 0.848 8.06 7.75 12.52
12/30/2022 5:30:00 PM 5.6 42.08 0.847 8.12 5.47 12.43
12/30/2022 5:45:00 PM 5.6 42.08 0.846 8.24 5.56 12.4
12/30/2022 6:00:00 PM 5.6 42.08 0.842 8.35 5.68 12.34
12/30/2022 6:15:00 PM 5.6 42.08 0.845 8.45 7.96 12.32
12/30/2022 6:30:00 PM 5.6 42.08 0.845 8.52 6.41 12.25
12/30/2022 6:45:00 PM 5.59 42.062 0.844 8.56 5.96 12.18
12/30/2022 7:00:00 PM 5.57 42.026 0.844 8.62 5.64 12.15
12/30/2022 7:15:00 PM 5.57 42.026 0.843 8.69 12.15 12.12
12/30/2022 7:30:00 PM 5.54 41.972 0.843 8.73 6.63 12.08
12/30/2022 7:45:00 PM 5.54 41.972 0.843 8.78 8.34 12.05
12/30/2022 8:00:00 PM 5.51 41.918 0.842 8.82 6.65 12.04
12/30/2022 8:15:00 PM 5.49 41.882 0.842 8.86 6.1 11.97
12/30/2022 8:30:00 PM 5.47 41.846 0.841 8.88 6.06 11.95
12/30/2022 8:45:00 PM 5.46 41.828 0.841 8.9 6.12 11.93
12/30/2022 9:00:00 PM 5.44 41.792 0.841 8.91 6.08 11.9
12/30/2022 9:15:00 PM 5.42 41.756 0.841 8.91 5.56 11.87
12/30/2022 9:30:00 PM 5.4 41.72 0.841 8.89 5.99 11.86
12/30/2022 9:45:00 PM 5.38 41.684 0.84 8.9 6.6 11.87
12/30/2022 10:00:00 PM 5.36 41.648 0.84 8.91 5.83 11.84
12/30/2022 10:15:00 PM 5.34 41.612 0.84 8.92 5.93 11.84
12/30/2022 10:30:00 PM 5.31 41.558 0.84 8.93 5.96 11.82
12/30/2022 10:45:00 PM 5.28 41.504 0.84 8.93 11.36 11.82
12/30/2022 11:00:00 PM 5.26 41.468 0.84 8.93 6.29 11.85
12/30/2022 11:15:00 PM 5.21 41.378 0.84 8.93 6.5 11.83
12/30/2022 11:30:00 PM 5.19 41.342 0.84 8.93 6.58 11.83
12/30/2022 11:45:00 PM 5.16 41.288 0.841 8.93 6.6 11.81
12/31/2022 12:00:00 AM 5.12 41.216 0.841 8.92 6.4 11.86
12/31/2022 12:15:00 AM 5.09 41.162 0.841 8.92 6.77 11.85
12/31/2022 12:30:00 AM 5.05 41.09 0.841 8.91 7.74 11.86
12/31/2022 12:45:00 AM 5.03 41.054 0.842 8.91 10.48 11.87
12/31/2022 1:00:00 AM 4.99 40.982 0.842 8.91 8.27 11.86
12/31/2022 1:15:00 AM 4.96 40.928 0.842 8.91 7.32 11.86
12/31/2022 1:30:00 AM 4.93 40.874 0.843 8.9 6.31 11.9
12/31/2022 1:45:00 AM 4.89 40.802 0.843 8.89 6.23 11.9
12/31/2022 2:00:00 AM 4.87 40.766 0.843 8.88 6.08 11.88
12/31/2022 2:15:00 AM 4.84 40.712 0.844 8.87 7.57 11.9
12/31/2022 2:30:00 AM 4.81 40.658 0.844 8.86 6.56 11.91
12/31/2022 2:45:00 AM 4.78 40.604 0.845 8.85 5.96 11.95
12/31/2022 3:00:00 AM 4.77 40.586 0.845 8.84 8.17 11.93
12/31/2022 3:15:00 AM 4.75 40.55 0.846 8.83 5.73 11.92
12/31/2022 3:30:00 AM 4.74 40.532 0.846 8.81 8.3 11.94
12/31/2022 3:45:00 AM 4.74 40.532 0.846 8.79 9.38 11.95
12/31/2022 4:00:00 AM 4.75 40.55 0.846 8.77 9.43 11.96
12/31/2022 4:15:00 AM 4.74 40.532 0.847 8.74 6.31 11.96
12/31/2022 4:30:00 AM 4.73 40.514 0.848 8.71 6.88 11.96
12/31/2022 4:45:00 AM 4.73 40.514 0.848 8.7 8.64 11.97
12/31/2022 5:00:00 AM 4.73 40.514 0.849 8.68 7.11 11.96
12/31/2022 5:15:00 AM 4.74 40.532 0.849 8.66 7.24 11.98
12/31/2022 5:30:00 AM 4.75 40.55 0.85 8.63 8.36 11.98
12/31/2022 5:45:00 AM 4.77 40.586 0.851 8.61 7.48 11.95
12/31/2022 6:00:00 AM 4.78 40.604 0.852 8.59 5.79 11.96
12/31/2022 6:15:00 AM 4.8 40.64 0.852 8.56 7.31 11.96
12/31/2022 6:30:00 AM 4.82 40.676 0.853 8.54 10 11.95
12/31/2022 6:45:00 AM 4.84 40.712 0.848 8.52 6.2 11.94
12/31/2022 7:00:00 AM 4.86 40.748 0.854 8.5 6.29 11.92
12/31/2022 7:15:00 AM 4.88 40.784 0.855 8.47 9.25 11.92
12/31/2022 7:30:00 AM 4.91 40.838 0.856 8.45 6.19 11.89
12/31/2022 7:45:00 AM 4.93 40.874 0.857 8.43 10.25 11.91
12/31/2022 8:00:00 AM 4.96 40.928 0.857 8.42 5.92 11.9
12/31/2022 8:15:00 AM 4.98 40.964 0.858 8.4 16.49 11.89
12/31/2022 8:30:00 AM 5.02 41.036 0.859 8.38 6.76 11.93
12/31/2022 8:45:00 AM 5.05 41.09 0.859 8.36 5.57 11.91
12/31/2022 9:00:00 AM 5.11 41.198 0.86 8.33 8.75 11.93
12/31/2022 9:15:00 AM 5.13 41.234 0.861 8.3 7.09 11.96
12/31/2022 9:30:00 AM 5.19 41.342 0.861 8.28 7.01 11.98
12/31/2022 9:45:00 AM 5.23 41.414 0.862 8.25 7.19 11.99
12/31/2022 10:00:00 AM 5.27 41.486 0.862 8.22 7.13 11.99
12/31/2022 10:15:00 AM 5.36 41.648 0.863 8.21 6.93 12.02
12/31/2022 10:30:00 AM 5.41 41.738 0.863 8.19 7.29 12.1
12/31/2022 10:45:00 AM 5.47 41.846 0.863 8.16 5.96 12.08
12/31/2022 11:00:00 AM 5.52 41.936 0.864 8.15 7.62 12.1
12/31/2022 11:15:00 AM 5.57 42.026 0.864 8.13 6.12 12.08
12/31/2022 11:30:00 AM 5.63 42.134 0.864 8.12 6.33 12.14
12/31/2022 11:45:00 AM 5.67 42.206 0.864 8.1 6.86 12.12
12/31/2022 12:00:00 PM 5.72 42.296 0.864 8.07 12.15 12.12
12/31/2022 12:15:00 PM 5.78 42.404 0.864 8.06 9.46 12.15
12/31/2022 12:30:00 PM 5.83 42.494 0.864 8.04 9.08 12.18
12/31/2022 12:45:00 PM 5.88 42.584 0.864 8.04 6.9 12.11
12/31/2022 1:00:00 PM 5.9 42.62 0.864 8.02 7.32 12.12
12/31/2022 1:15:00 PM 5.95 42.71 0.864 7.99 6.85 12.15
12/31/2022 1:30:00 PM 5.99 42.782 0.863 7.98 8.1 12.14
12/31/2022 1:45:00 PM 6.05 42.89 0.863 7.93 7.27 12.12
12/31/2022 2:00:00 PM 6.09 42.962 0.862 7.92 6.13 12.13
12/31/2022 2:15:00 PM 6.12 43.016 0.862 7.89 8.28 12.06
12/31/2022 2:30:00 PM 6.17 43.106 0.861 7.9 7.82 12.09
12/31/2022 2:45:00 PM 6.22 43.196 0.86 7.91 6.66 12.05
12/31/2022 3:00:00 PM 6.26 43.268 0.859 7.94 11.87 12.06
12/31/2022 3:15:00 PM 6.33 43.394 0.858 7.96 6.76 12.02
12/31/2022 3:30:00 PM 6.36 43.448 0.858 7.97 5.89 12
12/31/2022 3:45:00 PM 6.39 43.502 0.857 7.95 7.11 11.98
12/31/2022 4:00:00 PM 6.42 43.556 0.857 7.98 6.76 11.92
12/31/2022 4:15:00 PM 6.46 43.628 0.857 7.94 9.54 11.86
12/31/2022 4:30:00 PM 6.49 43.682 0.856 7.94 6.99 11.83
12/31/2022 4:45:00 PM 6.49 43.682 0.856 7.95 8.56 11.78
12/31/2022 5:00:00 PM 6.54 43.772 0.854 7.95 6.9 11.71
12/31/2022 5:15:00 PM 6.53 43.754 0.854 7.95 6.63 11.68
12/31/2022 5:30:00 PM 6.57 43.826 0.852 7.96 6.61 11.65
12/31/2022 5:45:00 PM 6.62 43.916 0.85 7.97 6.15 11.64
12/31/2022 6:00:00 PM 6.62 43.916 0.848 7.97 7.82 11.58
12/31/2022 6:15:00 PM 6.69 44.042 0.844 7.97 6.75 11.57
12/31/2022 6:30:00 PM 6.69 44.042 0.843 7.97 7.58 11.52
12/31/2022 6:45:00 PM 6.74 44.132 0.841 7.97 6.25 11.46
12/31/2022 7:00:00 PM 6.76 44.168 0.841 7.98 8.3 11.44
12/31/2022 7:15:00 PM 6.78 44.204 0.84 7.95 7.73 11.4
12/31/2022 7:30:00 PM 6.81 44.258 0.839 7.96 8.91 11.35
12/31/2022 7:45:00 PM 6.84 44.312 0.837 7.97 8.54 11.34
12/31/2022 8:00:00 PM 6.85 44.33 0.832 7.97 10.44 11.27
12/31/2022 8:15:00 PM 6.82 44.276 0.823 7.96 58.79 11.26
12/31/2022 8:30:00 PM 6.84 44.312 0.823 7.98 145.7 11.27
12/31/2022 8:45:00 PM 6.91 44.438 0.823 7.97 10.27 11.29
12/31/2022 9:00:00 PM 6.83 44.294 0.816 7.94 18.43 11.22
12/31/2022 9:15:00 PM 6.49 43.682 0.794 7.94 38.97 11.33
12/31/2022 9:30:00 PM 6.37 43.466 0.772 7.99 17.83 11.4
12/31/2022 9:45:00 PM 6.63 43.934 0.785 7.97 16.01 11.3
12/31/2022 10:00:00 PM 6.45 43.61 0.776 7.96 15.28 11.34
12/31/2022 10:15:00 PM 6.65 43.97 0.785 7.98 10.75 11.27
12/31/2022 10:30:00 PM 6.8 44.24 0.791 7.98 9.04 11.21
12/31/2022 10:45:00 PM 6.87 44.366 0.796 7.96 8.43 11.19
12/31/2022 11:00:00 PM 6.75 44.15 0.8 7.94 7.49 11.19
12/31/2022 11:15:00 PM 6.9 44.42 0.809 7.95 11.3 11.13
12/31/2022 11:30:00 PM 6.94 44.492 0.814 7.93 7.74 11.11
12/31/2022 11:45:00 PM 6.97 44.546 0.821 7.91 8.82 11.12
1/1/2023 12:00:00 AM 7.01 44.618 0.822 7.9 7.01 11.08
1/1/2023 12:15:00 AM 7.05 44.69 0.821 7.94 11.9 11.06
1/1/2023 12:30:00 AM 7.08 44.744 0.821 7.91 6.38 11.05
1/1/2023 12:45:00 AM 7.11 44.798 0.819 7.9 10.04 11
1/1/2023 1:00:00 AM 7.13 44.834 0.816 7.9 9.45 11.02
1/1/2023 1:15:00 AM 7.15 44.87 0.816 7.57 16.46 10.98
1/1/2023 1:30:00 AM 7.18 44.924 0.812 7.21 15.57 10.96
1/1/2023 1:45:00 AM 7.2 44.96 0.811 7.14 23.18 10.94
1/1/2023 2:00:00 AM 7.21 44.978 0.81 7.1 16.89 10.98
1/1/2023 2:15:00 AM 7.2 44.96 0.812 7.03 19.38 10.93
1/1/2023 2:30:00 AM 7.19 44.942 0.816 7.14 15.98 10.91
1/1/2023 2:45:00 AM 7.18 44.924 0.823 6.99 15.17 10.9
1/1/2023 3:00:00 AM 7.17 44.906 0.829 7.03 12.95 10.98
1/1/2023 3:15:00 AM 7.15 44.87 0.834 7.03 13.97 10.94
1/1/2023 3:30:00 AM 7.14 44.852 0.837 7.22 15.03 10.95
1/1/2023 3:45:00 AM 7.13 44.834 0.839 7.23 16.14 10.94
1/1/2023 4:00:00 AM 7.12 44.816 0.839 7.16 12.97 10.92
1/1/2023 4:15:00 AM 7.12 44.816 0.84 7.19 13.32 10.9
1/1/2023 4:30:00 AM 7.12 44.816 0.841 7.19 13.36 10.89
1/1/2023 4:45:00 AM 7.12 44.816 0.843 7.08 15.57 10.93
1/1/2023 5:00:00 AM 7.1 44.78 0.846 7.12 19.52 10.92
1/1/2023 5:15:00 AM 7.09 44.762 0.852 7.28 14.84 10.92
1/1/2023 5:30:00 AM 7.08 44.744 0.859 7.25 19.14 10.93
1/1/2023 5:45:00 AM 7.07 44.726 0.865 7.2 31.5 10.92
1/1/2023 6:00:00 AM 7.06 44.708 0.871 7.13 16.39 10.91
1/1/2023 6:15:00 AM 7.05 44.69 0.875 7.13 13.02 10.92
1/1/2023 6:30:00 AM 7.03 44.654 0.876 7.18 10.5 10.88
1/1/2023 6:45:00 AM 7.01 44.618 0.876 7.2 11.22 10.88
1/1/2023 7:00:00 AM 7 44.6 0.873 7.19 20.06 10.9
1/1/2023 7:15:00 AM 6.98 44.564 0.869 7.35 20.25 10.94
1/1/2023 7:30:00 AM 6.96 44.528 0.866 7.4 90.22 10.93
1/1/2023 7:45:00 AM 6.94 44.492 0.862 7.48 9.97 10.91
1/1/2023 8:00:00 AM 6.92 44.456 0.862 7.52 12.56 10.93
1/1/2023 8:15:00 AM 6.9 44.42 0.859 7.59 9.88 10.96
1/1/2023 8:30:00 AM 6.89 44.402 0.858 7.62 9.62 10.95
1/1/2023 8:45:00 AM 6.89 44.402 0.858 7.64 10.97 11
1/1/2023 9:00:00 AM 6.91 44.438 0.858 7.62 15.84 11.04
1/1/2023 9:15:00 AM 6.93 44.474 0.859 7.58 9.33 11.11
1/1/2023 9:30:00 AM 6.96 44.528 0.859 7.54 18.19 11.17
1/1/2023 9:45:00 AM 7 44.6 0.858 7.51 8.29 11.2
1/1/2023 10:00:00 AM 7.06 44.708 0.857 7.49 37.81 11.28
1/1/2023 10:15:00 AM 7.1 44.78 0.856 7.46 8.48 11.32
1/1/2023 10:30:00 AM 7.2 44.96 0.852 7.45 6.19 11.35
1/1/2023 10:45:00 AM 7.3 45.14 0.848 7.45 13 11.39
1/1/2023 11:00:00 AM 7.41 45.338 0.845 7.43 4.84 11.46
1/1/2023 11:15:00 AM 7.51 45.518 0.84 7.43 224.6 11.46
1/1/2023 11:30:00 AM 7.57 45.626 0.837 7.42 71.05 11.55
1/1/2023 11:45:00 AM 7.62 45.716 0.834 7.44 33.46 11.58
1/1/2023 12:00:00 PM 7.65 45.77 0.831 7.43 15.88 11.59
1/1/2023 12:15:00 PM 7.74 45.932 0.828 7.52 327.6 11.65
1/1/2023 12:30:00 PM 7.8 46.04 0.825 7.55 2752 11.7
1/1/2023 12:45:00 PM 7.78 46.004 0.823 7.56 321.1 11.66
1/1/2023 1:00:00 PM 7.78 46.004 0.822 7.56 67.52 11.64
1/1/2023 1:15:00 PM 7.88 46.184 0.82 7.57 96.15 11.69
1/1/2023 1:30:00 PM 8.02 46.436 0.819 7.56 157.5 11.72
1/1/2023 1:45:00 PM 8.07 46.526 0.819 7.55 388.8 11.77
1/1/2023 2:00:00 PM 8.09 46.562 0.818 7.57 93.59 11.77
1/1/2023 2:15:00 PM 8.2 46.76 0.817 7.6 360.4 11.78
1/1/2023 2:30:00 PM 8.24 46.832 0.817 7.59 89.49 11.76
1/1/2023 2:45:00 PM 8.27 46.886 0.816 7.56 85.57 11.74
1/1/2023 3:00:00 PM 8.31 46.958 0.816 7.58 154.6 11.72
1/1/2023 3:15:00 PM 8.34 47.012 0.816 7.59 7.62 11.63
1/1/2023 3:30:00 PM 8.36 47.048 0.816 7.62 156.2 11.62
1/1/2023 3:45:00 PM 8.37 47.066 0.816 7.6 7.67 11.58
1/1/2023 4:00:00 PM 8.39 47.102 0.816 7.63 170.9 11.55
1/1/2023 4:15:00 PM 8.38 47.084 0.816 7.61 43.49 11.5
1/1/2023 4:30:00 PM 8.38 47.084 0.816 7.63 32.84 11.45
1/1/2023 4:45:00 PM 8.39 47.102 0.815 7.64 106.1 11.4
1/1/2023 5:00:00 PM 8.37 47.066 0.816 7.61 22.72 11.35
1/1/2023 5:15:00 PM 8.38 47.084 0.816 7.61 76.28 11.32
1/1/2023 5:30:00 PM 8.36 47.048 0.816 7.61 75.28 11.27
1/1/2023 5:45:00 PM 8.33 46.994 0.817 7.61 7.32 11.23
1/1/2023 6:00:00 PM 8.31 46.958 0.817 7.6 13.14 11.18
1/1/2023 6:15:00 PM 8.29 46.922 0.817 7.62 7.71 11.18
1/1/2023 6:30:00 PM 8.24 46.832 0.818 7.65 33.68 11.08
1/1/2023 6:45:00 PM 8.21 46.778 0.818 7.73 6.45 11.05
1/1/2023 7:00:00 PM 8.18 46.724 0.819 7.82 24.69 11.03
1/1/2023 7:15:00 PM 8.14 46.652 0.819 7.92 41.13 10.98
1/1/2023 7:30:00 PM 8.13 46.634 0.819 8.01 9.68 10.96
1/1/2023 7:45:00 PM 8.11 46.598 0.819 8.07 6.19 10.92
1/1/2023 8:00:00 PM 8.08 46.544 0.805 8.09 6.57 10.92
1/1/2023 8:15:00 PM 8.06 46.508 0.818 8.1 14.63 10.84
1/1/2023 8:30:00 PM 8.02 46.436 0.818 8.11 33.65 10.87
1/1/2023 8:45:00 PM 7.98 46.364 0.819 8.14 12.62 10.82
1/1/2023 9:00:00 PM 7.98 46.364 0.817 8.15 35.48 10.8
1/1/2023 9:15:00 PM 7.93 46.274 0.817 8.16 137.9 10.8
1/1/2023 9:30:00 PM 7.88 46.184 0.817 8.23 5.15 10.76
1/1/2023 9:45:00 PM 7.83 46.094 0.816 8.32 5.21 10.79
1/1/2023 10:00:00 PM 7.79 46.022 0.817 8.4 22.79 10.76
1/1/2023 10:15:00 PM 7.74 45.932 0.816 8.48 4.26 10.74
1/1/2023 10:30:00 PM 7.71 45.878 0.816 8.54 6.11 10.74
1/1/2023 10:45:00 PM 7.68 45.824 0.817 8.57 11.38 10.71
1/1/2023 11:00:00 PM 7.64 45.752 0.817 8.6 6.82 10.73
1/1/2023 11:15:00 PM 7.6 45.68 0.818 8.63 44.78 10.72
1/1/2023 11:30:00 PM 7.58 45.644 0.818 8.64 13.82 10.7
1/1/2023 11:45:00 PM 7.56 45.608 0.819 8.63 487.6 10.71
1/2/2023 12:00:00 AM 7.54 45.572 0.82 8.61 7.14 10.72
1/2/2023 12:15:00 AM 7.52 45.536 0.821 8.58 52.4 10.72
1/2/2023 12:30:00 AM 7.5 45.5 0.822 8.56 11.09 10.71
1/2/2023 12:45:00 AM 7.48 45.464 0.823 8.54 13.54 10.73
1/2/2023 1:00:00 AM 7.46 45.428 0.825 8.52 22.24 10.72
1/2/2023 1:15:00 AM 7.42 45.356 0.826 8.5 9.99 10.73
1/2/2023 1:30:00 AM 7.38 45.284 0.828 8.54 251.6 10.72
1/2/2023 1:45:00 AM 7.34 45.212 0.828 8.59 11.03 10.76
1/2/2023 2:00:00 AM 7.3 45.14 0.827 8.62 50.32 10.77
1/2/2023 2:15:00 AM 7.29 45.122 0.831 8.66 9.44 10.75
1/2/2023 2:30:00 AM 7.26 45.068 0.833 8.67 8.95 10.76
1/2/2023 2:45:00 AM 7.23 45.014 0.835 8.68 6.41 10.78
1/2/2023 3:00:00 AM 7.21 44.978 0.836 8.7 25.97 10.83
1/2/2023 3:15:00 AM 7.19 44.942 0.837 8.7 5.31 10.77
1/2/2023 3:30:00 AM 7.17 44.906 0.838 8.7 5.79 10.81
1/2/2023 3:45:00 AM 7.15 44.87 0.839 8.7 32.31 10.82
1/2/2023 4:00:00 AM 7.13 44.834 0.84 8.7 41.12 10.82
1/2/2023 4:15:00 AM 7.12 44.816 0.841 8.7 5.06 10.85
1/2/2023 4:30:00 AM 7.11 44.798 0.842 8.7 96.82 10.84
1/2/2023 4:45:00 AM 7.09 44.762 0.843 8.7 7.36 10.85
1/2/2023 5:00:00 AM 7.08 44.744 0.844 8.71 20.47 10.86
1/2/2023 5:15:00 AM 7.06 44.708 0.844 8.7 3.98 10.86
1/2/2023 5:30:00 AM 7.05 44.69 0.844 8.7 189.5 10.86
1/2/2023 5:45:00 AM 7.03 44.654 0.845 8.7 5 10.88
1/2/2023 6:00:00 AM 7.02 44.636 0.844 8.7 5.01 10.89
1/2/2023 6:15:00 AM 7.03 44.654 0.844 8.68 12.01 10.91
1/2/2023 6:30:00 AM 7.02 44.636 0.845 8.67 6.44 10.89
1/2/2023 6:45:00 AM 7.02 44.636 0.844 8.65 5.05 10.91
1/2/2023 7:00:00 AM 7.01 44.618 0.845 8.62 110.5 10.89
1/2/2023 7:15:00 AM 7 44.6 0.845 8.61 5.16 10.9
1/2/2023 7:30:00 AM 6.99 44.582 0.844 8.61 5.41 10.89
1/2/2023 7:45:00 AM 6.98 44.564 0.843 8.61 238.5 10.91
1/2/2023 8:00:00 AM 6.98 44.564 0.843 8.61 23.73 10.93
1/2/2023 8:15:00 AM 6.98 44.564 0.842 8.59 5.43 10.94
1/2/2023 8:30:00 AM 6.99 44.582 0.841 8.57 36.76 10.97
1/2/2023 8:45:00 AM 7 44.6 0.841 8.54 3.03 11.01
1/2/2023 9:00:00 AM 7.01 44.618 0.84 8.51 58.78 11.03
1/2/2023 9:15:00 AM 7.03 44.654 0.838 8.47 5.95 11.07
1/2/2023 9:30:00 AM 7.04 44.672 0.837 8.41 72.04 11.09
1/2/2023 9:45:00 AM 7.06 44.708 0.836 8.36 3.34 11.14
1/2/2023 10:00:00 AM 7.08 44.744 0.834 8.32 411.5 11.18
1/2/2023 10:15:00 AM 7.1 44.78 0.832 8.28 6.29 11.23
1/2/2023 10:30:00 AM 7.12 44.816 0.831 8.24 422 11.22
1/2/2023 10:45:00 AM 7.17 44.906 0.83 8.2 3.38 11.29
1/2/2023 11:00:00 AM 7.24 45.032 0.828 8.13 297.4 11.35
1/2/2023 11:15:00 AM 7.31 45.158 0.826 8.07 369.7 11.42
1/2/2023 11:30:00 AM 7.37 45.266 0.825 7.99 7.53 11.48
1/2/2023 11:45:00 AM 7.44 45.392 0.823 7.93 4.75 11.53
1/2/2023 12:00:00 PM 7.47 45.446 0.822 7.89 6.08 11.52
1/2/2023 12:15:00 PM 7.52 45.536 0.82 7.86 24.18 11.61
1/2/2023 12:30:00 PM 7.58 45.644 0.819 7.84 15.68 11.58
1/2/2023 12:45:00 PM 7.64 45.752 0.817 7.79 4.15 11.6
1/2/2023 1:00:00 PM 7.73 45.914 0.815 7.78 5.68 11.67
1/2/2023 1:15:00 PM 7.78 46.004 0.815 7.76 5.45 11.68
1/2/2023 1:30:00 PM 7.84 46.112 0.813 7.76 9.08 11.71
1/2/2023 1:45:00 PM 7.88 46.184 0.812 7.74 8.32 11.71
1/2/2023 2:00:00 PM 7.93 46.274 0.811 7.73 2.8 11.68
1/2/2023 2:15:00 PM 7.98 46.364 0.81 7.72 19.46 11.68
1/2/2023 2:30:00 PM 8.03 46.454 0.809 7.71 2.61 11.67
1/2/2023 2:45:00 PM 8.06 46.508 0.808 7.7 4 11.62
1/2/2023 3:00:00 PM 8.08 46.544 0.808 7.68 83.12 11.59
1/2/2023 3:15:00 PM 8.12 46.616 0.807 7.66 4.8 11.55
1/2/2023 3:30:00 PM 8.16 46.688 0.806 7.67 4.77 11.5
1/2/2023 3:45:00 PM 8.18 46.724 0.806 7.67 5.08 11.49
1/2/2023 4:00:00 PM 8.22 46.796 0.806 7.69 3.76 11.46
1/2/2023 4:15:00 PM 8.26 46.868 0.805 7.7 4.04 11.41
1/2/2023 4:30:00 PM 8.28 46.904 0.805 7.71 3.44 11.36
1/2/2023 4:45:00 PM 8.29 46.922 0.805 7.68 32.08 11.28
1/2/2023 5:00:00 PM 8.32 46.976 0.805 7.57 3.14 11.24
1/2/2023 5:15:00 PM 8.33 46.994 0.805 7.58 916.2 11.18
1/2/2023 5:30:00 PM 8.35 47.03 0.787 7.59 4.05 11.14
1/2/2023 5:45:00 PM 8.37 47.066 0.799 7.55 3.62 11.1
1/2/2023 6:00:00 PM 8.37 47.066 0.805 7.6 558.4 11.08
1/2/2023 6:15:00 PM 8.4 47.12 0.804 7.56 2.92 10.99
1/2/2023 6:30:00 PM 8.42 47.156 0.801 7.62 7.18 10.97
1/2/2023 6:45:00 PM 8.41 47.138 0.794 7.6 20.15 10.94
1/2/2023 7:00:00 PM 8.42 47.156 0.805 7.59 52.21 10.88
1/2/2023 7:15:00 PM 8.45 47.21 0.804 7.59 1675 10.83
1/2/2023 7:30:00 PM 8.46 47.228 0.805 7.61 5.77 10.8
1/2/2023 7:45:00 PM 8.47 47.246 0.805 7.6 38.14 10.77
1/2/2023 8:00:00 PM 8.46 47.228 0.806 7.6 4.18 10.72
1/2/2023 8:15:00 PM 8.47 47.246 0.807 7.62 29.52 10.7
1/2/2023 8:30:00 PM 8.48 47.264 0.807 7.64 3.78 10.69
1/2/2023 8:45:00 PM 8.48 47.264 0.807 7.62 504.3 10.69
1/2/2023 9:00:00 PM 8.47 47.246 0.807 7.63 23.57 10.62
1/2/2023 9:15:00 PM 8.46 47.228 0.808 7.66 6.1 10.65
1/2/2023 9:30:00 PM 8.45 47.21 0.808 7.69 3.18 10.62
1/2/2023 9:45:00 PM 8.45 47.21 0.798 7.73 1181 10.6
1/2/2023 10:00:00 PM 8.45 47.21 0.804 7.75 33.39 10.57
1/2/2023 10:15:00 PM 8.45 47.21 0.807 7.75 2.9 10.59
1/2/2023 10:30:00 PM 8.43 47.174 0.81 7.75 407.4 10.56
1/2/2023 10:45:00 PM 8.42 47.156 0.81 7.76 3.66 10.51
1/2/2023 11:00:00 PM 8.41 47.138 0.81 7.75 582.2 10.52
1/2/2023 11:15:00 PM 8.39 47.102 0.811 7.73 10.51 10.52
1/2/2023 11:30:00 PM 8.38 47.084 0.808 7.73 147.2 10.5
1/2/2023 11:45:00 PM 8.38 47.084 0.809 7.73 15.16 10.5
1/3/2023 12:00:00 AM 8.36 47.048 0.81 7.72 7.21 10.51
1/3/2023 12:15:00 AM 8.35 47.03 0.811 7.72 28.89 10.47
1/3/2023 12:30:00 AM 8.34 47.012 0.811 7.72 5.84 10.5
1/3/2023 12:45:00 AM 8.32 46.976 0.79 7.72 3.65 10.48
1/3/2023 1:00:00 AM 8.31 46.958 0.81 7.7 2.85 10.48
1/3/2023 1:15:00 AM 8.3 46.94 0.808 7.7 8.04 10.49
1/3/2023 1:30:00 AM 8.28 46.904 0.808 7.7 5.54 10.49
1/3/2023 1:45:00 AM 8.27 46.886 0.808 7.7 2.37 10.48
1/3/2023 2:00:00 AM 8.27 46.886 0.807 7.69 9.16 10.48
1/3/2023 2:15:00 AM 8.26 46.868 0.808 7.67 4.04 10.48
1/3/2023 2:30:00 AM 8.25 46.85 0.807 7.66 6.06 10.48
1/3/2023 2:45:00 AM 8.24 46.832 0.807 7.66 9.84 10.48
1/3/2023 3:00:00 AM 8.24 46.832 0.806 7.66 5.19 10.48
1/3/2023 3:15:00 AM 8.24 46.832 0.805 7.63 2.8 10.49
1/3/2023 3:30:00 AM 8.24 46.832 0.801 7.62 2.97 10.48
1/3/2023 3:45:00 AM 8.24 46.832 0.8 7.61 3.36 10.48
1/3/2023 4:00:00 AM 8.23 46.814 0.786 7.59 3.21 10.48
1/3/2023 4:15:00 AM 8.23 46.814 0.801 7.59 4.32 10.49
1/3/2023 4:30:00 AM 8.22 46.796 0.788 7.59 4.99 10.49
1/3/2023 4:45:00 AM 8.22 46.796 0.799 7.62 48.06 10.51
1/3/2023 5:00:00 AM 8.21 46.778 0.796 7.63 3.58 10.5
1/3/2023 5:15:00 AM 8.19 46.742 0.797 7.68 16.02 10.48
1/3/2023 5:30:00 AM 8.18 46.724 0.797 7.79 4.45 10.49
1/3/2023 5:45:00 AM 8.17 46.706 0.795 7.87 848.8 10.51
1/3/2023 6:00:00 AM 8.17 46.706 0.794 7.9 11.66 10.48
1/3/2023 6:15:00 AM 8.17 46.706 0.794 7.91 5.39 10.49
1/3/2023 6:30:00 AM 8.16 46.688 0.793 7.92 534 10.47
1/3/2023 6:45:00 AM 8.16 46.688 0.791 7.93 2.87 10.5
1/3/2023 7:00:00 AM 8.16 46.688 0.79 7.94 3.87 10.5
1/3/2023 7:15:00 AM 8.15 46.67 0.789 7.94 124.3 10.48
1/3/2023 7:30:00 AM 8.16 46.688 0.788 7.94 92.97 10.49
1/3/2023 7:45:00 AM 8.16 46.688 0.788 7.94 9.33 10.51
1/3/2023 8:00:00 AM 8.16 46.688 0.787 7.92 286.9 10.49
1/3/2023 8:15:00 AM 8.16 46.688 0.786 7.9 4.97 10.54
1/3/2023 8:30:00 AM 8.17 46.706 0.785 7.88 381.4 10.57
1/3/2023 8:45:00 AM 8.17 46.706 0.784 7.83 54.93 10.55
1/3/2023 9:00:00 AM 8.19 46.742 0.781 7.8 3.3 10.59
1/3/2023 9:15:00 AM 8.2 46.76 0.778 7.75 490.3 10.61
1/3/2023 9:30:00 AM 8.21 46.778 0.711 7.72 11.63 10.65
1/3/2023 9:45:00 AM 8.22 46.796 0.715 7.68 3.31 10.66
1/3/2023 10:00:00 AM 8.23 46.814 0.761 7.65 392.9 10.67
1/3/2023 10:15:00 AM 8.25 46.85 0.767 7.65 138.6 10.68
1/3/2023 10:30:00 AM 8.28 46.904 0.756 7.64 17.79 10.77
1/3/2023 10:45:00 AM 8.28 46.904 0.763 7.61 364.9 10.8
1/3/2023 11:00:00 AM 8.27 46.886 0.758 7.6 10.17 10.86
1/3/2023 11:15:00 AM 8.26 46.868 0.753 7.61 515.1 10.92
1/3/2023 11:30:00 AM 8.28 46.904 0.751 7.6 173.8 10.94
1/3/2023 11:45:00 AM 8.31 46.958 0.754 7.59 4.28 10.96
1/3/2023 12:00:00 PM 8.4 47.12 0.753 7.59 633 11.01
1/3/2023 12:15:00 PM 8.45 47.21 0.754 7.6 199.2 11.09
1/3/2023 12:30:00 PM 8.51 47.318 0.753 7.6 3.15 11.1
1/3/2023 12:45:00 PM 8.57 47.426 0.752 7.61 403.7 11.14
1/3/2023 1:00:00 PM 8.62 47.516 0.75 7.61 268 11.19
1/3/2023 1:15:00 PM 8.66 47.588 0.75 7.61 2.51 11.21
1/3/2023 1:30:00 PM 8.72 47.696 0.749 7.61 662.6 11.27
1/3/2023 1:45:00 PM 8.75 47.75 0.749 7.62 3.22 11.27
1/3/2023 2:00:00 PM 8.8 47.84 0.748 7.61 432 11.31
1/3/2023 2:15:00 PM 8.81 47.858 0.746 7.22 3.66 11.29
1/3/2023 2:30:00 PM 8.87 47.966 0.743 7.32 317.5 11.27
1/3/2023 2:45:00 PM 8.91 48.038 0.74 7.17 288.3 11.25
1/3/2023 3:00:00 PM 8.95 48.11 0.737 7.27 5.18 11.22
1/3/2023 3:15:00 PM 8.99 48.182 0.734 7.17 471 11.21
1/3/2023 3:30:00 PM 9.04 48.272 0.733 7.2 6.3 11.17
1/3/2023 3:45:00 PM 9.05 48.29 0.732 7.2 6.66 11.16
1/3/2023 4:00:00 PM 9.07 48.326 0.732 7.22 143.4 11.11
1/3/2023 4:15:00 PM 9.09 48.362 0.731 7.2 21.55 11.09
1/3/2023 4:30:00 PM 9.1 48.38 0.731 7.24 5.96 11.02
1/3/2023 4:45:00 PM 9.11 48.398 0.731 7.25 378.3 10.96
1/3/2023 5:00:00 PM 9.12 48.416 0.731 7.32 10.3 10.93
1/3/2023 5:15:00 PM 9.13 48.434 0.731 7.3 577.4 10.87
1/3/2023 5:30:00 PM 9.11 48.398 0.731 7.33 202.5 10.84
1/3/2023 5:45:00 PM 9.13 48.434 0.73 7.36 6.41 10.82
1/3/2023 6:00:00 PM 9.11 48.398 0.729 7.37 501.7 10.77
1/3/2023 6:15:00 PM 9.13 48.434 0.727 7.38 43.82 10.73
1/3/2023 6:30:00 PM 9.13 48.434 0.718 7.39 5.46 10.69
1/3/2023 6:45:00 PM 9.14 48.452 0.725 7.41 836.2 10.65
1/3/2023 7:00:00 PM 9.14 48.452 0.724 7.42 75.88 10.62
1/3/2023 7:15:00 PM 9.15 48.47 0.718 7.42 4.62 10.59
1/3/2023 7:30:00 PM 9.12 48.416 0.7 7.44 559.2 10.56
1/3/2023 7:45:00 PM 9.13 48.434 0.716 7.45 305 10.53
1/3/2023 8:00:00 PM 9.11 48.398 0.719 7.43 6.1 10.47
1/3/2023 8:15:00 PM 9.11 48.398 0.704 7.43 73.14 10.44
1/3/2023 8:30:00 PM 9.1 48.38 0.715 7.42 6.1 10.45
1/3/2023 8:45:00 PM 9.08 48.344 0.717 7.42 635.2 10.45
1/3/2023 9:00:00 PM 9.07 48.326 0.717 7.42 11.65 10.43
1/3/2023 9:15:00 PM 9.06 48.308 0.688 7.43 8.41 10.4
1/3/2023 9:30:00 PM 9.05 48.29 0.716 7.46 8.15 10.37
1/3/2023 9:45:00 PM 9.02 48.236 0.717 7.46 6.51 10.36
1/3/2023 10:00:00 PM 9 48.2 0.716 7.45 59.29 10.38
1/3/2023 10:15:00 PM 8.99 48.182 0.716 7.42 543.2 10.39
1/3/2023 10:30:00 PM 8.98 48.164 0.718 7.42 18.25 10.36
1/3/2023 10:45:00 PM 8.96 48.128 0.688 7.42 6.6 10.33
1/3/2023 11:00:00 PM 8.93 48.074 0.721 7.4 8.48 10.35
1/3/2023 11:15:00 PM 8.93 48.074 0.722 7.41 4.87 10.34
1/3/2023 11:30:00 PM 8.91 48.038 0.723 7.43 5.99 10.36
1/3/2023 11:45:00 PM 8.9 48.02 0.724 7.43 6.26 10.36
1/4/2023 12:00:00 AM 8.88 47.984 0.724 7.44 9.01 10.34
1/4/2023 12:15:00 AM 8.86 47.948 0.724 7.44 5.4 10.33
1/4/2023 12:30:00 AM 8.84 47.912 0.724 7.44 7.55 10.35
1/4/2023 12:45:00 AM 8.82 47.876 0.714 7.44 4.52 10.33
1/4/2023 1:00:00 AM 8.8 47.84 0.722 7.44 10.42 10.36
1/4/2023 1:15:00 AM 8.79 47.822 0.718 7.42 21.15 10.29
1/4/2023 1:30:00 AM 8.78 47.804 0.72 7.41 6.75 10.37
1/4/2023 1:45:00 AM 8.76 47.768 0.714 7.42 16.82 10.33
1/4/2023 2:00:00 AM 8.76 47.768 0.719 7.44 6.85 10.38
1/4/2023 2:15:00 AM 8.74 47.732 0.727 7.45 455.7 10.34
1/4/2023 2:30:00 AM 8.73 47.714 0.727 7.46 7.68 10.36
1/4/2023 2:45:00 AM 8.73 47.714 0.735 7.35 10.19 10.39
1/4/2023 3:00:00 AM 8.73 47.714 0.73 7.37 6.86 10.37
1/4/2023 3:15:00 AM 8.73 47.714 0.729 7.39 10.41 10.37
1/4/2023 3:30:00 AM 8.72 47.696 0.722 7.4 7.28 10.39
1/4/2023 3:45:00 AM 8.71 47.678 0.724 7.4 13.93 10.39
1/4/2023 4:00:00 AM 8.7 47.66 0.718 7.41 293.1 10.41
1/4/2023 4:15:00 AM 8.69 47.642 0.719 7.37 12.14 10.37
1/4/2023 4:30:00 AM 8.69 47.642 0.717 7.37 7.03 10.35
1/4/2023 4:45:00 AM 8.68 47.624 0.722 7.36 8.27 10.43
1/4/2023 5:00:00 AM 8.67 47.606 0.712 7.38 10.39 10.41
1/4/2023 5:15:00 AM 8.66 47.588 0.705 7.39 6.63 10.43
1/4/2023 5:30:00 AM 8.66 47.588 0.679 7.41 6.1 10.44
1/4/2023 5:45:00 AM 8.65 47.57 0.679 7.42 6 10.41
1/4/2023 6:00:00 AM 8.63 47.534 0.68 7.43 23.52 10.43
1/4/2023 6:15:00 AM 8.61 47.498 0.696 7.46 79.62 10.43
1/4/2023 6:30:00 AM 8.6 47.48 0.753 7.48 55.88 10.43
1/4/2023 6:45:00 AM 8.58 47.444 0.774 7.51 49.27 10.41
1/4/2023 7:00:00 AM 8.56 47.408 0.775 7.47 5.22 10.44
1/4/2023 7:15:00 AM 8.55 47.39 0.775 7.51 12.53 10.46
1/4/2023 7:30:00 AM 8.53 47.354 0.776 7.56 5.39 10.41
1/4/2023 7:45:00 AM 8.51 47.318 0.775 7.6 5.93 10.42
1/4/2023 8:00:00 AM 8.5 47.3 0.775 7.61 5.19 10.45
1/4/2023 8:15:00 AM 8.5 47.3 0.773 7.65 5.2 10.49
1/4/2023 8:30:00 AM 8.5 47.3 0.772 7.69 5.27 10.54
1/4/2023 8:45:00 AM 8.51 47.318 0.771 7.71 5.48 10.56
1/4/2023 9:00:00 AM 8.53 47.354 0.769 7.71 4.44 10.62
1/4/2023 9:15:00 AM 8.55 47.39 0.767 7.65 8.28 10.67
1/4/2023 9:30:00 AM 8.56 47.408 0.766 7.65 4.74 10.71
1/4/2023 9:45:00 AM 8.59 47.462 0.763 7.65 4.36 10.75
1/4/2023 10:00:00 AM 8.63 47.534 0.761 7.64 5.86 10.81
1/4/2023 10:15:00 AM 8.68 47.624 0.76 7.62 5.1 10.89
1/4/2023 10:30:00 AM 8.75 47.75 0.758 7.61 5.11 10.93
1/4/2023 10:45:00 AM 8.82 47.876 0.757 7.59 5.2 11.01
1/4/2023 11:00:00 AM 8.94 48.092 0.755 7.59 7.62 11.14
1/4/2023 11:15:00 AM 9.01 48.218 0.755 7.57 4.75 11.18
1/4/2023 11:30:00 AM 9.09 48.362 0.754 7.57 5.17 11.21
1/4/2023 11:45:00 AM 9.14 48.452 0.754 7.57 7.31 11.23
1/4/2023 12:00:00 PM 9.19 48.542 0.754 7.56 9.68 11.29
1/4/2023 12:15:00 PM 9.27 48.686 0.754 7.5 7.05 11.34
1/4/2023 12:30:00 PM 9.35 48.83 0.756 7.51 21.47 11.4
1/4/2023 12:45:00 PM 9.4 48.92 0.757 7.52 5.39 11.44
1/4/2023 1:00:00 PM 9.48 49.064 0.757 7.54 4.07 11.46
1/4/2023 1:15:00 PM 9.55 49.19 0.758 7.55 3.31 11.5
1/4/2023 1:30:00 PM 9.6 49.28 0.759 7.52 4.9 11.5
1/4/2023 1:45:00 PM 9.65 49.37 0.761 7.52 4.26 11.47
1/4/2023 2:00:00 PM 9.68 49.424 0.762 7.53 3.6 11.43
1/4/2023 2:15:00 PM 9.75 49.55 0.763 7.2 3.35 11.42
1/4/2023 2:30:00 PM 9.8 49.64 0.765 7.5 2.95 11.43
1/4/2023 2:45:00 PM 9.84 49.712 0.766 7.48 4.33 11.44
1/4/2023 3:00:00 PM 9.91 49.838 0.766 7.43 3.06 11.42
1/4/2023 3:15:00 PM 9.94 49.892 0.769 7.48 2.64 11.33
1/4/2023 3:30:00 PM 9.98 49.964 0.77 7.5 4 11.24
1/4/2023 3:45:00 PM 10 50 0.772 7.54 3.86 11.21
1/4/2023 4:00:00 PM 10.04 50.072 0.773 7.56 2.77 11.12
1/4/2023 4:15:00 PM 10.05 50.09 0.775 7.55 2.28 11.09
1/4/2023 4:30:00 PM 10.06 50.108 0.776 7.52 3.97 11
1/4/2023 4:45:00 PM 10.09 50.162 0.778 7.57 4.9 10.98
1/4/2023 5:00:00 PM 10.08 50.144 0.78 7.58 4.45 10.9
1/4/2023 5:15:00 PM 10.12 50.216 0.781 7.56 4.42 10.82
1/4/2023 5:30:00 PM 10.15 50.27 0.783 7.56 3.94 10.73
1/4/2023 5:45:00 PM 10.15 50.27 0.784 7.57 4.29 10.68
1/4/2023 6:00:00 PM 10.16 50.288 0.785 7.59 2.85 10.62
1/4/2023 6:15:00 PM 10.18 50.324 0.787 7.57 3.63 10.6
1/4/2023 6:30:00 PM 10.19 50.342 0.786 7.58 7.16 10.51
1/4/2023 6:45:00 PM 10.2 50.36 0.371 7.56 2.97 10.52
1/4/2023 7:00:00 PM 10.19 50.342 0.778 7.58 2.38 10.38
1/4/2023 7:15:00 PM 10.22 50.396 0.779 7.59 3.19 10.36
1/4/2023 7:30:00 PM 10.22 50.396 0.791 7.6 3.36 10.36
1/4/2023 7:45:00 PM 10.21 50.378 0.788 7.63 11.96 10.25
1/4/2023 8:00:00 PM 10.23 50.414 0.639 7.64 4.04 10.21
1/4/2023 8:15:00 PM 10.23 50.414 0.792 7.56 3.36 10.18
1/4/2023 8:30:00 PM 10.22 50.396 0.792 7.6 2.92 10.15
1/4/2023 8:45:00 PM 10.25 50.45 0.792 7.62 4.48 10.14
1/4/2023 9:00:00 PM 10.25 50.45 0.79 7.63 2.54 10.11
1/4/2023 9:15:00 PM 10.24 50.432 0.791 7.63 3 10.08
1/4/2023 9:30:00 PM 10.24 50.432 0.79 7.62 7.15 10.03
1/4/2023 9:45:00 PM 10.22 50.396 0.79 7.55 3.13 9.99
1/4/2023 10:00:00 PM 10.24 50.432 0.788 7.55 3.65 10
1/4/2023 10:15:00 PM 10.24 50.432 0.787 7.53 6.58 9.97
1/4/2023 10:30:00 PM 10.23 50.414 0.786 7.53 3.49 9.97
1/4/2023 10:45:00 PM 10.22 50.396 0.785 7.61 5.45 9.91
1/4/2023 11:00:00 PM 10.2 50.36 0.784 7.62 5.44 9.93
1/4/2023 11:15:00 PM 10.18 50.324 0.783 7.62 3.81 9.94
1/4/2023 11:30:00 PM 10.18 50.324 0.781 7.63 3.63 9.89
1/4/2023 11:45:00 PM 10.18 50.324 0.78 7.64 3.64 9.88
1/5/2023 12:00:00 AM 10.17 50.306 0.779 7.63 5.92 9.87
1/5/2023 12:15:00 AM 10.16 50.288 0.778 7.62 3.86 9.83
1/5/2023 12:30:00 AM 10.12 50.216 0.777 7.62 4.08 9.83
1/5/2023 12:45:00 AM 10.12 50.216 0.776 7.63 5.61 9.83
1/5/2023 1:00:00 AM 10.11 50.198 0.764 7.61 4.97 9.86
1/5/2023 1:15:00 AM 10.11 50.198 0.764 7.61 4.08 9.85
1/5/2023 1:30:00 AM 10.08 50.144 0.763 7.61 5.11 9.82
1/5/2023 1:45:00 AM 10.05 50.09 0.748 7.62 4.21 7.9
1/5/2023 2:00:00 AM 10.04 50.072 0.756 7.64 4.56 9.83
1/5/2023 2:15:00 AM 10.01 50.018 0.773 7.69 2.4 9.81
1/5/2023 2:30:00 AM 9.99 49.982 0.773 7.76 5.26 9.84
1/5/2023 2:45:00 AM 9.97 49.946 0.772 7.82 5.63 9.85
1/5/2023 3:00:00 AM 9.94 49.892 0.773 7.87 4.54 9.84
1/5/2023 3:15:00 AM 9.93 49.874 0.772 7.91 12.75 9.83
1/5/2023 3:30:00 AM 9.93 49.874 0.773 7.93 2.79 9.82
1/5/2023 3:45:00 AM 9.91 49.838 0.773 7.94 4.95 9.85
1/5/2023 4:00:00 AM 9.89 49.802 0.772 7.95 4.25 9.87
1/5/2023 4:15:00 AM 9.87 49.766 0.754 7.97 4.27 9.84
1/5/2023 4:30:00 AM 9.84 49.712 0.773 8.01 6.44 9.83
1/5/2023 4:45:00 AM 9.81 49.658 0.773 8.07 5.82 9.87
1/5/2023 5:00:00 AM 9.79 49.622 0.773 8.11 6.36 9.89
1/5/2023 5:15:00 AM 9.77 49.586 0.773 8.14 4.13 9.89
1/5/2023 5:30:00 AM 9.73 49.514 0.772 8.19 5.33 9.86
1/5/2023 5:45:00 AM 9.7 49.46 0.772 8.25 3.22 9.87
1/5/2023 6:00:00 AM 9.67 49.406 0.772 8.29 10.85 9.9
1/5/2023 6:15:00 AM 9.64 49.352 0.772 8.34 3.71 9.92
1/5/2023 6:30:00 AM 9.61 49.298 0.771 8.36 4.2 9.91
1/5/2023 6:45:00 AM 9.58 49.244 0.771 8.38 5.31 9.93
1/5/2023 7:00:00 AM 9.55 49.19 0.77 8.4 5.08 9.95
1/5/2023 7:15:00 AM 9.51 49.118 0.77 8.43 5.52 9.92
1/5/2023 7:30:00 AM 9.48 49.064 0.733 8.47 3.24 9.97
1/5/2023 7:45:00 AM 9.44 48.992 0.72 8.49 11.42 9.98
1/5/2023 8:00:00 AM 9.41 48.938 0.741 8.5 2.89 10
1/5/2023 8:15:00 AM 9.38 48.884 0.753 8.5 3.94 10.06
1/5/2023 8:30:00 AM 9.35 48.83 0.731 8.49 3.88 10.12
1/5/2023 8:45:00 AM 9.33 48.794 0.765 8.47 3 10.15
1/5/2023 9:00:00 AM 9.31 48.758 0.743 8.44 2.86 10.18
1/5/2023 9:15:00 AM 9.28 48.704 0.694 8.41 3.77 10.19
1/5/2023 9:30:00 AM 9.27 48.686 0.762 8.37 4.26 10.27
1/5/2023 9:45:00 AM 9.27 48.686 0.658 8.34 8.57 10.37
1/5/2023 10:00:00 AM 9.29 48.722 0.64 8.27 3.28 10.46
1/5/2023 10:15:00 AM 9.32 48.776 0.633 8.2 2.75 10.52
1/5/2023 10:30:00 AM 9.39 48.902 0.632 8.04 3.21 10.62
1/5/2023 10:45:00 AM 9.46 49.028 0.751 7.93 2.53 10.71
1/5/2023 11:00:00 AM 9.54 49.172 0.758 7.78 3.42 10.78
1/5/2023 11:15:00 AM 9.6 49.28 0.758 7.7 3.45 10.84
1/5/2023 11:30:00 AM 9.68 49.424 0.756 7.66 2.69 10.92
1/5/2023 11:45:00 AM 9.72 49.496 0.756 7.64 3.71 11
1/5/2023 12:00:00 PM 9.76 49.568 0.756 7.63 4.67 11.06
1/5/2023 12:15:00 PM 9.84 49.712 0.717 7.63 4.43 11.1
1/5/2023 12:30:00 PM 9.92 49.856 0.741 7.61 4.78 11.13
1/5/2023 12:45:00 PM 10.03 50.054 0.741 7.61 9.72 11.21
1/5/2023 1:00:00 PM 10.1 50.18 0.742 7.71 3.23 11.26
1/5/2023 1:15:00 PM 10.15 50.27 0.746 7.72 4.98 11.35
1/5/2023 1:30:00 PM 10.19 50.342 0.64 7.74 4.69 11.35
1/5/2023 1:45:00 PM 10.24 50.432 0.688 7.76 3.94 11.39
1/5/2023 2:00:00 PM 10.28 50.504 0.758 7.77 3.03 11.39
1/5/2023 2:15:00 PM 10.3 50.54 0.759 7.78 4.77 11.37
1/5/2023 2:30:00 PM 10.39 50.702 0.76 7.77 68.75 11.36
1/5/2023 2:45:00 PM 10.44 50.792 0.76 7.79 4.97 11.35
1/5/2023 3:00:00 PM 10.46 50.828 0.762 7.78 4.33 11.38
1/5/2023 3:15:00 PM 10.52 50.936 0.762 7.78 2.39 11.32
1/5/2023 3:30:00 PM 10.53 50.954 0.764 7.78 4.26 11.28
1/5/2023 3:45:00 PM 10.58 51.044 0.765 7.78 3.19 11.28
1/5/2023 4:00:00 PM 10.6 51.08 0.766 7.78 3.53 11.2
1/5/2023 4:15:00 PM 10.59 51.062 0.768 7.79 3.95 11.16
1/5/2023 4:30:00 PM 10.65 51.17 0.749 7.8 4.07 11.09
1/5/2023 4:45:00 PM 10.65 51.17 0.751 7.8 2.84 11.03
1/5/2023 5:00:00 PM 10.64 51.152 0.749 7.81 3.93 10.93
1/5/2023 5:15:00 PM 10.64 51.152 0.771 7.86 4.96 10.86
1/5/2023 5:30:00 PM 10.64 51.152 0.772 7.9 3.69 10.8
1/5/2023 5:45:00 PM 10.64 51.152 0.773 7.96 3.2 10.69
1/5/2023 6:00:00 PM 10.63 51.134 0.774 7.99 4.2 10.63
1/5/2023 6:15:00 PM 10.62 51.116 0.775 8.01 3.75 10.56
1/5/2023 6:30:00 PM 10.63 51.134 0.776 8.02 24.25 10.49
1/5/2023 6:45:00 PM 10.64 51.152 0.777 8.03 5.33 10.43
1/5/2023 7:00:00 PM 10.62 51.116 0.777 7.95 3.45 10.36
1/5/2023 7:15:00 PM 10.62 51.116 0.778 7.98 3.98 10.31
1/5/2023 7:30:00 PM 10.6 51.08 0.779 8.05 3.79 10.26
1/5/2023 7:45:00 PM 10.58 51.044 0.779 8.1 2.52 10.21
1/5/2023 8:00:00 PM 10.57 51.026 0.78 8.15 3.08 10.15
1/5/2023 8:15:00 PM 10.56 51.008 0.78 8.24 2.98 10.09
1/5/2023 8:30:00 PM 10.56 51.008 0.78 8.16 5.36 10.1
1/5/2023 8:45:00 PM 10.54 50.972 0.781 8.14 3.16 10.02
1/5/2023 9:00:00 PM 10.53 50.954 0.781 8.13 3.3 9.99
1/5/2023 9:15:00 PM 10.5 50.9 0.782 8.15 5.74 9.94
1/5/2023 9:30:00 PM 10.49 50.882 0.78 8.12 4.14 9.97
1/5/2023 9:45:00 PM 10.47 50.846 0.78 8.1 2.88 9.91
1/5/2023 10:00:00 PM 10.45 50.81 0.78 8.08 6.64 9.88
1/5/2023 10:15:00 PM 10.44 50.792 0.78 8.08 8.68 9.86
1/5/2023 10:30:00 PM 10.41 50.738 0.78 8.09 3.13 9.86
1/5/2023 10:45:00 PM 10.38 50.684 0.78 8.13 8.02 9.85
1/5/2023 11:00:00 PM 10.35 50.63 0.779 8.07 5.42 9.86
1/5/2023 11:15:00 PM 10.32 50.576 0.778 8.09 4.15 9.83
1/5/2023 11:30:00 PM 10.3 50.54 0.778 8.17 4.23 9.84
1/5/2023 11:45:00 PM 10.27 50.486 0.779 8.11 4.74 9.84
1/6/2023 12:00:00 AM 10.22 50.396 0.777 8.22 3.44 9.8
1/6/2023 12:15:00 AM 10.18 50.324 0.779 8.2 287.9 9.81
1/6/2023 12:30:00 AM 10.15 50.27 0.779 8.25 16.33 9.79
1/6/2023 12:45:00 AM 10.12 50.216 0.779 8.26 2.97 9.79
1/6/2023 1:00:00 AM 10.06 50.108 0.779 8.33 5.29 9.81
1/6/2023 1:15:00 AM 10 50 0.779 8.45 19.21 9.81
1/6/2023 1:30:00 AM 9.96 49.928 0.779 8.52 37.44 9.81
1/6/2023 1:45:00 AM 9.92 49.856 0.778 8.56 6.14 9.81
1/6/2023 2:00:00 AM 9.87 49.766 0.778 8.6 40.72 9.84
1/6/2023 2:15:00 AM 9.84 49.712 0.779 8.61 9.97 9.81
1/6/2023 2:30:00 AM 9.81 49.658 0.779 8.61 4.27 9.83
1/6/2023 2:45:00 AM 9.77 49.586 0.779 8.61 26.81 9.86
1/6/2023 3:00:00 AM 9.73 49.514 0.779 8.59 7.07 9.88
1/6/2023 3:15:00 AM 9.69 49.442 0.78 8.61 3.19 9.9
1/6/2023 3:30:00 AM 9.64 49.352 0.78 8.64 14.12 9.88
1/6/2023 3:45:00 AM 9.61 49.298 0.78 8.64 6.64 9.92
1/6/2023 4:00:00 AM 9.59 49.262 0.781 8.63 8.34 9.91
1/6/2023 4:15:00 AM 9.56 49.208 0.781 8.63 3.47 9.93
1/6/2023 4:30:00 AM 9.53 49.154 0.781 8.62 8.9 9.92
1/6/2023 4:45:00 AM 9.5 49.1 0.781 8.61 3.3 9.94
1/6/2023 5:00:00 AM 9.47 49.046 0.781 8.6 48.84 9.95
1/6/2023 5:15:00 AM 9.44 48.992 0.781 8.6 4.83 9.96
1/6/2023 5:30:00 AM 9.41 48.938 0.782 8.61 12.06 10
1/6/2023 5:45:00 AM 9.39 48.902 0.783 8.6 3.5 9.99
1/6/2023 6:00:00 AM 9.36 48.848 0.784 8.6 8.57 9.99
1/6/2023 6:15:00 AM 9.34 48.812 0.785 8.6 3.47 10.01
1/6/2023 6:30:00 AM 9.32 48.776 0.786 8.61 3.04 10.03
1/6/2023 6:45:00 AM 9.31 48.758 0.787 8.6 11.02 10.02
1/6/2023 7:00:00 AM 9.29 48.722 0.788 8.59 5.93 10.03
1/6/2023 7:15:00 AM 9.27 48.686 0.789 8.58 20.78 10.04
1/6/2023 7:30:00 AM 9.25 48.65 0.79 8.57 5.66 10.05
1/6/2023 7:45:00 AM 9.23 48.614 0.791 8.56 4.28 10.07
1/6/2023 8:00:00 AM 9.23 48.614 0.793 8.55 10.8 10.08
1/6/2023 8:15:00 AM 9.22 48.596 0.794 8.52 4.75 10.1
1/6/2023 8:30:00 AM 9.21 48.578 0.795 8.49 3.16 10.17
1/6/2023 8:45:00 AM 9.21 48.578 0.796 8.47 18.5 10.24
1/6/2023 9:00:00 AM 9.2 48.56 0.796 8.45 4.34 10.27
1/6/2023 9:15:00 AM 9.2 48.56 0.797 8.43 3.05 10.34
1/6/2023 9:30:00 AM 9.21 48.578 0.797 8.4 9.53 10.39
1/6/2023 9:45:00 AM 9.22 48.596 0.796 8.38 3.25 10.43
1/6/2023 10:00:00 AM 9.24 48.632 0.796 8.34 5.86 10.52
1/6/2023 10:15:00 AM 9.26 48.668 0.796 8.28 3.52 10.65
1/6/2023 10:30:00 AM 9.31 48.758 0.796 8.23 3.31 10.78
1/6/2023 10:45:00 AM 9.39 48.902 0.795 8.16 7.86 10.85
1/6/2023 11:00:00 AM 9.43 48.974 0.796 8.1 4.34 10.95
1/6/2023 11:15:00 AM 9.46 49.028 0.795 8.07 2.74 11.02
1/6/2023 11:30:00 AM 9.51 49.118 0.795 8.03 24.21 11.01
1/6/2023 11:45:00 AM 9.58 49.244 0.794 7.99 4.16 11.11
1/6/2023 12:00:00 PM 9.56 49.208 0.794 7.97 3.24 11.23
1/6/2023 12:15:00 PM 9.51 49.118 0.793 7.97 4.5 11.25
1/6/2023 12:30:00 PM 9.51 49.118 0.793 7.97 2.96 11.24
1/6/2023 12:45:00 PM 9.56 49.208 0.792 7.96 3.79 11.38
1/6/2023 1:00:00 PM 9.63 49.334 0.792 7.95 17.69 11.44
1/6/2023 1:15:00 PM 9.61 49.298 0.792 7.94 2.7 11.48
1/6/2023 1:30:00 PM 9.56 49.208 0.791 7.96 3.08 11.47
1/6/2023 1:45:00 PM 9.58 49.244 0.789 7.97 4.38 11.47
1/6/2023 2:00:00 PM 9.6 49.28 0.789 7.97 6.77 11.5
1/6/2023 2:15:00 PM 9.6 49.28 0.788 7.99 3.84 11.56
1/6/2023 2:30:00 PM 9.6 49.28 0.787 8.02 8.49 11.51
1/6/2023 2:45:00 PM 9.59 49.262 0.787 8.06 2.77 11.5
1/6/2023 3:00:00 PM 9.59 49.262 0.787 8.09 2.52 11.41
1/6/2023 3:15:00 PM 9.58 49.244 0.788 8.13 2.36 11.36
1/6/2023 3:30:00 PM 9.57 49.226 0.787 8.16 3.88 11.35
1/6/2023 3:45:00 PM 9.56 49.208 0.787 8.2 5.9 11.37
1/6/2023 4:00:00 PM 9.54 49.172 0.787 8.24 4.37 11.31
1/6/2023 4:15:00 PM 9.52 49.136 0.786 8.31 5.56 11.25
1/6/2023 4:30:00 PM 9.5 49.1 0.786 8.36 3.49 11.2
1/6/2023 4:45:00 PM 9.48 49.064 0.786 8.41 5.12 11.13
1/6/2023 5:00:00 PM 9.46 49.028 0.787 8.44 2.64 11.08
1/6/2023 5:15:00 PM 9.44 48.992 0.787 8.48 2.67 11.05
1/6/2023 5:30:00 PM 9.42 48.956 0.787 8.49 21.1 10.97
1/6/2023 5:45:00 PM 9.39 48.902 0.787 8.52 6.47 10.93
1/6/2023 6:00:00 PM 9.37 48.866 0.788 8.55 7.53 10.87
1/6/2023 6:15:00 PM 9.32 48.776 0.789 8.6 2.77 10.85
1/6/2023 6:30:00 PM 9.27 48.686 0.79 8.64 2.47 10.8
1/6/2023 6:45:00 PM 9.22 48.596 0.79 8.68 4.73 10.78
1/6/2023 7:00:00 PM 9.17 48.506 0.792 8.71 4.15 10.75
1/6/2023 7:15:00 PM 9.12 48.416 0.793 8.73 6.03 10.72
1/6/2023 7:30:00 PM 9.09 48.362 0.794 8.75 3.09 10.7
1/6/2023 7:45:00 PM 9.06 48.308 0.796 8.74 4.73 10.63
1/6/2023 8:00:00 PM 9.03 48.254 0.797 8.73 2.58 10.59
1/6/2023 8:15:00 PM 8.99 48.182 0.799 8.73 4.3 10.57
1/6/2023 8:30:00 PM 8.95 48.11 0.8 8.73 4.09 10.59
1/6/2023 8:45:00 PM 8.91 48.038 0.801 8.72 3.3 10.58
1/6/2023 9:00:00 PM 8.87 47.966 0.803 8.7 14.68 10.54
1/6/2023 9:15:00 PM 8.84 47.912 0.804 8.69 10.56 10.54
1/6/2023 9:30:00 PM 8.79 47.822 0.806 8.69 2.04 10.54
1/6/2023 9:45:00 PM 8.77 47.786 0.806 8.69 3.03 10.54
1/6/2023 10:00:00 PM 8.72 47.696 0.809 8.69 3.39 10.5
1/6/2023 10:15:00 PM 8.68 47.624 0.811 8.68 3.19 10.5
1/6/2023 10:30:00 PM 8.64 47.552 0.812 8.68 1.54 10.5
1/6/2023 10:45:00 PM 8.6 47.48 0.813 8.68 4.69 10.53
1/6/2023 11:00:00 PM 8.56 47.408 0.814 8.68 1.99 10.52
1/6/2023 11:15:00 PM 8.53 47.354 0.816 8.67 2.55 10.5
1/6/2023 11:30:00 PM 8.51 47.318 0.818 8.67 110.8 10.5
1/6/2023 11:45:00 PM 8.45 47.21 0.819 8.67 9.85 10.49
1/7/2023 12:00:00 AM 8.41 47.138 0.82 8.67 37.47 10.51
1/7/2023 12:15:00 AM 8.36 47.048 0.821 8.67 25.5 10.53
1/7/2023 12:30:00 AM 8.34 47.012 0.823 8.67 2.43 10.52
1/7/2023 12:45:00 AM 8.3 46.94 0.824 8.66 6.26 10.51
1/7/2023 1:00:00 AM 8.28 46.904 0.824 8.66 3.49 10.51
1/7/2023 1:15:00 AM 8.24 46.832 0.826 8.65 1.99 10.51
1/7/2023 1:30:00 AM 8.2 46.76 0.827 8.65 2.93 10.54
1/7/2023 1:45:00 AM 8.17 46.706 0.827 8.65 2.55 10.54
1/7/2023 2:00:00 AM 8.15 46.67 0.828 8.64 2.82 10.56
1/7/2023 2:15:00 AM 8.13 46.634 0.829 8.64 6.04 10.58
1/7/2023 2:30:00 AM 8.09 46.562 0.83 8.64 11.92 10.57
1/7/2023 2:45:00 AM 8.08 46.544 0.83 8.64 2.7 10.57
1/7/2023 3:00:00 AM 8.05 46.49 0.831 8.64 2.95 10.6
1/7/2023 3:15:00 AM 8.03 46.454 0.832 8.63 98.62 10.58
1/7/2023 3:30:00 AM 8.01 46.418 0.832 8.63 4.83 10.61
1/7/2023 3:45:00 AM 7.99 46.382 0.83 8.63 2.15 10.59
1/7/2023 4:00:00 AM 7.98 46.364 0.833 8.64 4.42 10.61
1/7/2023 4:15:00 AM 7.95 46.31 0.833 8.64 11.87 10.62
1/7/2023 4:30:00 AM 7.94 46.292 0.834 8.64 2.99 10.61
1/7/2023 4:45:00 AM 7.92 46.256 0.834 8.65 4.29 10.64
1/7/2023 5:00:00 AM 7.89 46.202 0.835 8.66 4.75 10.63
1/7/2023 5:15:00 AM 7.87 46.166 0.834 8.7 2.53 10.64
1/7/2023 5:30:00 AM 7.83 46.094 0.835 8.75 3.82 10.65
1/7/2023 5:45:00 AM 7.79 46.022 0.835 8.77 4.58 10.66
1/7/2023 6:00:00 AM 7.77 45.986 0.836 8.79 2.77 10.66
1/7/2023 6:15:00 AM 7.73 45.914 0.837 8.8 7.28 10.69
1/7/2023 6:30:00 AM 7.72 45.896 0.837 8.8 3.8 10.68
1/7/2023 6:45:00 AM 7.71 45.878 0.837 8.8 2.32 10.69
1/7/2023 7:00:00 AM 7.67 45.806 0.838 8.8 3.79 10.71
1/7/2023 7:15:00 AM 7.65 45.77 0.837 8.79 2.63 10.74
1/7/2023 7:30:00 AM 7.64 45.752 0.838 8.78 3.04 10.73
1/7/2023 7:45:00 AM 7.62 45.716 0.839 8.78 2.59 10.76
1/7/2023 8:00:00 AM 7.6 45.68 0.839 8.77 3.42 10.76
1/7/2023 8:15:00 AM 7.58 45.644 0.839 8.76 3.75 10.81
1/7/2023 8:30:00 AM 7.59 45.662 0.839 8.73 2.61 10.88
1/7/2023 8:45:00 AM 7.58 45.644 0.84 8.7 2.07 10.93
1/7/2023 9:00:00 AM 7.61 45.698 0.84 8.66 5.7 11.01
1/7/2023 9:15:00 AM 7.6 45.68 0.84 8.63 3.66 11.07
1/7/2023 9:30:00 AM 7.62 45.716 0.841 8.6 1.68 11.11
1/7/2023 9:45:00 AM 7.63 45.734 0.841 8.57 16.42 11.23
1/7/2023 10:00:00 AM 7.65 45.77 0.841 8.53 2.32 11.27
1/7/2023 10:15:00 AM 7.68 45.824 0.841 8.48 12.98 11.39
1/7/2023 10:30:00 AM 7.72 45.896 0.841 8.43 2.74 11.46
1/7/2023 10:45:00 AM 7.77 45.986 0.842 8.38 2.55 11.58
1/7/2023 11:00:00 AM 7.81 46.058 0.84 8.32 3.07 11.71
1/7/2023 11:15:00 AM 7.85 46.13 0.841 8.28 3 11.77
1/7/2023 11:30:00 AM 7.89 46.202 0.841 8.24 4.41 11.89
1/7/2023 11:45:00 AM 7.96 46.328 0.841 8.19 3.1 11.94
1/7/2023 12:00:00 PM 8.02 46.436 0.84 8.14 2.83 12.05
1/7/2023 12:15:00 PM 8.05 46.49 0.841 8.1 2.77 12.1
1/7/2023 12:30:00 PM 8.11 46.598 0.84 8.08 2.31 12.2
1/7/2023 12:45:00 PM 8.16 46.688 0.84 8.05 3.19 12.25
1/7/2023 1:00:00 PM 8.2 46.76 0.839 8.03 1.98 12.31
1/7/2023 1:15:00 PM 8.25 46.85 0.839 8.02 3.56 12.34
1/7/2023 1:30:00 PM 8.28 46.904 0.839 8.02 3.49 12.41
1/7/2023 1:45:00 PM 8.33 46.994 0.838 8.02 22.64 12.49
1/7/2023 2:00:00 PM 8.34 47.012 0.831 8.01 11.06 12.46
1/7/2023 2:15:00 PM 8.36 47.048 0.831 8.01 10.59 12.45
1/7/2023 2:30:00 PM 8.36 47.048 0.836 8.05 5.94 12.45
1/7/2023 2:45:00 PM 8.37 47.066 0.836 8.07 7.53 12.43
1/7/2023 3:00:00 PM 8.39 47.102 0.835 8.08 6.34 12.45
1/7/2023 3:15:00 PM 8.4 47.12 0.835 8.09 6.51 12.45
1/7/2023 3:30:00 PM 8.4 47.12 0.834 8.11 4.79 12.41
1/7/2023 3:45:00 PM 8.4 47.12 0.834 8.14 11.76 12.33
1/7/2023 4:00:00 PM 8.4 47.12 0.833 8.15 10.08 12.29
1/7/2023 4:15:00 PM 8.39 47.102 0.832 8.23 7.6 12.27
1/7/2023 4:30:00 PM 8.38 47.084 0.832 8.27 11.41 12.22
1/7/2023 4:45:00 PM 8.36 47.048 0.831 8.33 9.86 12.14
1/7/2023 5:00:00 PM 8.34 47.012 0.831 8.38 7.82 12.04
1/7/2023 5:15:00 PM 8.33 46.994 0.83 8.41 8.2 11.97
1/7/2023 5:30:00 PM 8.31 46.958 0.83 8.42 9.42 11.89
1/7/2023 5:45:00 PM 8.29 46.922 0.829 8.44 8.84 11.82
1/7/2023 6:00:00 PM 8.26 46.868 0.829 8.46 5.14 11.75
1/7/2023 6:15:00 PM 8.25 46.85 0.828 8.47 5.36 11.69
1/7/2023 6:30:00 PM 8.22 46.796 0.829 8.49 7.53 11.64
1/7/2023 6:45:00 PM 8.18 46.724 0.828 8.51 5.2 11.6
1/7/2023 7:00:00 PM 8.16 46.688 0.828 8.53 5.62 11.51
1/7/2023 7:15:00 PM 8.14 46.652 0.828 8.55 5.52 11.45
1/7/2023 7:30:00 PM 8.12 46.616 0.829 8.56 6.8 11.36
1/7/2023 7:45:00 PM 8.08 46.544 0.828 8.58 5.89 11.35
1/7/2023 8:00:00 PM 8.03 46.454 0.829 8.62 5.57 11.28
1/7/2023 8:15:00 PM 8.01 46.418 0.829 8.65 7.84 11.25
1/7/2023 8:30:00 PM 7.94 46.292 0.829 8.68 5.31 11.22
1/7/2023 8:45:00 PM 7.91 46.238 0.829 8.7 5.6 11.19
1/7/2023 9:00:00 PM 7.87 46.166 0.829 8.74 4.71 11.15
1/7/2023 9:15:00 PM 7.79 46.022 0.831 8.79 7.68 11.13
1/7/2023 9:30:00 PM 7.73 45.914 0.831 8.83 4.53 11.1
1/7/2023 9:45:00 PM 7.7 45.86 0.832 8.86 6.36 11.08
1/7/2023 10:00:00 PM 7.63 45.734 0.832 8.87 6.34 11.09
1/7/2023 10:15:00 PM 7.56 45.608 0.834 8.87 5.16 11.05
1/7/2023 10:30:00 PM 7.49 45.482 0.835 8.89 5.83 11.04
1/7/2023 10:45:00 PM 7.45 45.41 0.835 8.91 5.09 11.04
1/7/2023 11:00:00 PM 7.36 45.248 0.836 8.92 5.52 11.05
1/7/2023 11:15:00 PM 7.34 45.212 0.837 8.94 9.18 11.01
1/7/2023 11:30:00 PM 7.24 45.032 0.838 8.95 4.7 11.05
1/7/2023 11:45:00 PM 7.18 44.924 0.839 8.96 4.82 11.02
1/8/2023 12:00:00 AM 7.1 44.78 0.84 8.96 5.32 11.06
1/8/2023 12:15:00 AM 7.03 44.654 0.84 8.96 5.37 11.06
1/8/2023 12:30:00 AM 6.99 44.582 0.841 8.96 4.23 11.05
1/8/2023 12:45:00 AM 6.95 44.51 0.841 8.96 8.42 11.08
1/8/2023 1:00:00 AM 6.92 44.456 0.842 8.94 4.36 11.08
1/8/2023 1:15:00 AM 6.84 44.312 0.843 8.94 4.47 11.08
1/8/2023 1:30:00 AM 6.79 44.222 0.844 8.94 3.94 11.09
1/8/2023 1:45:00 AM 6.68 44.024 0.846 8.95 5.23 11.11
1/8/2023 2:00:00 AM 6.66 43.988 0.846 8.96 5.03 11.11
1/8/2023 2:15:00 AM 6.63 43.934 0.847 8.96 5.32 11.14
1/8/2023 2:30:00 AM 6.55 43.79 0.848 8.96 7.04 11.16
1/8/2023 2:45:00 AM 6.53 43.754 0.849 8.96 5.14 11.17
1/8/2023 3:00:00 AM 6.5 43.7 0.849 8.94 5.67 11.17
1/8/2023 3:15:00 AM 6.46 43.628 0.85 8.94 4.75 11.19
1/8/2023 3:30:00 AM 6.42 43.556 0.851 8.93 4.93 11.2
1/8/2023 3:45:00 AM 6.35 43.43 0.852 8.93 6.4 11.24
1/8/2023 4:00:00 AM 6.29 43.322 0.853 8.94 4.41 11.26
1/8/2023 4:15:00 AM 6.29 43.322 0.853 8.95 5.69 11.24
1/8/2023 4:30:00 AM 6.21 43.178 0.855 8.96 5.25 11.26
1/8/2023 4:45:00 AM 6.15 43.07 0.855 8.97 5.79 11.29
1/8/2023 5:00:00 AM 6.15 43.07 0.856 8.97 4.69 11.26
1/8/2023 5:15:00 AM 6.05 42.89 0.857 8.97 5.06 11.32
1/8/2023 5:30:00 AM 6.04 42.872 0.857 8.98 4.82 11.35
1/8/2023 5:45:00 AM 5.99 42.782 0.859 8.98 5.11 11.36
1/8/2023 6:00:00 AM 5.94 42.692 0.853 8.99 5.79 11.37
1/8/2023 6:15:00 AM 5.93 42.674 0.854 8.99 4.77 11.37
1/8/2023 6:30:00 AM 5.89 42.602 0.857 8.99 5.32 11.41
1/8/2023 6:45:00 AM 5.85 42.53 0.857 8.99 7.36 11.41
1/8/2023 7:00:00 AM 5.81 42.458 0.861 9 5.19 11.42
1/8/2023 7:15:00 AM 5.75 42.35 0.861 9 11.77 11.44
1/8/2023 7:30:00 AM 5.66 42.188 0.864 9 4.58 11.49
1/8/2023 7:45:00 AM 5.67 42.206 0.864 9 6.73 11.49
1/8/2023 8:00:00 AM 5.64 42.152 0.863 9.01 4.66 11.51
1/8/2023 8:15:00 AM 5.59 42.062 0.865 9.01 5.13 11.54
1/8/2023 8:30:00 AM 5.56 42.008 0.862 9.01 4.37 11.61
1/8/2023 8:45:00 AM 5.55 41.99 0.865 9.01 5.24 11.65
1/8/2023 9:00:00 AM 5.53 41.954 0.866 9.01 9.01 11.69
1/8/2023 9:15:00 AM 5.51 41.918 0.866 9.01 5.63 11.75
1/8/2023 9:30:00 AM 5.49 41.882 0.866 9 5.49 11.83
1/8/2023 9:45:00 AM 5.52 41.936 0.866 8.99 5.92 11.86
1/8/2023 10:00:00 AM 5.57 42.026 0.866 8.98 5.95 11.96
1/8/2023 10:15:00 AM 5.62 42.116 0.865 8.96 5.05 12.06
1/8/2023 10:30:00 AM 5.72 42.296 0.865 8.9 8.74 12.19
1/8/2023 10:45:00 AM 5.81 42.458 0.853 8.76 5.85 12.25
1/8/2023 11:00:00 AM 5.89 42.602 0.853 8.63 5.41 12.35
1/8/2023 11:15:00 AM 5.96 42.728 0.853 8.52 5.04 12.43
1/8/2023 11:30:00 AM 6 42.8 0.853 8.45 5.54 12.52
1/8/2023 11:45:00 AM 6.05 42.89 0.853 8.35 2.85 12.58
1/8/2023 12:00:00 PM 6.1 42.98 0.853 8.26 6.28 12.66
1/8/2023 12:15:00 PM 6.15 43.07 0.863 8.18 2.5 12.72
1/8/2023 12:30:00 PM 6.19 43.142 0.862 8.12 392.1 12.84
1/8/2023 12:45:00 PM 6.23 43.214 0.861 8.08 4.34 12.87
1/8/2023 1:00:00 PM 6.26 43.268 0.862 8.04 3.61 12.91
1/8/2023 1:15:00 PM 6.31 43.358 0.851 8.01 7.38 12.97
1/8/2023 1:30:00 PM 6.36 43.448 0.824 7.98 3.46 13.05
1/8/2023 1:45:00 PM 6.4 43.52 0.815 7.95 31.16 13.05
1/8/2023 2:00:00 PM 6.44 43.592 0.82 7.93 11.51 13.07
1/8/2023 2:15:00 PM 6.48 43.664 0.809 7.92 6.02 13.11
1/8/2023 2:30:00 PM 6.52 43.736 0.827 7.93 30.16 13.09
1/8/2023 2:45:00 PM 6.56 43.808 0.857 7.92 8.64 13.05
1/8/2023 3:00:00 PM 6.6 43.88 0.856 7.93 4.29 13.08
1/8/2023 3:15:00 PM 6.63 43.934 0.856 7.94 13.96 13.06
1/8/2023 3:30:00 PM 6.64 43.952 0.855 7.96 4.19 13
1/8/2023 3:45:00 PM 6.64 43.952 0.855 8.01 4.99 12.98
1/8/2023 4:00:00 PM 6.65 43.97 0.854 8.03 2.55 12.89
1/8/2023 4:15:00 PM 6.66 43.988 0.853 8.11 12.05 12.85
1/8/2023 4:30:00 PM 6.67 44.006 0.853 8.15 3.6 12.81
1/8/2023 4:45:00 PM 6.68 44.024 0.852 8.19 24.56 12.71
1/8/2023 5:00:00 PM 6.69 44.042 0.851 8.23 4.69 12.65
1/8/2023 5:15:00 PM 6.69 44.042 0.851 8.27 7.65 12.55
1/8/2023 5:30:00 PM 6.68 44.024 0.85 8.32 3473 12.48
1/8/2023 5:45:00 PM 6.68 44.024 0.847 8.36 7.63 12.4
1/8/2023 6:00:00 PM 6.68 44.024 0.849 8.4 11.95 12.31
1/8/2023 6:15:00 PM 6.67 44.006 0.848 8.43 89.42 12.29
1/8/2023 6:30:00 PM 6.67 44.006 0.848 8.46 28.93 12.21
1/8/2023 6:45:00 PM 6.67 44.006 0.848 8.48 3.06 12.14
1/8/2023 7:00:00 PM 6.67 44.006 0.848 8.49 3.03 12.08
1/8/2023 7:15:00 PM 6.66 43.988 0.847 8.51 9.12 12.02
1/8/2023 7:30:00 PM 6.66 43.988 0.847 8.52 3.13 11.95
1/8/2023 7:45:00 PM 6.65 43.97 0.846 8.52 14.97 11.9
1/8/2023 8:00:00 PM 6.65 43.97 0.847 8.53 3.49 11.83
1/8/2023 8:15:00 PM 6.66 43.988 0.829 8.55 2.82 11.78
1/8/2023 8:30:00 PM 6.64 43.952 0.84 8.56 19.96 11.74
1/8/2023 8:45:00 PM 6.64 43.952 0.846 8.56 6.63 11.72
1/8/2023 9:00:00 PM 6.63 43.934 0.846 8.57 4.58 11.66
1/8/2023 9:15:00 PM 6.63 43.934 0.824 8.56 4.12 11.62
1/8/2023 9:30:00 PM 6.63 43.934 0.847 8.57 3.25 11.6
1/8/2023 9:45:00 PM 6.61 43.898 0.774 8.57 13.89 11.55
1/8/2023 10:00:00 PM 6.6 43.88 0.797 8.57 3.5 11.53
1/8/2023 10:15:00 PM 6.6 43.88 0.793 8.56 4.39 11.52
1/8/2023 10:30:00 PM 6.58 43.844 0.81 8.55 3.38 11.49
1/8/2023 10:45:00 PM 6.56 43.808 0.85 8.54 166 11.47
1/8/2023 11:00:00 PM 6.55 43.79 0.85 8.54 6.37 11.44
1/8/2023 11:15:00 PM 6.54 43.772 0.851 8.53 16.28 11.43
1/8/2023 11:30:00 PM 6.51 43.718 0.852 8.53 15.9 11.44
1/8/2023 11:45:00 PM 6.5 43.7 0.852 8.52 15.5 11.41
1/9/2023 12:00:00 AM 6.47 43.646 0.854 8.51 11.7 11.4
1/9/2023 12:15:00 AM 6.45 43.61 0.855 8.5 11.27 11.4
1/9/2023 12:30:00 AM 6.44 43.592 0.856 8.5 10.91 11.38
1/9/2023 12:45:00 AM 6.42 43.556 0.814 8.49 12.03 11.37
1/9/2023 1:00:00 AM 6.41 43.538 0.858 8.48 12.81 11.35
1/9/2023 1:15:00 AM 6.39 43.502 0.859 8.47 11.69 11.37
1/9/2023 1:30:00 AM 6.36 43.448 0.86 8.43 11.43 11.38
1/9/2023 1:45:00 AM 6.36 43.448 0.861 8.42 12.25 11.34
1/9/2023 2:00:00 AM 6.33 43.394 0.862 8.42 11.45 11.36
1/9/2023 2:15:00 AM 6.3 43.34 0.862 8.43 12.51 11.37
1/9/2023 2:30:00 AM 6.3 43.34 0.864 8.44 14.51 11.34
1/9/2023 2:45:00 AM 6.3 43.34 0.816 8.44 13.44 11.37
1/9/2023 3:00:00 AM 6.27 43.286 0.796 8.46 9.24 11.34
1/9/2023 3:15:00 AM 6.24 43.232 0.869 8.46 8.19 11.37
1/9/2023 3:30:00 AM 6.23 43.214 0.868 8.46 39.26 11.36
1/9/2023 3:45:00 AM 6.2 43.16 0.871 8.48 6.33 11.36
1/9/2023 4:00:00 AM 6.21 43.178 0.864 8.48 32.04 11.37
1/9/2023 4:15:00 AM 6.17 43.106 0.873 8.49 9.5 11.38
1/9/2023 4:30:00 AM 6.18 43.124 0.873 8.51 58.3 11.35
1/9/2023 4:45:00 AM 6.18 43.124 0.874 8.54 3.74 11.34
1/9/2023 5:00:00 AM 6.11 42.998 0.876 8.57 1.9 11.36
1/9/2023 5:15:00 AM 6.11 42.998 0.877 8.59 1.87 11.37
1/9/2023 5:30:00 AM 6.08 42.944 0.879 8.61 3.95 11.37
1/9/2023 5:45:00 AM 6.05 42.89 0.88 8.63 2.73 11.38
1/9/2023 6:00:00 AM 6.05 42.89 0.881 8.64 1.92 11.37
1/9/2023 6:15:00 AM 6.03 42.854 0.882 8.63 2.2 11.39
1/9/2023 6:30:00 AM 6.03 42.854 0.883 8.65 2.44 11.37
1/9/2023 6:45:00 AM 5.98 42.764 0.884 8.68 5.91 11.4
1/9/2023 7:00:00 AM 5.96 42.728 0.885 8.74 16.62 11.39
1/9/2023 7:15:00 AM 5.93 42.674 0.886 8.76 27.77 11.39
1/9/2023 7:30:00 AM 5.92 42.656 0.886 8.75 4.58 11.43
1/9/2023 7:45:00 AM 5.91 42.638 0.887 8.75 12.51 11.44
1/9/2023 8:00:00 AM 5.9 42.62 0.888 8.77 2.34 11.43
1/9/2023 8:15:00 AM 5.88 42.584 0.889 8.79 2.73 11.48
1/9/2023 8:30:00 AM 5.81 42.458 0.89 8.8 2.22 11.56
1/9/2023 8:45:00 AM 5.83 42.494 0.889 8.8 3.46 11.59
1/9/2023 9:00:00 AM 5.81 42.458 0.89 8.79 7.74 11.61
1/9/2023 9:15:00 AM 5.78 42.404 0.891 8.78 1.99 11.72
1/9/2023 9:30:00 AM 5.8 42.44 0.891 8.76 1.57 11.72
1/9/2023 9:45:00 AM 5.8 42.44 0.891 8.76 1.71 11.83
1/9/2023 10:00:00 AM 5.8 42.44 0.892 8.75 2.81 11.94
1/9/2023 10:15:00 AM 5.86 42.548 0.892 8.74 2.91 12.06
1/9/2023 10:30:00 AM 5.96 42.728 0.891 8.68 2.32 12.14
1/9/2023 10:45:00 AM 6.01 42.818 0.892 8.57 1.58 12.24
1/9/2023 11:00:00 AM 6.04 42.872 0.892 8.53 3.96 12.3
1/9/2023 11:15:00 AM 6.08 42.944 0.892 8.45 3.2 12.37
1/9/2023 11:30:00 AM 6.08 42.944 0.892 8.46 2.58 12.45
1/9/2023 11:45:00 AM 6.1 42.98 0.893 8.44 9.92 12.47
1/9/2023 12:00:00 PM 6.18 43.124 0.892 8.42 7.14 12.6
1/9/2023 12:15:00 PM 6.28 43.304 0.892 8.35 258 12.67
1/9/2023 12:30:00 PM 6.38 43.484 0.891 8.3 12.28 12.75
1/9/2023 12:45:00 PM 6.43 43.574 0.891 8.24 12.62 12.82
1/9/2023 1:00:00 PM 6.5 43.7 0.891 8.21 5.52 12.92
1/9/2023 1:15:00 PM 6.54 43.772 0.891 8.25 4.72 12.94
1/9/2023 1:30:00 PM 6.54 43.772 0.891 8.22 4.05 12.92
1/9/2023 1:45:00 PM 6.57 43.826 0.889 8.19 3.72 12.98
1/9/2023 2:00:00 PM 6.58 43.844 0.89 8.18 4.03 12.99
1/9/2023 2:15:00 PM 6.59 43.862 0.89 8.19 3.61 12.99
1/9/2023 2:30:00 PM 6.6 43.88 0.891 8.18 2.9 12.94
1/9/2023 2:45:00 PM 6.6 43.88 0.89 8.23 4.81 13
1/9/2023 3:00:00 PM 6.61 43.898 0.89 8.26 2.61 12.94
1/9/2023 3:15:00 PM 6.6 43.88 0.888 8.27 2.11 12.93
1/9/2023 3:30:00 PM 6.6 43.88 0.888 8.26 1.55 12.85
1/9/2023 3:45:00 PM 6.59 43.862 0.888 8.29 2.45 12.82
1/9/2023 4:00:00 PM 6.59 43.862 0.888 8.29 2.26 12.79
1/9/2023 4:15:00 PM 6.57 43.826 0.887 8.32 3.19 12.72
1/9/2023 4:30:00 PM 6.56 43.808 0.886 8.35 3.85 12.68
1/9/2023 4:45:00 PM 6.53 43.754 0.887 8.4 2.47 12.64
1/9/2023 5:00:00 PM 6.51 43.718 0.885 8.48 2.52 12.57
1/9/2023 5:15:00 PM 6.5 43.7 0.885 8.57 2.6 12.5
1/9/2023 5:30:00 PM 6.46 43.628 0.884 8.66 2.31 12.46
1/9/2023 5:45:00 PM 6.44 43.592 0.884 8.72 3.97 12.36
1/9/2023 6:00:00 PM 6.37 43.466 0.883 8.78 3.71 12.34
1/9/2023 6:15:00 PM 6.33 43.394 0.884 8.85 3.61 12.29
1/9/2023 6:30:00 PM 6.28 43.304 0.882 8.91 2.32 12.26
1/9/2023 6:45:00 PM 6.23 43.214 0.883 8.96 2.16 12.21
1/9/2023 7:00:00 PM 6.16 43.088 0.882 8.99 1.9 12.15
1/9/2023 7:15:00 PM 6.1 42.98 0.881 9.02 2.52 12.11
1/9/2023 7:30:00 PM 6.05 42.89 0.881 9.04 1.91 12.04
1/9/2023 7:45:00 PM 6.04 42.872 0.881 9.06 2.1 11.99
1/9/2023 8:00:00 PM 5.96 42.728 0.881 9.08 7.29 11.97
1/9/2023 8:15:00 PM 5.91 42.638 0.88 9.09 2.03 11.94
1/9/2023 8:30:00 PM 5.87 42.566 0.863 9.09 4.67 11.9
1/9/2023 8:45:00 PM 5.81 42.458 0.878 9.1 10.62 11.88
1/9/2023 9:00:00 PM 5.8 42.44 0.879 9.1 2.37 11.84
1/9/2023 9:15:00 PM 5.75 42.35 0.878 9.1 4.27 11.83
1/9/2023 9:30:00 PM 5.7 42.26 0.877 9.1 1.98 11.8
1/9/2023 9:45:00 PM 5.72 42.296 0.877 9.09 2.54 11.76
1/9/2023 10:00:00 PM 5.64 42.152 0.876 9.09 2.08 11.77
1/9/2023 10:15:00 PM 5.6 42.08 0.877 9.08 1.47 11.74
1/9/2023 10:30:00 PM 5.61 42.098 0.876 9.08 2.46 11.73
1/9/2023 10:45:00 PM 5.53 41.954 0.877 9.09 1.89 11.71
1/9/2023 11:00:00 PM 5.46 41.828 0.878 9.09 1.6 11.73
1/9/2023 11:15:00 PM 5.43 41.774 0.878 9.09 1.87 11.64
1/9/2023 11:30:00 PM 5.38 41.684 0.878 9.09 3.36 11.7
1/9/2023 11:45:00 PM 5.32 41.576 0.868 9.1 1.89 11.72
1/10/2023 12:00:00 AM 5.28 41.504 0.864 9.1 1.52 11.75
1/10/2023 12:15:00 AM 5.23 41.414 0.878 9.09 2.01 11.74
1/10/2023 12:30:00 AM 5.2 41.36 0.879 9.08 5.23 11.74
1/10/2023 12:45:00 AM 5.15 41.27 0.879 9.09 2.01 11.74
1/10/2023 1:00:00 AM 5.11 41.198 0.879 9.09 1.79 11.75
1/10/2023 1:15:00 AM 5.12 41.216 0.878 9.09 2.14 11.75
1/10/2023 1:30:00 AM 5.02 41.036 0.88 9.09 1.58 11.75
1/10/2023 1:45:00 AM 4.97 40.946 0.853 9.1 1.58 11.77
1/10/2023 2:00:00 AM 4.94 40.892 0.869 9.1 1.76 11.76
1/10/2023 2:15:00 AM 4.89 40.802 0.869 9.1 2.04 11.78
1/10/2023 2:30:00 AM 4.87 40.766 0.866 9.1 11.31 11.78
1/10/2023 2:45:00 AM 4.81 40.658 0.882 9.1 3.96 11.86
1/10/2023 3:00:00 AM 4.72 40.496 0.883 9.1 1.21 11.86
1/10/2023 3:15:00 AM 4.71 40.478 0.884 9.1 2.23 11.81
1/10/2023 3:30:00 AM 4.66 40.388 0.885 9.11 1.76 11.86
1/10/2023 3:45:00 AM 4.67 40.406 0.885 9.11 9.79 11.84
1/10/2023 4:00:00 AM 4.59 40.262 0.886 9.1 4.32 11.89
1/10/2023 4:15:00 AM 4.55 40.19 0.887 9.1 1.48 11.89
1/10/2023 4:30:00 AM 4.53 40.154 0.887 9.1 1.69 11.89
1/10/2023 4:45:00 AM 4.46 40.028 0.889 9.1 1.93 11.92
1/10/2023 5:00:00 AM 4.44 39.992 0.889 9.09 11.69 11.86
1/10/2023 5:15:00 AM 4.37 39.866 0.874 9.1 2 11.94
1/10/2023 5:30:00 AM 4.37 39.866 0.887 9.1 1.89 11.97
1/10/2023 5:45:00 AM 4.35 39.83 0.891 9.11 2.33 11.97
1/10/2023 6:00:00 AM 4.27 39.686 0.893 9.11 1.89 11.98
1/10/2023 6:15:00 AM 4.28 39.704 0.893 9.11 2.56 12.01
1/10/2023 6:30:00 AM 4.22 39.596 0.895 9.11 2.41 12.02
1/10/2023 6:45:00 AM 4.2 39.56 0.895 9.11 1.61 12.05
1/10/2023 7:00:00 AM 4.19 39.542 0.896 9.1 1.87 12.05
1/10/2023 7:15:00 AM 4.17 39.506 0.897 9.1 2.27 12.05
1/10/2023 7:30:00 AM 4.16 39.488 0.898 9.1 2.02 12.06
1/10/2023 7:45:00 AM 4.17 39.506 0.898 9.1 28.52 12.09
1/10/2023 8:00:00 AM 4.17 39.506 0.898 9.09 1.97 12.12
1/10/2023 8:15:00 AM 4.16 39.488 0.899 9.08 4.72 12.16
1/10/2023 8:30:00 AM 4.17 39.506 0.9 9.07 2.81 12.21
1/10/2023 8:45:00 AM 4.18 39.524 0.901 9.05 13.02 12.24
1/10/2023 9:00:00 AM 4.19 39.542 0.901 9.03 78.76 12.29
1/10/2023 9:15:00 AM 4.24 39.632 0.901 9.01 11.04 12.32
1/10/2023 9:30:00 AM 4.28 39.704 0.902 8.97 3.77 12.4
1/10/2023 9:45:00 AM 4.32 39.776 0.902 8.92 3.57 12.47
1/10/2023 10:00:00 AM 4.37 39.866 0.903 8.86 2.31 12.54
1/10/2023 10:15:00 AM 4.46 40.028 0.902 8.8 2.38 12.66
1/10/2023 10:30:00 AM 4.49 40.082 0.903 8.74 2.99 12.73
1/10/2023 10:45:00 AM 4.53 40.154 0.903 8.69 2.38 12.8
1/10/2023 11:00:00 AM 4.6 40.28 0.903 8.63 1.9 12.86
1/10/2023 11:15:00 AM 4.66 40.388 0.903 8.56 2.03 12.93
1/10/2023 11:30:00 AM 4.74 40.532 0.902 8.49 2.61 13.02
1/10/2023 11:45:00 AM 4.8 40.64 0.902 8.41 2.68 13.06
1/10/2023 12:00:00 PM 4.88 40.784 0.902 8.34 3.02 13.15
1/10/2023 12:15:00 PM 5.01 41.018 0.901 8.27 1.49 13.22
1/10/2023 12:30:00 PM 5.15 41.27 0.901 8.2 2.52 13.26
1/10/2023 12:45:00 PM 5.23 41.414 0.901 8.14 1.59 13.36
1/10/2023 1:00:00 PM 5.31 41.558 0.9 8.1 3.66 13.43
1/10/2023 1:15:00 PM 5.37 41.666 0.9 8.09 1.38 13.44
1/10/2023 1:30:00 PM 5.45 41.81 0.899 8.06 2.67 13.48
1/10/2023 1:45:00 PM 5.5 41.9 0.899 8.04 2.96 13.52
1/10/2023 2:00:00 PM 5.55 41.99 0.898 7.99 2.27 13.5
1/10/2023 2:15:00 PM 5.58 42.044 0.898 7.95 1.97 13.55
1/10/2023 2:30:00 PM 5.6 42.08 0.898 7.92 1.83 13.48
1/10/2023 2:45:00 PM 5.62 42.116 0.897 7.91 2.4 13.49
1/10/2023 3:00:00 PM 5.65 42.17 0.896 7.9 3.57 13.45
1/10/2023 3:15:00 PM 5.67 42.206 0.895 7.88 28.62 13.45
1/10/2023 3:30:00 PM 5.69 42.242 0.895 7.87 4.98 13.4
1/10/2023 3:45:00 PM 5.72 42.296 0.894 7.87 5.84 13.35
1/10/2023 4:00:00 PM 5.76 42.368 0.893 7.89 5.12 13.33
1/10/2023 4:15:00 PM 5.79 42.422 0.892 7.9 4.84 13.27
1/10/2023 4:30:00 PM 5.82 42.476 0.891 7.91 33.09 13.16
1/10/2023 4:45:00 PM 5.84 42.512 0.882 7.89 7.44 13.07
1/10/2023 5:00:00 PM 5.86 42.548 0.889 7.97 4.93 13.03
1/10/2023 5:15:00 PM 5.87 42.566 0.889 8.09 226.5 12.95
1/10/2023 5:30:00 PM 5.89 42.602 0.888 8.25 5.52 12.85
1/10/2023 5:45:00 PM 5.89 42.602 0.881 8.4 7.24 12.85
1/10/2023 6:00:00 PM 5.87 42.566 0.886 8.55 5.98 12.76
1/10/2023 6:15:00 PM 5.86 42.548 0.885 8.67 2.96 12.68
1/10/2023 6:30:00 PM 5.86 42.548 0.883 8.74 3.65 12.62
1/10/2023 6:45:00 PM 5.84 42.512 0.883 8.79 17.32 12.53
1/10/2023 7:00:00 PM 5.81 42.458 0.882 8.85 95.52 12.44
1/10/2023 7:15:00 PM 5.77 42.386 0.88 8.92 4.69 12.41
1/10/2023 7:30:00 PM 5.75 42.35 0.878 8.96 7.31 12.37
1/10/2023 7:45:00 PM 5.72 42.296 0.878 9.01 4.79 12.29
1/10/2023 8:00:00 PM 5.69 42.242 0.877 9.02 3.13 12.24
1/10/2023 8:15:00 PM 5.69 42.242 0.875 9.04 2.85 12.19
1/10/2023 8:30:00 PM 5.65 42.17 0.874 9.06 2.57 12.14
1/10/2023 8:45:00 PM 5.63 42.134 0.873 9.08 11.82 12.11
1/10/2023 9:00:00 PM 5.58 42.044 0.871 9.1 1030 12.06
1/10/2023 9:15:00 PM 5.54 41.972 0.869 9.11 42.08 12.05
1/10/2023 9:30:00 PM 5.53 41.954 0.868 9.12 2.83 11.98
1/10/2023 9:45:00 PM 5.45 41.81 0.867 9.12 7.41 12
1/10/2023 10:00:00 PM 5.42 41.756 0.865 9.12 3.19 11.94
1/10/2023 10:15:00 PM 5.4 41.72 0.863 9.13 4.13 11.96
1/10/2023 10:30:00 PM 5.33 41.594 0.862 9.14 2.58 11.95
1/10/2023 10:45:00 PM 5.3 41.54 0.86 9.13 2.2 11.93
1/10/2023 11:00:00 PM 5.24 41.432 0.859 9.13 3.17 11.94
1/10/2023 11:15:00 PM 5.2 41.36 0.857 9.13 2.05 11.91
1/10/2023 11:30:00 PM 5.16 41.288 0.856 9.13 2.3 11.89
1/10/2023 11:45:00 PM 5.13 41.234 0.854 9.13 2.11 11.9
1/11/2023 12:00:00 AM 5.06 41.108 0.853 9.13 20.72 11.9
1/11/2023 12:15:00 AM 5.02 41.036 0.851 9.13 2.5 11.87
1/11/2023 12:30:00 AM 4.99 40.982 0.85 9.13 2.29 11.88
1/11/2023 12:45:00 AM 4.92 40.856 0.848 9.13 7.03 11.92
1/11/2023 1:00:00 AM 4.85 40.73 0.847 9.13 2.5 11.92
1/11/2023 1:15:00 AM 4.82 40.676 0.846 9.12 1.68 11.9
1/11/2023 1:30:00 AM 4.76 40.568 0.843 9.12 6.2 11.92
1/11/2023 1:45:00 AM 4.73 40.514 0.836 9.13 2.18 11.95
1/11/2023 2:00:00 AM 4.7 40.46 0.839 9.13 1.95 11.94
1/11/2023 2:15:00 AM 4.58 40.244 0.839 9.13 2.08 11.98
1/11/2023 2:30:00 AM 4.59 40.262 0.838 9.13 6.37 11.95
1/11/2023 2:45:00 AM 4.58 40.244 0.835 9.12 1.8 11.96
1/11/2023 3:00:00 AM 4.56 40.208 0.833 9.11 2.12 11.98
1/11/2023 3:15:00 AM 4.48 40.064 0.834 9.09 7.06 12.05
1/11/2023 3:30:00 AM 4.52 40.136 0.83 9.08 1.73 12.04
1/11/2023 3:45:00 AM 4.48 40.064 0.83 9.07 2.67 12.02
1/11/2023 4:00:00 AM 4.39 39.902 0.831 9.06 2.64 12.04
1/11/2023 4:15:00 AM 4.38 39.884 0.829 9.07 31.3 12.03
1/11/2023 4:30:00 AM 4.32 39.776 0.828 9.08 3.33 12.07
1/11/2023 4:45:00 AM 4.24 39.632 0.828 9.09 51.8 12.1
1/11/2023 5:00:00 AM 4.21 39.578 0.826 9.11 14.61 12.1
1/11/2023 5:15:00 AM 4.17 39.506 0.826 9.11 46.31 12.12
1/11/2023 5:30:00 AM 4.17 39.506 0.826 9.12 2.01 12.13
1/11/2023 5:45:00 AM 4.09 39.362 0.825 9.12 1.51 12.16
1/11/2023 6:00:00 AM 4.04 39.272 0.825 9.13 1.93 12.17
1/11/2023 6:15:00 AM 4.04 39.272 0.824 9.14 2.23 12.17
1/11/2023 6:30:00 AM 4 39.2 0.825 9.14 3.49 12.19
1/11/2023 6:45:00 AM 3.98 39.164 0.825 9.15 2.19 12.2
1/11/2023 7:00:00 AM 3.96 39.128 0.824 9.15 8.64 12.23
1/11/2023 7:15:00 AM 3.93 39.074 0.825 9.15 25.55 12.24
1/11/2023 7:30:00 AM 3.9 39.02 0.825 9.15 2.33 12.23
1/11/2023 7:45:00 AM 3.83 38.894 0.826 9.15 1.91 12.27
1/11/2023 8:00:00 AM 3.79 38.822 0.828 9.15 2.78 12.32
1/11/2023 8:15:00 AM 3.83 38.894 0.826 9.14 1.91 12.34
1/11/2023 8:30:00 AM 3.78 38.804 0.828 9.14 1.63 12.42
1/11/2023 8:45:00 AM 3.79 38.822 0.828 9.13 16.67 12.48
1/11/2023 9:00:00 AM 3.79 38.822 0.828 9.1 22.53 12.48
1/11/2023 9:15:00 AM 3.78 38.804 0.83 9.09 5.21 12.64
1/11/2023 9:30:00 AM 3.83 38.894 0.83 9.06 4.28 12.68
1/11/2023 9:45:00 AM 3.87 38.966 0.831 9.02 9.09 12.75
1/11/2023 10:00:00 AM 3.92 39.056 0.832 8.97 2.04 12.86
1/11/2023 10:15:00 AM 3.97 39.146 0.833 8.92 2.28 12.92
1/11/2023 10:30:00 AM 4.05 39.29 0.833 8.83 3.76 12.99
1/11/2023 10:45:00 AM 4.12 39.416 0.834 8.72 3.4 13.02
1/11/2023 11:00:00 AM 4.18 39.524 0.835 8.64 2.54 13.15
1/11/2023 11:15:00 AM 4.28 39.704 0.836 8.54 2.82 13.23
1/11/2023 11:30:00 AM 4.37 39.866 0.837 8.45 2.45 13.29
1/11/2023 11:45:00 AM 4.43 39.974 0.837 8.37 2.25 13.36
1/11/2023 12:00:00 PM 4.51 40.118 0.838 8.29 2.98 13.44
1/11/2023 12:15:00 PM 4.6 40.28 0.839 8.21 2.81 13.5
1/11/2023 12:30:00 PM 4.71 40.478 0.839 8.17 2.39 13.55
1/11/2023 12:45:00 PM 4.77 40.586 0.84 8.11 2.57 13.62
1/11/2023 1:00:00 PM 4.83 40.694 0.841 8.1 2.29 13.64
1/11/2023 1:15:00 PM 4.87 40.766 0.842 8.06 2.73 13.69
1/11/2023 1:30:00 PM 4.91 40.838 0.843 8.03 2.57 13.69
1/11/2023 1:45:00 PM 4.97 40.946 0.843 8.01 2.33 13.73
1/11/2023 2:00:00 PM 5.02 41.036 0.844 7.99 2.2 13.73
1/11/2023 2:15:00 PM 5.06 41.108 0.844 7.95 3.23 13.72
1/11/2023 2:30:00 PM 5.11 41.198 0.844 7.94 4.42 13.73
1/11/2023 2:45:00 PM 5.15 41.27 0.844 7.92 4.12 13.69
1/11/2023 3:00:00 PM 5.2 41.36 0.844 7.9 2.92 13.67
1/11/2023 3:15:00 PM 5.26 41.468 0.844 7.89 3.17 13.67
1/11/2023 3:30:00 PM 5.32 41.576 0.843 7.88 3.16 13.71
1/11/2023 3:45:00 PM 5.35 41.63 0.843 7.88 6.06 13.73
1/11/2023 4:00:00 PM 5.35 41.63 0.843 7.88 4.79 13.66
1/11/2023 4:15:00 PM 5.36 41.648 0.842 7.88 4.91 13.59
1/11/2023 4:30:00 PM 5.35 41.63 0.842 7.9 4.13 13.49
1/11/2023 4:45:00 PM 5.36 41.648 0.841 7.97 3.99 13.4
1/11/2023 5:00:00 PM 5.35 41.63 0.841 8.09 4.56 13.31
1/11/2023 5:15:00 PM 5.35 41.63 0.84 8.22 3.51 13.24
1/11/2023 5:30:00 PM 5.38 41.684 0.838 8.3 7.73 13.18
1/11/2023 5:45:00 PM 5.39 41.702 0.837 8.29 2.49 13.11
1/11/2023 6:00:00 PM 5.41 41.738 0.836 8.3 2.41 13.03
1/11/2023 6:15:00 PM 5.4 41.72 0.834 8.37 3.21 12.95
1/11/2023 6:30:00 PM 5.4 41.72 0.833 8.48 2.5 12.89
1/11/2023 6:45:00 PM 5.4 41.72 0.832 8.51 2.54 12.82
1/11/2023 7:00:00 PM 5.41 41.738 0.831 8.55 1.97 12.75
1/11/2023 7:15:00 PM 5.4 41.72 0.829 8.59 2.42 12.67
1/11/2023 7:30:00 PM 5.42 41.756 0.828 8.57 2.55 12.61
1/11/2023 7:45:00 PM 5.41 41.738 0.827 8.56 2.87 12.56
1/11/2023 8:00:00 PM 5.42 41.756 0.825 8.59 3.09 12.5
1/11/2023 8:15:00 PM 5.42 41.756 0.824 8.59 1.96 12.46
1/11/2023 8:30:00 PM 5.42 41.756 0.823 8.59 1.96 12.39
1/11/2023 8:45:00 PM 5.42 41.756 0.821 8.62 3.96 12.33
1/11/2023 9:00:00 PM 5.39 41.702 0.82 8.67 3.9 12.3
1/11/2023 9:15:00 PM 5.4 41.72 0.819 8.71 2.13 12.24
1/11/2023 9:30:00 PM 5.4 41.72 0.818 8.71 2.16 12.2
1/11/2023 9:45:00 PM 5.4 41.72 0.817 8.68 2.56 12.13
1/11/2023 10:00:00 PM 5.4 41.72 0.817 8.66 4.4 12.14
1/11/2023 10:15:00 PM 5.42 41.756 0.816 8.64 2.72 12.09
1/11/2023 10:30:00 PM 5.41 41.738 0.815 8.62 16.7 12.06
1/11/2023 10:45:00 PM 5.41 41.738 0.815 8.61 1.84 12
1/11/2023 11:00:00 PM 5.4 41.72 0.799 8.6 2.4 12.02
1/11/2023 11:15:00 PM 5.39 41.702 0.815 8.6 3.31 11.99
1/11/2023 11:30:00 PM 5.38 41.684 0.815 8.6 6.13 11.95
1/11/2023 11:45:00 PM 5.38 41.684 0.815 8.58 2.34 11.95
1/12/2023 12:00:00 AM 5.38 41.684 0.816 8.55 2.76 11.94
1/12/2023 12:15:00 AM 5.37 41.666 0.816 8.53 3.91 11.91
1/12/2023 12:30:00 AM 5.35 41.63 0.817 8.51 1.84 11.92
1/12/2023 12:45:00 AM 5.33 41.594 0.818 8.5 1.85 11.94
1/12/2023 1:00:00 AM 5.32 41.576 0.819 8.49 2.33 11.91
1/12/2023 1:15:00 AM 5.31 41.558 0.82 8.5 2.01 11.91
1/12/2023 1:30:00 AM 5.29 41.522 0.822 8.5 1.99 11.89
1/12/2023 1:45:00 AM 5.29 41.522 0.822 8.5 2.3 11.89
1/12/2023 2:00:00 AM 5.27 41.486 0.823 8.49 2.67 11.88
1/12/2023 2:15:00 AM 5.26 41.468 0.825 8.47 3.39 11.87
1/12/2023 2:30:00 AM 5.26 41.468 0.826 8.48 1.58 11.86
1/12/2023 2:45:00 AM 5.24 41.432 0.828 8.48 2.37 11.87
1/12/2023 3:00:00 AM 5.22 41.396 0.829 8.47 1.68 11.89
1/12/2023 3:15:00 AM 5.22 41.396 0.831 8.46 4.25 11.87
1/12/2023 3:30:00 AM 5.2 41.36 0.832 8.47 2 11.89
1/12/2023 3:45:00 AM 5.18 41.324 0.834 8.45 1.58 11.9
1/12/2023 4:00:00 AM 5.19 41.342 0.836 8.44 4.73 11.86
1/12/2023 4:15:00 AM 5.18 41.324 0.838 8.42 2.08 11.85
1/12/2023 4:30:00 AM 5.17 41.306 0.84 8.41 2.95 11.85
1/12/2023 4:45:00 AM 5.15 41.27 0.842 8.41 1.9 11.88
1/12/2023 5:00:00 AM 5.14 41.252 0.844 8.41 2.23 11.87
1/12/2023 5:15:00 AM 5.16 41.288 0.845 8.38 8 11.86
1/12/2023 5:30:00 AM 5.15 41.27 0.846 8.36 1.69 11.86
1/12/2023 5:45:00 AM 5.15 41.27 0.848 8.35 2.23 11.84
1/12/2023 6:00:00 AM 5.17 41.306 0.849 8.35 1.72 11.86
1/12/2023 6:15:00 AM 5.14 41.252 0.851 8.34 3.22 11.9
1/12/2023 6:30:00 AM 5.15 41.27 0.852 8.32 1.98 11.87
1/12/2023 6:45:00 AM 5.15 41.27 0.854 8.3 2 11.86
1/12/2023 7:00:00 AM 5.16 41.288 0.855 8.29 2.01 11.88
1/12/2023 7:15:00 AM 5.17 41.306 0.856 8.28 1.77 11.87
1/12/2023 7:30:00 AM 5.19 41.342 0.857 8.26 3.11 11.86
1/12/2023 7:45:00 AM 5.19 41.342 0.859 8.25 2.29 11.84
1/12/2023 8:00:00 AM 5.21 41.378 0.86 8.23 1.86 11.87
1/12/2023 8:15:00 AM 5.22 41.396 0.861 8.21 2.55 11.9
1/12/2023 8:30:00 AM 5.24 41.432 0.862 8.19 2.1 11.9
1/12/2023 8:45:00 AM 5.26 41.468 0.864 8.16 3.62 11.9
1/12/2023 9:00:00 AM 5.29 41.522 0.864 8.12 2.15 11.95
1/12/2023 9:15:00 AM 5.32 41.576 0.865 8.08 2.42 11.99
1/12/2023 9:30:00 AM 5.37 41.666 0.866 8.01 3.21 12.06
1/12/2023 9:45:00 AM 5.42 41.756 0.867 7.98 2.09 12.11
1/12/2023 10:00:00 AM 5.46 41.828 0.868 7.95 5.36 12.19
1/12/2023 10:15:00 AM 5.5 41.9 0.868 7.92 3.28 12.24
1/12/2023 10:30:00 AM 5.54 41.972 0.869 7.9 2.17 12.27
1/12/2023 10:45:00 AM 5.6 42.08 0.869 7.89 2.28 12.32
1/12/2023 11:00:00 AM 5.65 42.17 0.87 7.86 2.16 12.37
1/12/2023 11:15:00 AM 5.7 42.26 0.87 7.84 2.24 12.43
1/12/2023 11:30:00 AM 5.76 42.368 0.871 7.83 3.58 12.5
1/12/2023 11:45:00 AM 5.81 42.458 0.871 7.82 3.88 12.59
1/12/2023 12:00:00 PM 5.9 42.62 0.871 7.82 2.43 12.63
1/12/2023 12:15:00 PM 5.95 42.71 0.872 7.83 2.84 12.67
1/12/2023 12:30:00 PM 6.03 42.854 0.872 7.83 2.45 12.73
1/12/2023 12:45:00 PM 6.09 42.962 0.872 7.83 2.01 12.8
1/12/2023 1:00:00 PM 6.19 43.142 0.872 7.83 2.09 12.86
1/12/2023 1:15:00 PM 6.24 43.232 0.872 7.84 5.14 12.95
1/12/2023 1:30:00 PM 6.28 43.304 0.873 7.84 3.25 12.96
1/12/2023 1:45:00 PM 6.34 43.412 0.873 7.85 4.97 12.99
1/12/2023 2:00:00 PM 6.43 43.574 0.872 7.87 3.44 13.01
1/12/2023 2:15:00 PM 6.48 43.664 0.873 7.87 5.16 13.07
1/12/2023 2:30:00 PM 6.55 43.79 0.873 7.88 3.6 13.11
1/12/2023 2:45:00 PM 6.6 43.88 0.873 7.86 3.63 13.08
1/12/2023 3:00:00 PM 6.62 43.916 0.873 7.83 4.44 13
1/12/2023 3:15:00 PM 6.67 44.006 0.872 7.83 2.54 12.99
1/12/2023 3:30:00 PM 6.7 44.06 0.872 7.81 2 12.99
1/12/2023 3:45:00 PM 6.72 44.096 0.872 7.79 8.23 12.95
1/12/2023 4:00:00 PM 6.75 44.15 0.872 7.8 4.57 12.85
1/12/2023 4:15:00 PM 6.78 44.204 0.871 7.78 2.77 12.75
1/12/2023 4:30:00 PM 6.81 44.258 0.871 7.78 4.07 12.66
1/12/2023 4:45:00 PM 6.82 44.276 0.871 7.77 6.84 12.59
1/12/2023 5:00:00 PM 6.85 44.33 0.87 7.8 4.83 12.52
1/12/2023 5:15:00 PM 6.87 44.366 0.87 7.8 12.45 12.44
1/12/2023 5:30:00 PM 6.89 44.402 0.87 7.82 8.07 12.39
1/12/2023 5:45:00 PM 6.91 44.438 0.865 7.81 11.48 12.28
1/12/2023 6:00:00 PM 6.94 44.492 0.859 7.82 18.43 12.22
1/12/2023 6:15:00 PM 6.96 44.528 0.868 7.81 10.05 12.15
1/12/2023 6:30:00 PM 6.98 44.564 0.864 7.79 2.34 12.06
1/12/2023 6:45:00 PM 7.01 44.618 0.865 7.76 2.65 12.03
1/12/2023 7:00:00 PM 7.03 44.654 0.865 7.6 23.43 11.91
1/12/2023 7:15:00 PM 7.05 44.69 0.846 7.63 5.78 11.85
1/12/2023 7:30:00 PM 7.08 44.744 0.847 7.68 1.58 11.77
1/12/2023 7:45:00 PM 7.1 44.78 0.863 7.68 3.08 11.7
1/12/2023 8:00:00 PM 7.12 44.816 0.863 7.68 19.81 11.62
1/12/2023 8:15:00 PM 7.17 44.906 0.862 7.7 2.95 11.58
1/12/2023 8:30:00 PM 7.18 44.924 0.862 7.68 10.66 11.56
1/12/2023 8:45:00 PM 7.23 45.014 0.86 7.72 2.66 11.45
1/12/2023 9:00:00 PM 7.26 45.068 0.86 7.75 13.21 11.39
1/12/2023 9:15:00 PM 7.3 45.14 0.859 7.7 20.03 11.37
1/12/2023 9:30:00 PM 7.31 45.158 0.859 7.71 304.8 11.33
1/12/2023 9:45:00 PM 7.33 45.194 0.859 7.74 694.5 11.29
1/12/2023 10:00:00 PM 7.36 45.248 0.855 7.74 3.28 11.23
1/12/2023 10:15:00 PM 7.38 45.284 0.857 7.74 49.2 11.19
1/12/2023 10:30:00 PM 7.38 45.284 0.857 7.76 2.1 11.19
1/12/2023 10:45:00 PM 7.39 45.302 0.856 7.75 7.64 11.13
1/12/2023 11:00:00 PM 7.42 45.356 0.856 7.75 58.92 11.11
1/12/2023 11:15:00 PM 7.44 45.392 0.855 7.75 103.6 11.08
1/12/2023 11:30:00 PM 7.45 45.41 0.853 7.75 21.77 11.04
1/12/2023 11:45:00 PM 7.47 45.446 0.853 7.75 9.45 11.03
1/13/2023 12:00:00 AM 7.5 45.5 0.852 7.76 42.71 11
1/13/2023 12:15:00 AM 7.51 45.518 0.852 7.76 2.37 10.97
1/13/2023 12:30:00 AM 7.51 45.518 0.852 7.77 15.24 10.96
1/13/2023 12:45:00 AM 7.52 45.536 0.852 7.77 33.61 10.94
1/13/2023 1:00:00 AM 7.52 45.536 0.852 7.78 13.35 10.9
1/13/2023 1:15:00 AM 7.54 45.572 0.852 7.77 11.31 10.88
1/13/2023 1:30:00 AM 7.55 45.59 0.852 7.79 2.25 10.88
1/13/2023 1:45:00 AM 7.56 45.608 0.852 7.78 182.2 10.85
1/13/2023 2:00:00 AM 7.57 45.626 0.852 7.78 3.55 10.83
1/13/2023 2:15:00 AM 7.59 45.662 0.852 7.76 3.02 10.83
1/13/2023 2:30:00 AM 7.58 45.644 0.853 7.77 70.66 10.82
1/13/2023 2:45:00 AM 7.61 45.698 0.853 7.77 1.78 10.83
1/13/2023 3:00:00 AM 7.62 45.716 0.854 7.77 16.59 10.81
1/13/2023 3:15:00 AM 7.62 45.716 0.854 7.76 5.39 10.76
1/13/2023 3:30:00 AM 7.63 45.734 0.855 7.76 5.67 10.76
1/13/2023 3:45:00 AM 7.65 45.77 0.855 7.75 6.08 10.73
1/13/2023 4:00:00 AM 7.67 45.806 0.855 7.76 2.05 10.78
1/13/2023 4:15:00 AM 7.67 45.806 0.854 7.76 2.24 10.76
1/13/2023 4:30:00 AM 7.67 45.806 0.856 7.74 8.41 10.75
1/13/2023 4:45:00 AM 7.69 45.842 0.855 7.73 20.4 10.74
1/13/2023 5:00:00 AM 7.69 45.842 0.855 7.69 11.46 10.73
1/13/2023 5:15:00 AM 7.71 45.878 0.846 7.72 34.47 10.71
1/13/2023 5:30:00 AM 7.72 45.896 0.857 7.7 231.9 10.7
1/13/2023 5:45:00 AM 7.74 45.932 0.857 7.58 2.56 10.71
1/13/2023 6:00:00 AM 7.75 45.95 0.857 7.71 3.57 10.7
1/13/2023 6:15:00 AM 7.78 46.004 0.851 7.65 22.57 10.7
1/13/2023 6:30:00 AM 7.79 46.022 0.857 7.68 26.22 10.69
1/13/2023 6:45:00 AM 7.81 46.058 0.857 7.68 2.01 10.66
1/13/2023 7:00:00 AM 7.82 46.076 0.859 7.69 1.75 10.66
1/13/2023 7:15:00 AM 7.84 46.112 0.86 7.68 3.86 10.68
1/13/2023 7:30:00 AM 7.85 46.13 0.855 7.7 2.35 10.66
1/13/2023 7:45:00 AM 7.86 46.148 0.859 7.7 2.62 10.7
1/13/2023 8:00:00 AM 7.86 46.148 0.857 7.69 2.23 10.66
1/13/2023 8:15:00 AM 7.86 46.148 0.858 7.7 3.01 10.67
1/13/2023 8:30:00 AM 7.88 46.184 0.859 7.68 1.96 10.63
1/13/2023 8:45:00 AM 7.88 46.184 0.863 7.66 1.69 10.68
1/13/2023 9:00:00 AM 7.89 46.202 0.864 7.66 30.87 10.78
1/13/2023 9:15:00 AM 7.9 46.22 0.865 7.69 4.15 10.87
1/13/2023 9:30:00 AM 7.93 46.274 0.865 7.69 1.68 10.98
1/13/2023 9:45:00 AM 7.94 46.292 0.866 7.68 3.03 11.08
1/13/2023 10:00:00 AM 7.95 46.31 0.867 7.69 2.24 11.14
1/13/2023 10:15:00 AM 7.96 46.328 0.868 7.66 1.78 11.2
1/13/2023 10:30:00 AM 7.98 46.364 0.869 7.66 2.03 11.3
1/13/2023 10:45:00 AM 8.05 46.49 0.87 7.66 1.78 11.44
1/13/2023 11:00:00 AM 8.06 46.508 0.871 7.59 2.06 11.56
1/13/2023 11:15:00 AM 8.06 46.508 0.872 7.65 2.49 11.6
1/13/2023 11:30:00 AM 8.11 46.598 0.872 7.67 2.2 11.75
1/13/2023 11:45:00 AM 8.12 46.616 0.873 7.67 2.94 11.79
1/13/2023 12:00:00 PM 8.12 46.616 0.873 7.61 2.31 11.86
1/13/2023 12:15:00 PM 8.13 46.634 0.874 7.63 3.25 11.95
1/13/2023 12:30:00 PM 8.13 46.634 0.874 7.63 1.92 11.99
1/13/2023 12:45:00 PM 8.12 46.616 0.874 7.65 1.79 12.07
1/13/2023 1:00:00 PM 8.13 46.634 0.874 7.68 1.66 12.06
1/13/2023 1:15:00 PM 8.12 46.616 0.874 7.71 2.28 12.13
1/13/2023 1:30:00 PM 8.13 46.634 0.874 7.73 2.84 12.2
1/13/2023 1:45:00 PM 8.13 46.634 0.874 7.77 2.01 12.21
1/13/2023 2:00:00 PM 8.12 46.616 0.874 7.81 1.89 12.22
1/13/2023 2:15:00 PM 8.12 46.616 0.874 7.81 1.8 12.26
1/13/2023 2:30:00 PM 8.12 46.616 0.873 7.86 2.46 12.22
1/13/2023 2:45:00 PM 8.11 46.598 0.873 7.91 3.04 12.24
1/13/2023 3:00:00 PM 8.1 46.58 0.873 7.97 2.06 12.26
1/13/2023 3:15:00 PM 8.08 46.544 0.873 8.03 3.32 12.3
1/13/2023 3:30:00 PM 8.05 46.49 0.873 8.1 2.13 12.21
1/13/2023 3:45:00 PM 8.03 46.454 0.872 8.16 2.33 12.18
1/13/2023 4:00:00 PM 8 46.4 0.872 8.19 1.76 12.11
1/13/2023 4:15:00 PM 7.97 46.346 0.872 8.25 2.45 12.09
1/13/2023 4:30:00 PM 7.94 46.292 0.871 8.33 2.61 12.03
1/13/2023 4:45:00 PM 7.91 46.238 0.871 8.36 2.06 11.97
1/13/2023 5:00:00 PM 7.89 46.202 0.87 8.41 1.99 11.93
1/13/2023 5:15:00 PM 7.85 46.13 0.869 8.45 4.8 11.83
1/13/2023 5:30:00 PM 7.82 46.076 0.868 8.49 2.24 11.77
1/13/2023 5:45:00 PM 7.79 46.022 0.867 8.52 4.8 11.71
1/13/2023 6:00:00 PM 7.75 45.95 0.866 8.55 5.14 11.68
1/13/2023 6:15:00 PM 7.73 45.914 0.865 8.55 26.23 11.58
1/13/2023 6:30:00 PM 7.68 45.824 0.862 8.57 6.18 11.59
1/13/2023 6:45:00 PM 7.64 45.752 0.862 8.61 2.7 11.56
1/13/2023 7:00:00 PM 7.59 45.662 0.861 8.63 2.51 11.46
1/13/2023 7:15:00 PM 7.58 45.644 0.861 8.67 3.32 11.36
1/13/2023 7:30:00 PM 7.53 45.554 0.86 8.69 2.96 11.33
1/13/2023 7:45:00 PM 7.51 45.518 0.859 8.7 2.45 11.31
1/13/2023 8:00:00 PM 7.48 45.464 0.858 8.71 2.73 11.24
1/13/2023 8:15:00 PM 7.45 45.41 0.857 8.73 2.34 11.21
1/13/2023 8:30:00 PM 7.4 45.32 0.857 8.75 2.14 11.18
1/13/2023 8:45:00 PM 7.36 45.248 0.856 8.7 2.85 11.17
1/13/2023 9:00:00 PM 7.32 45.176 0.857 8.75 47.59 11.11
1/13/2023 9:15:00 PM 7.31 45.158 0.855 8.75 8.19 11.08
1/13/2023 9:30:00 PM 7.25 45.05 0.855 8.77 12.41 11.1
1/13/2023 9:45:00 PM 7.22 44.996 0.856 8.78 3.38 11.05
1/13/2023 10:00:00 PM 7.17 44.906 0.856 8.8 3.92 11.05
1/13/2023 10:15:00 PM 7.15 44.87 0.855 8.81 11.51 11.05
1/13/2023 10:30:00 PM 7.09 44.762 0.855 8.82 6.66 11.06
1/13/2023 10:45:00 PM 7.04 44.672 0.855 8.85 1.78 11.04
1/13/2023 11:00:00 PM 7 44.6 0.855 8.86 3.18 11.03
1/13/2023 11:15:00 PM 6.94 44.492 0.855 8.88 2.09 11.03
1/13/2023 11:30:00 PM 6.9 44.42 0.855 8.88 2.1 11.01
1/13/2023 11:45:00 PM 6.86 44.348 0.855 8.89 2.66 11.02
1/14/2023 12:00:00 AM 6.82 44.276 0.855 8.89 2.89 11.02
1/14/2023 12:15:00 AM 6.8 44.24 0.855 8.9 1.91 11
1/14/2023 12:30:00 AM 6.73 44.114 0.856 8.91 2.2 11.03
1/14/2023 12:45:00 AM 6.69 44.042 0.857 8.91 2.79 10.97
1/14/2023 1:00:00 AM 6.65 43.97 0.857 8.92 1.69 11.01
1/14/2023 1:15:00 AM 6.63 43.934 0.856 8.92 2.26 11.02
1/14/2023 1:30:00 AM 6.56 43.808 0.858 8.93 1.9 11.06
1/14/2023 1:45:00 AM 6.54 43.772 0.858 8.93 3.27 11
1/14/2023 2:00:00 AM 6.51 43.718 0.859 8.93 2.77 10.99
1/14/2023 2:15:00 AM 6.44 43.592 0.86 8.94 1.59 11.02
1/14/2023 2:30:00 AM 6.41 43.538 0.86 8.93 2.69 11.03
1/14/2023 2:45:00 AM 6.35 43.43 0.86 8.94 3.26 11.1
1/14/2023 3:00:00 AM 6.36 43.448 0.86 8.93 1.95 11.07
1/14/2023 3:15:00 AM 6.32 43.376 0.861 8.94 2.08 11.1
1/14/2023 3:30:00 AM 6.24 43.232 0.863 8.94 5.45 11.11
1/14/2023 3:45:00 AM 6.24 43.232 0.864 8.95 2.53 11.08
1/14/2023 4:00:00 AM 6.18 43.124 0.865 8.95 1.99 11.1
1/14/2023 4:15:00 AM 6.16 43.088 0.863 8.96 3.15 11.13
1/14/2023 4:30:00 AM 6.09 42.962 0.865 8.97 1.71 11.13
1/14/2023 4:45:00 AM 6.09 42.962 0.865 8.97 2.34 11.14
1/14/2023 5:00:00 AM 6.06 42.908 0.867 8.98 3.26 11.15
1/14/2023 5:15:00 AM 6.01 42.818 0.868 8.98 7.28 11.18
1/14/2023 5:30:00 AM 5.97 42.746 0.87 8.98 1.58 11.18
1/14/2023 5:45:00 AM 5.92 42.656 0.871 8.98 1.65 11.22
1/14/2023 6:00:00 AM 5.9 42.62 0.87 8.99 2.02 11.23
1/14/2023 6:15:00 AM 5.85 42.53 0.872 8.99 2.13 11.24
1/14/2023 6:30:00 AM 5.82 42.476 0.874 8.99 2.59 11.23
1/14/2023 6:45:00 AM 5.79 42.422 0.874 9 3.68 11.24
1/14/2023 7:00:00 AM 5.79 42.422 0.875 8.99 2.22 11.23
1/14/2023 7:15:00 AM 5.74 42.332 0.876 8.99 3.51 11.27
1/14/2023 7:30:00 AM 5.7 42.26 0.877 9 3.58 11.33
1/14/2023 7:45:00 AM 5.65 42.17 0.879 9 4.86 11.3
1/14/2023 8:00:00 AM 5.64 42.152 0.879 9.01 2.27 11.33
1/14/2023 8:15:00 AM 5.61 42.098 0.881 9.01 1.66 11.38
1/14/2023 8:30:00 AM 5.57 42.026 0.881 9.01 1.98 11.42
1/14/2023 8:45:00 AM 5.56 42.008 0.882 9 2.11 11.44
1/14/2023 9:00:00 AM 5.53 41.954 0.883 9.01 2.47 11.55
1/14/2023 9:15:00 AM 5.55 41.99 0.884 9.01 1.83 11.52
1/14/2023 9:30:00 AM 5.54 41.972 0.884 9 3.16 11.6
1/14/2023 9:45:00 AM 5.47 41.846 0.886 8.99 3.77 11.73
1/14/2023 10:00:00 AM 5.46 41.828 0.887 9 2.79 11.79
1/14/2023 10:15:00 AM 5.47 41.846 0.887 9.01 2.36 11.84
1/14/2023 10:30:00 AM 5.44 41.792 0.889 9.01 1.65 11.92
1/14/2023 10:45:00 AM 5.46 41.828 0.889 9 1.88 11.98
1/14/2023 11:00:00 AM 5.46 41.828 0.89 9.01 2.35 12.06
1/14/2023 11:15:00 AM 5.44 41.792 0.89 9.01 1.86 12.18
1/14/2023 11:30:00 AM 5.41 41.738 0.891 9.02 2.79 12.2
1/14/2023 11:45:00 AM 5.43 41.774 0.891 9.03 4.18 12.31
1/14/2023 12:00:00 PM 5.4 41.72 0.892 9.03 2.41 12.43
1/14/2023 12:15:00 PM 5.38 41.684 0.892 9.04 3.22 12.55
1/14/2023 12:30:00 PM 5.4 41.72 0.893 9.05 3 12.63
1/14/2023 12:45:00 PM 5.43 41.774 0.893 9.04 4.03 12.64
1/14/2023 1:00:00 PM 5.44 41.792 0.893 9.05 10.36 12.74
1/14/2023 1:15:00 PM 5.46 41.828 0.894 9.05 3.08 12.78
1/14/2023 1:30:00 PM 5.48 41.864 0.893 9.04 37.42 12.86
1/14/2023 1:45:00 PM 5.47 41.846 0.894 9.05 11.35 12.89
1/14/2023 2:00:00 PM 5.46 41.828 0.894 9.05 5.52 13.02
1/14/2023 2:15:00 PM 5.45 41.81 0.894 9.06 42.3 13.05
1/14/2023 2:30:00 PM 5.44 41.792 0.894 9.06 105.2 13.03
1/14/2023 2:45:00 PM 5.44 41.792 0.894 9.07 4.62 13.11
1/14/2023 3:00:00 PM 5.44 41.792 0.882 9.08 2.35 13.1
1/14/2023 3:15:00 PM 5.44 41.792 0.893 9.08 2.84 13.15
1/14/2023 3:30:00 PM 5.43 41.774 0.893 9.09 3.36 13.15
1/14/2023 3:45:00 PM 5.43 41.774 0.893 9.11 3.31 13.16
1/14/2023 4:00:00 PM 5.38 41.684 0.893 9.12 5.17 13.2
1/14/2023 4:15:00 PM 5.34 41.612 0.891 9.14 4.78 13.2
1/14/2023 4:30:00 PM 5.31 41.558 0.88 9.14 3.02 13.13
1/14/2023 4:45:00 PM 5.28 41.504 0.892 9.15 3.15 13.11
1/14/2023 5:00:00 PM 5.24 41.432 0.885 9.16 2.74 13.02
1/14/2023 5:15:00 PM 5.19 41.342 0.887 9.17 4.18 12.96
1/14/2023 5:30:00 PM 5.2 41.36 0.891 9.18 2.02 12.86
1/14/2023 5:45:00 PM 5.14 41.252 0.891 9.17 2.85 12.84
1/14/2023 6:00:00 PM 5.09 41.162 0.891 9.18 2.62 12.79
1/14/2023 6:15:00 PM 5.04 41.072 0.891 9.17 3.71 12.72
1/14/2023 6:30:00 PM 5.04 41.072 0.889 9.18 3.33 12.71
1/14/2023 6:45:00 PM 5 41 0.889 9.19 3.85 12.68
1/14/2023 7:00:00 PM 4.94 40.892 0.889 9.18 2.18 12.63
1/14/2023 7:15:00 PM 4.89 40.802 0.852 9.18 55.65 12.59
1/14/2023 7:30:00 PM 4.87 40.766 0.849 9.18 2.9 12.52
1/14/2023 7:45:00 PM 4.82 40.676 0.845 9.19 1.67 12.5
1/14/2023 8:00:00 PM 4.79 40.622 0.844 9.19 1.61 12.49
1/14/2023 8:15:00 PM 4.75 40.55 0.845 9.19 1.95 12.39
1/14/2023 8:30:00 PM 4.69 40.442 0.843 9.19 2.92 12.37
1/14/2023 8:45:00 PM 4.63 40.334 0.843 9.2 1.93 12.32
1/14/2023 9:00:00 PM 4.54 40.172 0.875 9.2 2.24 12.34
1/14/2023 9:15:00 PM 4.47 40.046 0.874 9.19 2.44 12.34
1/14/2023 9:30:00 PM 4.48 40.064 0.875 9.19 2.57 12.29
1/14/2023 9:45:00 PM 4.4 39.92 0.875 9.18 2.17 12.27
1/14/2023 10:00:00 PM 4.42 39.956 0.864 9.17 1.56 12.21
1/14/2023 10:15:00 PM 4.4 39.92 0.881 9.16 2.08 12.2
1/14/2023 10:30:00 PM 4.34 39.812 0.881 9.15 1.16 12.2
1/14/2023 10:45:00 PM 4.31 39.758 0.881 9.14 1.81 12.18
1/14/2023 11:00:00 PM 4.32 39.776 0.88 9.13 1.88 12.18
1/14/2023 11:15:00 PM 4.28 39.704 0.879 9.13 2.18 12.19
1/14/2023 11:30:00 PM 4.19 39.542 0.874 9.13 2.31 12.19
1/14/2023 11:45:00 PM 4.14 39.452 0.878 9.14 2.45 12.21
1/15/2023 12:00:00 AM 4.09 39.362 0.878 9.14 1.53 12.21
1/15/2023 12:15:00 AM 4.04 39.272 0.878 9.14 1.73 12.17
1/15/2023 12:30:00 AM 3.99 39.182 0.878 9.14 2.04 12.2
1/15/2023 12:45:00 AM 3.92 39.056 0.88 9.15 1.77 12.19
1/15/2023 1:00:00 AM 3.9 39.02 0.875 9.16 1.46 12.18
1/15/2023 1:15:00 AM 3.81 38.858 0.853 9.16 2.04 12.25
1/15/2023 1:30:00 AM 3.74 38.732 0.854 9.16 7.29 12.25
1/15/2023 1:45:00 AM 3.67 38.606 0.857 9.16 1.52 12.27
1/15/2023 2:00:00 AM 3.65 38.57 0.879 9.16 1.96 12.24
1/15/2023 2:15:00 AM 3.65 38.57 0.868 9.15 2.35 12.26
1/15/2023 2:30:00 AM 3.57 38.426 0.865 9.15 4.43 12.24
1/15/2023 2:45:00 AM 3.51 38.318 0.866 9.15 6.51 12.29
1/15/2023 3:00:00 AM 3.47 38.246 0.869 9.15 2.01 12.29
1/15/2023 3:15:00 AM 3.41 38.138 0.873 9.15 2.13 12.26
1/15/2023 3:30:00 AM 3.42 38.156 0.872 9.15 2.97 12.31
1/15/2023 3:45:00 AM 3.31 37.958 0.875 9.15 2.13 12.36
1/15/2023 4:00:00 AM 3.31 37.958 0.885 9.15 1.5 12.36
1/15/2023 4:15:00 AM 3.26 37.868 0.887 9.14 1.69 12.36
1/15/2023 4:30:00 AM 3.21 37.778 0.869 9.14 1.49 12.41
1/15/2023 4:45:00 AM 3.19 37.742 0.881 9.13 2.41 12.4
1/15/2023 5:00:00 AM 3.12 37.616 0.88 9.13 1.87 12.48
1/15/2023 5:15:00 AM 3.11 37.598 0.87 9.13 2.06 12.46
1/15/2023 5:30:00 AM 3.06 37.508 0.891 9.12 1.71 12.46
1/15/2023 5:45:00 AM 3.02 37.436 0.893 9.12 3.3 12.49
1/15/2023 6:00:00 AM 2.99 37.382 0.895 9.12 2.07 12.5
1/15/2023 6:15:00 AM 2.98 37.364 0.895 9.11 1.75 12.52
1/15/2023 6:30:00 AM 2.94 37.292 0.896 9.11 1.49 12.54
1/15/2023 6:45:00 AM 2.91 37.238 0.898 9.11 1.69 12.55
1/15/2023 7:00:00 AM 2.9 37.22 0.895 9.11 2.02 12.55
1/15/2023 7:15:00 AM 2.85 37.13 0.901 9.11 6.57 12.58
1/15/2023 7:30:00 AM 2.81 37.058 0.903 9.11 1.9 12.61
1/15/2023 7:45:00 AM 2.85 37.13 0.902 9.11 1.85 12.61
1/15/2023 8:00:00 AM 2.8 37.04 0.904 9.11 1.45 12.67
1/15/2023 8:15:00 AM 2.78 37.004 0.906 9.11 1.49 12.69
1/15/2023 8:30:00 AM 2.8 37.04 0.907 9.09 2.2 12.71
1/15/2023 8:45:00 AM 2.8 37.04 0.906 9.08 1.85 12.79
1/15/2023 9:00:00 AM 2.74 36.932 0.91 9.07 1.45 12.85
1/15/2023 9:15:00 AM 2.69 36.842 0.91 9.05 1.72 12.95
1/15/2023 9:30:00 AM 2.76 36.968 0.91 9.03 1.76 12.97
1/15/2023 9:45:00 AM 2.7 36.86 0.913 9.01 1.84 13.08
1/15/2023 10:00:00 AM 2.75 36.95 0.913 8.99 2.68 13.16
1/15/2023 10:15:00 AM 2.83 37.094 0.913 8.97 2.12 13.23
1/15/2023 10:30:00 AM 2.96 37.328 0.914 8.9 1.67 13.33
1/15/2023 10:45:00 AM 3.1 37.58 0.914 8.81 2.95 13.42
1/15/2023 11:00:00 AM 3.26 37.868 0.915 8.74 2.68 13.54
1/15/2023 11:15:00 AM 3.36 38.048 0.915 8.64 1.78 13.63
1/15/2023 11:30:00 AM 3.46 38.228 0.916 8.55 1.94 13.67
1/15/2023 11:45:00 AM 3.56 38.408 0.916 8.5 3.14 13.75
1/15/2023 12:00:00 PM 3.61 38.498 0.917 8.44 4.11 13.82
1/15/2023 12:15:00 PM 3.67 38.606 0.918 8.42 2.21 13.83
1/15/2023 12:30:00 PM 3.74 38.732 0.918 8.4 3.08 13.9
1/15/2023 12:45:00 PM 3.81 38.858 0.919 8.38 2.17 13.95
1/15/2023 1:00:00 PM 3.87 38.966 0.919 8.35 2.69 13.96
1/15/2023 1:15:00 PM 3.92 39.056 0.919 8.29 1.83 13.95
1/15/2023 1:30:00 PM 3.95 39.11 0.92 8.27 2.81 14.01
1/15/2023 1:45:00 PM 3.99 39.182 0.92 8.26 2.97 14.04
1/15/2023 2:00:00 PM 4.04 39.272 0.92 8.22 3.38 14.05
1/15/2023 2:15:00 PM 4.07 39.326 0.92 8.22 4.91 14.03
1/15/2023 2:30:00 PM 4.09 39.362 0.921 7.96 2.57 14.07
1/15/2023 2:45:00 PM 4.12 39.416 0.921 8.2 2.74 14.02
1/15/2023 3:00:00 PM 4.16 39.488 0.92 8.19 2.77 13.99
1/15/2023 3:15:00 PM 4.16 39.488 0.92 8.2 2.85 14
1/15/2023 3:30:00 PM 4.15 39.47 0.921 8.22 3.89 13.94
1/15/2023 3:45:00 PM 4.16 39.488 0.921 8.23 2.76 13.88
1/15/2023 4:00:00 PM 4.16 39.488 0.921 8.25 3.56 13.81
1/15/2023 4:15:00 PM 4.17 39.506 0.921 8.26 3.95 13.79
1/15/2023 4:30:00 PM 4.16 39.488 0.921 8.27 3.44 13.77
1/15/2023 4:45:00 PM 4.18 39.524 0.92 8.31 5.78 13.69
1/15/2023 5:00:00 PM 4.17 39.506 0.919 8.37 3.24 13.66
1/15/2023 5:15:00 PM 4.18 39.524 0.919 8.44 2.76 13.55
1/15/2023 5:30:00 PM 4.18 39.524 0.919 8.52 2.48 13.53
1/15/2023 5:45:00 PM 4.16 39.488 0.919 8.6 4.32 13.48
1/15/2023 6:00:00 PM 4.17 39.506 0.918 8.68 3.2 13.42
1/15/2023 6:15:00 PM 4.12 39.416 0.918 8.7 1.96 13.36
1/15/2023 6:30:00 PM 4.11 39.398 0.918 8.72 2.35 13.31
1/15/2023 6:45:00 PM 4.08 39.344 0.915 8.76 2.91 13.25
1/15/2023 7:00:00 PM 4.03 39.254 0.88 8.78 2.37 13.2
1/15/2023 7:15:00 PM 3.99 39.182 0.875 8.78 2.41 13.16
1/15/2023 7:30:00 PM 3.95 39.11 0.873 8.82 2.17 13.12
1/15/2023 7:45:00 PM 3.91 39.038 0.916 8.86 2.31 13.07
1/15/2023 8:00:00 PM 3.86 38.948 0.915 8.89 2.39 13.02
1/15/2023 8:15:00 PM 3.81 38.858 0.914 8.93 2.39 13
1/15/2023 8:30:00 PM 3.78 38.804 0.914 8.97 6.04 12.93
1/15/2023 8:45:00 PM 3.71 38.678 0.915 9.01 1.35 12.91
1/15/2023 9:00:00 PM 3.65 38.57 0.913 9.04 3.29 12.88
1/15/2023 9:15:00 PM 3.61 38.498 0.913 9.05 1.98 12.85
1/15/2023 9:30:00 PM 3.58 38.444 0.911 9.07 2.32 12.83
1/15/2023 9:45:00 PM 3.58 38.444 0.911 9.09 2.08 12.78
1/15/2023 10:00:00 PM 3.48 38.264 0.911 9.09 6.77 12.79
1/15/2023 10:15:00 PM 3.44 38.192 0.91 9.09 2.6 12.77
1/15/2023 10:30:00 PM 3.4 38.12 0.91 9.1 3.02 12.77
1/15/2023 10:45:00 PM 3.37 38.066 0.909 9.12 3.16 12.75
1/15/2023 11:00:00 PM 3.3 37.94 0.909 9.13 2.3 12.73
1/15/2023 11:15:00 PM 3.28 37.904 0.908 9.15 1.89 12.73
1/15/2023 11:30:00 PM 3.21 37.778 0.908 9.17 1.98 12.73
1/15/2023 11:45:00 PM 3.16 37.688 0.907 9.18 2.16 12.74
1/16/2023 12:00:00 AM 3.11 37.598 0.906 9.18 1.66 12.75
1/16/2023 12:15:00 AM 3.07 37.526 0.906 9.19 1.78 12.74
1/16/2023 12:30:00 AM 2.99 37.382 0.907 9.19 1.61 12.75
1/16/2023 12:45:00 AM 2.97 37.346 0.905 9.2 2.04 12.74
1/16/2023 1:00:00 AM 2.87 37.166 0.905 9.2 1.42 12.75
1/16/2023 1:15:00 AM 2.82 37.076 0.905 9.2 2.12 12.77
1/16/2023 1:30:00 AM 2.8 37.04 0.904 9.2 2.29 12.76
1/16/2023 1:45:00 AM 2.74 36.932 0.903 9.21 2.21 12.79
1/16/2023 2:00:00 AM 2.68 36.824 0.903 9.21 1.46 12.8
1/16/2023 2:15:00 AM 2.64 36.752 0.902 9.21 1.57 12.81
1/16/2023 2:30:00 AM 2.56 36.608 0.902 9.23 2.66 12.84
1/16/2023 2:45:00 AM 2.5 36.5 0.9 9.24 1.46 12.87
1/16/2023 3:00:00 AM 2.49 36.482 0.901 9.24 2.26 12.85
1/16/2023 3:15:00 AM 2.4 36.32 0.901 9.25 0.94 12.9
1/16/2023 3:30:00 AM 2.39 36.302 0.9 9.25 1.35 12.89
1/16/2023 3:45:00 AM 2.31 36.158 0.9 9.25 1.63 12.93
1/16/2023 4:00:00 AM 2.27 36.086 0.899 9.24 1.63 12.95
1/16/2023 4:15:00 AM 2.2 35.96 0.899 9.24 1.47 12.97
1/16/2023 4:30:00 AM 2.14 35.852 0.899 9.23 1.45 12.99
1/16/2023 4:45:00 AM 2.1 35.78 0.898 9.23 2 12.97
1/16/2023 5:00:00 AM 2.06 35.708 0.898 9.23 1.5 13.03
1/16/2023 5:15:00 AM 2 35.6 0.897 9.23 2.05 13.05
1/16/2023 5:30:00 AM 1.96 35.528 0.896 9.22 3.34 13.08
1/16/2023 5:45:00 AM 1.97 35.546 0.895 9.22 1.53 13.06
1/16/2023 6:00:00 AM 1.85 35.33 0.897 9.23 1.54 13.1
1/16/2023 6:15:00 AM 1.86 35.348 0.894 9.23 1.37 13.11
1/16/2023 6:30:00 AM 1.79 35.222 0.895 9.22 2.02 13.15
1/16/2023 6:45:00 AM 1.74 35.132 0.895 9.22 1.96 13.18
1/16/2023 7:00:00 AM 1.67 35.006 0.895 9.22 1.73 13.21
1/16/2023 7:15:00 AM 1.67 35.006 0.894 9.22 12.78 13.23
1/16/2023 7:30:00 AM 1.64 34.952 0.894 9.22 2.45 13.23
1/16/2023 7:45:00 AM 1.64 34.952 0.893 9.21 1.84 13.22
1/16/2023 8:00:00 AM 1.54 34.772 0.894 9.2 1.43 13.31
1/16/2023 8:15:00 AM 1.55 34.79 0.893 9.19 1.86 13.35
1/16/2023 8:30:00 AM 1.52 34.736 0.892 9.18 1.92 13.43
1/16/2023 8:45:00 AM 1.55 34.79 0.892 9.17 1.27 13.44
1/16/2023 9:00:00 AM 1.53